Darstellungsparameter: Aktuell verwendete Einstellungen:
Skalierung der Graphiken ... ?
xyx+y,   Skalierungsfaktor:      Skalierung: Modus: x, Faktor: 1
Darstellungszeitraum ... ?
Vom - - bis: - -   Zeitraum: 09.01.2014 - 08.07.2014
Min/Max/Avg-Anzeige ... ?
Zeige MMA aktuell
Zeige MMA Monat
Zeige MMA alles
Zeige --A aktuell
Zeige --A Monat
Zeige --A alles
Keine MMA-Anzeige
MMA:
Minimum Maximum Average (ber die Originaldaten)
MMA-Basis: 09.01.2014 - 08.07.2014
Quicknavigation für Darstellung... ?
Tage:      1T, 2T, 3T, 5T -1T -2T -3T -5T +1T +2T +3T +5T
Wochen: 1W, 2W, 3W -1W -2W -3W +1W +2W +3W
Monate: 1M, 3M, 6M -1M -3M -6M +1M +3M +6M
Jahre:    1J, 3J, 5J, 10J -1J -3J -5J -10J +1J +3J +5J +10J
Nutze für die Darstellung ... ?
Originaldaten oder Mittelwerte auf ...
Stundenbasis Tagesbasis Wochenbasis
Monatsbasis Jahresbasis      Datenbasis: Original-Daten
Darstellen als:
Statistik (Auto) Statistik J:M      Darstellung:
Zur Graphik,    zurück zur Übersicht aller Sensoren.
 
Tabellarische Datenbersicht: ?
 
Sensor: Nr:Datum:Temp:Feuchte:Taupunkt:
Aussen-T/F 1 09-01-2014 01:00:00 6.3 C 97 % 5.86 C
2 09-01-2014 01:05:00 6.3 C 97 % 5.86 C
3 09-01-2014 01:10:00 6.4 C 97 % 5.96 C
4 09-01-2014 01:15:00 6.4 C 97 % 5.96 C
5 09-01-2014 01:20:00 6.4 C 97 % 5.96 C
6 09-01-2014 01:25:00 6.4 C 97 % 5.96 C
7 09-01-2014 01:30:00 6.4 C 97 % 5.96 C
8 09-01-2014 01:35:00 6.5 C 97 % 6.06 C
9 09-01-2014 01:40:00 6.6 C 97 % 6.16 C
10 09-01-2014 01:45:00 6.7 C 97 % 6.26 C
11 09-01-2014 01:50:00 6.8 C 97 % 6.36 C
12 09-01-2014 01:55:00 6.8 C 97 % 6.36 C
13 09-01-2014 02:00:00 6.7 C 97 % 6.26 C
14 09-01-2014 02:05:00 6.7 C 97 % 6.26 C
15 09-01-2014 02:10:00 6.7 C 97 % 6.26 C
16 09-01-2014 02:15:00 6.7 C 97 % 6.26 C
17 09-01-2014 02:20:00 6.7 C 97 % 6.26 C
18 09-01-2014 02:25:00 6.7 C 97 % 6.26 C
19 09-01-2014 02:30:00 6.7 C 97 % 6.26 C
20 09-01-2014 02:35:00 6.7 C 97 % 6.26 C
21 09-01-2014 02:40:00 6.7 C 97 % 6.26 C
22 09-01-2014 02:45:00 6.7 C 97 % 6.26 C
23 09-01-2014 02:50:00 6.7 C 97 % 6.26 C
24 09-01-2014 02:55:00 6.7 C 97 % 6.26 C
25 09-01-2014 03:00:00 6.7 C 97 % 6.26 C
Sensor: Nr:Datum:Temp:Feuchte:Taupunkt:
Aussen-T/F 26 09-01-2014 03:05:00 6.7 C 97 % 6.26 C
27 09-01-2014 03:10:00 6.7 C 97 % 6.26 C
28 09-01-2014 03:15:00 6.7 C 97 % 6.26 C
29 09-01-2014 03:20:00 6.7 C 97 % 6.26 C
30 09-01-2014 03:25:00 6.6 C 97 % 6.16 C
31 09-01-2014 03:30:00 6.6 C 97 % 6.16 C
32 09-01-2014 03:35:00 6.6 C 97 % 6.16 C
33 09-01-2014 03:40:00 6.7 C 97 % 6.26 C
34 09-01-2014 03:45:00 6.7 C 97 % 6.26 C
35 09-01-2014 03:50:00 6.7 C 97 % 6.26 C
36 09-01-2014 03:55:00 6.8 C 97 % 6.36 C
37 09-01-2014 04:00:00 6.8 C 97 % 6.36 C
38 09-01-2014 04:05:00 6.8 C 97 % 6.36 C
39 09-01-2014 04:10:00 6.8 C 97 % 6.36 C
40 09-01-2014 04:15:00 6.8 C 97 % 6.36 C
41 09-01-2014 04:20:00 6.8 C 97 % 6.36 C
42 09-01-2014 04:25:00 6.8 C 97 % 6.36 C
43 09-01-2014 04:30:00 6.8 C 97 % 6.36 C
44 09-01-2014 04:35:00 6.7 C 97 % 6.26 C
45 09-01-2014 04:40:00 6.7 C 97 % 6.26 C
46 09-01-2014 04:45:00 6.7 C 97 % 6.26 C
47 09-01-2014 04:50:00 6.7 C 97 % 6.26 C
48 09-01-2014 04:55:00 6.7 C 97 % 6.26 C
49 09-01-2014 05:00:00 6.6 C 97 % 6.16 C
50 09-01-2014 05:05:00 6.7 C 98 % 6.41 C
Sensor: Nr:Datum:Temp:Feuchte:Taupunkt:
Aussen-T/F 51 09-01-2014 05:10:00 6.7 C 98 % 6.41 C
52 09-01-2014 05:15:00 6.7 C 98 % 6.41 C
53 09-01-2014 05:20:00 6.7 C 98 % 6.41 C
54 09-01-2014 05:25:00 6.8 C 98 % 6.51 C
55 09-01-2014 05:30:00 7.2 C 98 % 6.91 C
56 09-01-2014 05:35:00 7.4 C 98 % 7.11 C
57 09-01-2014 05:40:00 7.4 C 98 % 7.11 C
58 09-01-2014 05:45:00 7.4 C 98 % 7.11 C
59 09-01-2014 05:50:00 7.4 C 98 % 7.11 C
60 09-01-2014 07:20:00 8.9 C 96 % 8.3 C
61 09-01-2014 07:25:00 9.2 C 96 % 8.6 C
62 09-01-2014 07:30:00 9.3 C 94 % 8.39 C
63 09-01-2014 07:35:00 9.5 C 93 % 8.43 C
64 09-01-2014 07:40:00 9.6 C 93 % 8.53 C
65 09-01-2014 07:45:00 9.6 C 92 % 8.37 C
66 09-01-2014 07:50:00 9.6 C 91 % 8.21 C
67 09-01-2014 07:55:00 9.7 C 91 % 8.3 C
68 09-01-2014 08:00:00 9.7 C 90 % 8.14 C
69 09-01-2014 08:05:00 9.8 C 90 % 8.24 C
70 09-01-2014 08:10:00 9.9 C 89 % 8.17 C
71 09-01-2014 08:15:00 9.8 C 89 % 8.08 C
72 09-01-2014 08:20:00 9.7 C 89 % 7.98 C
73 09-01-2014 08:25:00 9.6 C 89 % 7.88 C
74 09-01-2014 08:30:00 9.6 C 89 % 7.88 C
75 09-01-2014 08:35:00 9.6 C 89 % 7.88 C
Sensor: Nr:Datum:Temp:Feuchte:Taupunkt:
Aussen-T/F 76 09-01-2014 08:40:00 9.3 C 89 % 7.58 C
77 09-01-2014 08:45:00 9.2 C 90 % 7.65 C
78 09-01-2014 08:50:00 9.1 C 90 % 7.55 C
79 09-01-2014 08:55:00 9.1 C 91 % 7.71 C
80 09-01-2014 09:00:00 9.1 C 91 % 7.71 C
81 09-01-2014 09:05:00 9.1 C 92 % 7.87 C
82 09-01-2014 09:10:00 9.2 C 92 % 7.97 C
83 09-01-2014 09:15:00 9.3 C 91 % 7.91 C
84 09-01-2014 09:20:00 9.4 C 91 % 8.01 C
85 09-01-2014 09:25:00 9.4 C 91 % 8.01 C
86 09-01-2014 09:30:00 9.4 C 91 % 8.01 C
87 09-01-2014 09:35:00 9.4 C 91 % 8.01 C
88 09-01-2014 09:40:00 9.3 C 91 % 7.91 C
89 09-01-2014 09:45:00 9.4 C 91 % 8.01 C
90 09-01-2014 09:50:00 9.4 C 90 % 7.85 C
91 09-01-2014 09:55:00 9.6 C 90 % 8.04 C
92 09-01-2014 10:00:00 9.7 C 90 % 8.14 C
93 09-01-2014 10:05:00 9.7 C 90 % 8.14 C
94 09-01-2014 10:10:00 9.8 C 90 % 8.24 C
95 09-01-2014 10:15:00 9.9 C 91 % 8.5 C
96 09-01-2014 10:20:00 9.9 C 89 % 8.17 C
97 09-01-2014 10:25:00 10.1 C 90 % 8.54 C
98 09-01-2014 10:30:00 10.2 C 90 % 8.64 C
99 09-01-2014 10:35:00 10.2 C 90 % 8.64 C
100 09-01-2014 10:40:00 10.2 C 90 % 8.64 C
Sensor: Nr:Datum:Temp:Feuchte:Taupunkt:
Aussen-T/F 101 09-01-2014 10:45:00 10.1 C 88 % 8.21 C
102 09-01-2014 10:50:00 10.2 C 88 % 8.3 C
103 09-01-2014 10:55:00 10.2 C 88 % 8.3 C
104 09-01-2014 11:00:00 10.3 C 87 % 8.23 C
105 09-01-2014 11:05:00 10.6 C 87 % 8.53 C
106 09-01-2014 11:10:00 10.6 C 87 % 8.53 C
107 09-01-2014 11:15:00 10.6 C 87 % 8.53 C
108 09-01-2014 11:20:00 10.8 C 86 % 8.56 C
109 09-01-2014 11:25:00 11.1 C 86 % 8.85 C
110 09-01-2014 11:30:00 11.4 C 85 % 8.97 C
111 09-01-2014 11:35:00 11.4 C 85 % 8.97 C
112 09-01-2014 11:40:00 11.9 C 81 % 8.75 C
113 09-01-2014 11:45:00 12.1 C 79 % 8.57 C
114 09-01-2014 11:50:00 12.3 C 78 % 8.58 C
115 09-01-2014 11:55:00 12.3 C 78 % 8.58 C
116 09-01-2014 12:00:00 12.4 C 78 % 8.68 C
117 09-01-2014 12:05:00 12.4 C 78 % 8.68 C
118 09-01-2014 12:10:00 12.4 C 78 % 8.68 C
119 09-01-2014 12:15:00 12.4 C 78 % 8.68 C
120 09-01-2014 12:20:00 12.4 C 78 % 8.68 C
121 09-01-2014 12:25:00 12.4 C 78 % 8.68 C
122 09-01-2014 12:30:00 12.4 C 78 % 8.68 C
123 09-01-2014 12:35:00 12.5 C 78 % 8.77 C
124 09-01-2014 12:40:00 12.5 C 78 % 8.77 C
125 09-01-2014 12:45:00 12.6 C 78 % 8.87 C
Sensor: Nr:Datum:Temp:Feuchte:Taupunkt:
Aussen-T/F 126 09-01-2014 12:50:00 12.6 C 77 % 8.68 C
127 09-01-2014 12:55:00 12.6 C 78 % 8.87 C
128 09-01-2014 13:00:00 12.6 C 77 % 8.68 C
129 09-01-2014 13:05:00 12.6 C 77 % 8.68 C
130 09-01-2014 13:10:00 12.6 C 77 % 8.68 C
131 09-01-2014 13:15:00 12.7 C 77 % 8.78 C
132 09-01-2014 13:20:00 12.7 C 77 % 8.78 C
133 09-01-2014 13:25:00 12.8 C 77 % 8.87 C
134 09-01-2014 13:30:00 12.7 C 77 % 8.78 C
135 09-01-2014 13:35:00 12.7 C 77 % 8.78 C
136 09-01-2014 13:40:00 12.8 C 77 % 8.87 C
137 09-01-2014 13:45:00 12.8 C 77 % 8.87 C
138 09-01-2014 13:50:00 12.7 C 77 % 8.78 C
139 09-01-2014 13:55:00 12.7 C 77 % 8.78 C
140 09-01-2014 14:00:00 12.8 C 77 % 8.87 C
141 09-01-2014 14:05:00 12.8 C 77 % 8.87 C
142 09-01-2014 14:10:00 12.8 C 77 % 8.87 C
143 09-01-2014 14:15:00 12.8 C 77 % 8.87 C
144 09-01-2014 14:20:00 12.8 C 77 % 8.87 C
145 09-01-2014 14:25:00 12.8 C 77 % 8.87 C
146 09-01-2014 14:30:00 12.7 C 77 % 8.78 C
147 09-01-2014 14:35:00 12.7 C 77 % 8.78 C
148 09-01-2014 14:40:00 12.7 C 77 % 8.78 C
149 09-01-2014 14:45:00 12.7 C 77 % 8.78 C
150 09-01-2014 14:50:00 12.6 C 78 % 8.87 C
Sensor: Nr:Datum:Temp:Feuchte:Taupunkt:
Aussen-T/F 151 09-01-2014 14:55:00 12.4 C 78 % 8.68 C
152 09-01-2014 15:00:00 12.3 C 79 % 8.77 C
153 09-01-2014 15:05:00 12.2 C 80 % 8.86 C
154 09-01-2014 15:10:00 12.1 C 81 % 8.94 C
155 09-01-2014 15:15:00 11.9 C 82 % 8.93 C
156 09-01-2014 15:20:00 11.7 C 83 % 8.91 C
157 09-01-2014 15:25:00 11.6 C 85 % 9.17 C
158 09-01-2014 15:30:00 11.3 C 86 % 9.05 C
159 09-01-2014 15:35:00 11.1 C 87 % 9.02 C
160 09-01-2014 15:40:00 10.9 C 84 % 8.31 C
161 09-01-2014 15:45:00 10.8 C 85 % 8.38 C
162 09-01-2014 15:50:00 10.8 C 85 % 8.38 C
163 09-01-2014 15:55:00 10.8 C 84 % 8.21 C
164 09-01-2014 16:00:00 10.8 C 82 % 7.85 C
165 09-01-2014 16:05:00 10.8 C 82 % 7.85 C
166 09-01-2014 16:10:00 10.7 C 84 % 8.11 C
167 09-01-2014 16:15:00 10.7 C 85 % 8.28 C
168 09-01-2014 16:20:00 10.5 C 84 % 7.91 C
169 09-01-2014 16:25:00 10.5 C 84 % 7.91 C
170 09-01-2014 16:30:00 10.4 C 84 % 7.82 C
171 09-01-2014 16:35:00 10.3 C 84 % 7.72 C
172 09-01-2014 16:40:00 10.2 C 86 % 7.97 C
173 09-01-2014 16:45:00 10.2 C 86 % 7.97 C
174 09-01-2014 16:50:00 10.1 C 87 % 8.04 C
175 09-01-2014 16:55:00 10.1 C 87 % 8.04 C
Sensor: Nr:Datum:Temp:Feuchte:Taupunkt:
Aussen-T/F 176 09-01-2014 17:00:00 10 C 88 % 8.11 C
177 09-01-2014 17:05:00 9.9 C 88 % 8.01 C
178 09-01-2014 17:10:00 9.9 C 86 % 7.67 C
179 09-01-2014 17:15:00 9.9 C 86 % 7.67 C
180 09-01-2014 17:20:00 9.9 C 86 % 7.67 C
181 09-01-2014 17:25:00 9.9 C 86 % 7.67 C
182 09-01-2014 17:30:00 9.9 C 86 % 7.67 C
183 09-01-2014 17:35:00 9.9 C 86 % 7.67 C
184 09-01-2014 17:40:00 9.9 C 86 % 7.67 C
185 09-01-2014 17:45:00 9.9 C 85 % 7.5 C
186 09-01-2014 17:50:00 10.1 C 84 % 7.52 C
187 09-01-2014 17:55:00 10.1 C 84 % 7.52 C
188 09-01-2014 18:00:00 10.1 C 84 % 7.52 C
189 09-01-2014 18:05:00 10 C 84 % 7.43 C
190 09-01-2014 18:10:00 10 C 84 % 7.43 C
191 09-01-2014 18:15:00 10 C 84 % 7.43 C
192 09-01-2014 18:20:00 9.9 C 84 % 7.33 C
193 09-01-2014 18:25:00 9.9 C 84 % 7.33 C
194 09-01-2014 18:30:00 9.9 C 84 % 7.33 C
195 09-01-2014 18:35:00 9.9 C 83 % 7.15 C
196 09-01-2014 18:40:00 9.9 C 84 % 7.33 C
197 09-01-2014 18:45:00 9.8 C 83 % 7.05 C
198 09-01-2014 18:50:00 9.8 C 84 % 7.23 C
199 09-01-2014 18:55:00 9.8 C 84 % 7.23 C
200 09-01-2014 19:00:00 9.8 C 84 % 7.23 C
Sensor: Nr:Datum:Temp:Feuchte:Taupunkt:
Aussen-T/F 201 09-01-2014 19:05:00 9.7 C 83 % 6.96 C
202 09-01-2014 19:10:00 9.8 C 83 % 7.05 C
203 09-01-2014 19:15:00 9.8 C 83 % 7.05 C
204 09-01-2014 19:20:00 9.8 C 83 % 7.05 C
205 09-01-2014 19:25:00 9.8 C 84 % 7.23 C
206 09-01-2014 19:30:00 9.7 C 84 % 7.13 C
207 09-01-2014 19:35:00 9.7 C 85 % 7.3 C
208 09-01-2014 19:40:00 9.7 C 85 % 7.3 C
209 09-01-2014 19:45:00 9.6 C 86 % 7.38 C
210 09-01-2014 19:50:00 9.6 C 86 % 7.38 C
211 09-01-2014 19:55:00 9.6 C 85 % 7.21 C
212 09-01-2014 20:00:00 9.6 C 85 % 7.21 C
213 09-01-2014 20:05:00 9.6 C 85 % 7.21 C
214 09-01-2014 20:10:00 9.6 C 84 % 7.03 C
215 09-01-2014 20:15:00 9.7 C 82 % 6.78 C
216 09-01-2014 20:20:00 9.7 C 80 % 6.42 C
217 09-01-2014 20:25:00 9.6 C 77 % 5.77 C
218 09-01-2014 20:30:00 9.6 C 77 % 5.77 C
219 09-01-2014 20:35:00 9.6 C 76 % 5.58 C
220 09-01-2014 20:40:00 9.4 C 77 % 5.58 C
221 09-01-2014 20:45:00 9.4 C 77 % 5.58 C
222 09-01-2014 20:50:00 9.3 C 77 % 5.48 C
223 09-01-2014 20:55:00 9.3 C 77 % 5.48 C
224 09-01-2014 21:00:00 9.2 C 78 % 5.57 C
225 09-01-2014 21:05:00 9.1 C 77 % 5.29 C
Sensor: Nr:Datum:Temp:Feuchte:Taupunkt:
Aussen-T/F 226 09-01-2014 21:10:00 8.9 C 75 % 4.72 C
227 09-01-2014 21:15:00 8.8 C 74 % 4.43 C
228 09-01-2014 21:20:00 8.7 C 73 % 4.14 C
229 09-01-2014 21:25:00 8.5 C 73 % 3.95 C
230 09-01-2014 21:30:00 8.4 C 74 % 4.04 C
231 09-01-2014 21:35:00 8.3 C 74 % 3.95 C
232 09-01-2014 21:40:00 8.2 C 74 % 3.85 C
233 09-01-2014 21:45:00 8.1 C 73 % 3.56 C
234 09-01-2014 21:50:00 7.9 C 74 % 3.56 C
235 09-01-2014 21:55:00 7.8 C 75 % 3.65 C
236 09-01-2014 22:00:00 7.7 C 75 % 3.56 C
237 09-01-2014 22:05:00 7.5 C 75 % 3.36 C
238 09-01-2014 22:10:00 7.3 C 75 % 3.17 C
239 09-01-2014 22:15:00 7.1 C 77 % 3.35 C
240 09-01-2014 22:20:00 6.9 C 76 % 2.97 C
241 09-01-2014 22:25:00 6.9 C 77 % 3.16 C
242 09-01-2014 22:30:00 6.8 C 75 % 2.69 C
243 09-01-2014 22:35:00 6.7 C 76 % 2.78 C
244 09-01-2014 22:40:00 6.7 C 75 % 2.59 C
245 09-01-2014 22:45:00 6.7 C 76 % 2.78 C
246 09-01-2014 22:50:00 6.5 C 76 % 2.58 C
247 09-01-2014 22:55:00 6.6 C 75 % 2.49 C
248 09-01-2014 23:00:00 6.6 C 76 % 2.68 C
249 09-01-2014 23:05:00 6.4 C 77 % 2.67 C
250 09-01-2014 23:10:00 6.2 C 79 % 2.84 C
Sensor: Nr:Datum:Temp:Feuchte:Taupunkt:
Aussen-T/F 251 09-01-2014 23:15:00 6.2 C 79 % 2.84 C
252 09-01-2014 23:20:00 6.2 C 79 % 2.84 C
253 09-01-2014 23:25:00 6.3 C 79 % 2.93 C
254 09-01-2014 23:30:00 6.4 C 78 % 2.85 C
255 09-01-2014 23:35:00 6.5 C 79 % 3.13 C
256 09-01-2014 23:40:00 6.6 C 79 % 3.23 C
257 09-01-2014 23:45:00 6.6 C 79 % 3.23 C
258 09-01-2014 23:50:00 6.6 C 79 % 3.23 C
259 09-01-2014 23:55:00 6.5 C 80 % 3.31 C
260 10-01-2014 00:00:00 6.4 C 80 % 3.21 C
261 10-01-2014 00:05:00 6.3 C 82 % 3.46 C
262 10-01-2014 00:10:00 6.2 C 84 % 3.7 C
263 10-01-2014 00:15:00 6.1 C 84 % 3.61 C
264 10-01-2014 00:20:00 6 C 86 % 3.84 C
265 10-01-2014 00:25:00 5.8 C 86 % 3.64 C
266 10-01-2014 00:30:00 5.8 C 87 % 3.81 C
267 10-01-2014 00:35:00 5.7 C 87 % 3.71 C
268 10-01-2014 00:40:00 5.7 C 87 % 3.71 C
269 10-01-2014 00:45:00 5.7 C 87 % 3.71 C
270 10-01-2014 00:50:00 5.7 C 87 % 3.71 C
271 10-01-2014 00:55:00 5.7 C 87 % 3.71 C
272 10-01-2014 01:00:00 5.7 C 88 % 3.87 C
273 10-01-2014 01:05:00 5.7 C 88 % 3.87 C
274 10-01-2014 01:10:00 5.7 C 88 % 3.87 C
275 10-01-2014 01:15:00 5.7 C 88 % 3.87 C
Sensor: Nr:Datum:Temp:Feuchte:Taupunkt:
Aussen-T/F 276 10-01-2014 01:20:00 5.6 C 89 % 3.93 C
277 10-01-2014 01:25:00 5.6 C 89 % 3.93 C
278 10-01-2014 01:30:00 5.6 C 89 % 3.93 C
279 10-01-2014 01:35:00 5.6 C 89 % 3.93 C
280 10-01-2014 01:40:00 5.7 C 89 % 4.03 C
281 10-01-2014 01:45:00 5.8 C 89 % 4.13 C
282 10-01-2014 01:50:00 5.8 C 89 % 4.13 C
283 10-01-2014 01:55:00 5.9 C 88 % 4.07 C
284 10-01-2014 02:00:00 5.9 C 88 % 4.07 C
285 10-01-2014 02:05:00 6 C 87 % 4 C
286 10-01-2014 02:10:00 6.1 C 87 % 4.1 C
287 10-01-2014 02:15:00 6.2 C 86 % 4.04 C
288 10-01-2014 02:20:00 6.2 C 86 % 4.04 C
289 10-01-2014 02:25:00 6.3 C 86 % 4.14 C
290 10-01-2014 02:30:00 6.3 C 86 % 4.14 C
291 10-01-2014 02:35:00 6.3 C 86 % 4.14 C
292 10-01-2014 02:40:00 6.3 C 86 % 4.14 C
293 10-01-2014 02:45:00 6.3 C 86 % 4.14 C
294 10-01-2014 02:50:00 6.3 C 86 % 4.14 C
295 10-01-2014 02:55:00 6.2 C 86 % 4.04 C
296 10-01-2014 03:00:00 6.2 C 86 % 4.04 C
297 10-01-2014 03:05:00 6.1 C 86 % 3.94 C
298 10-01-2014 03:10:00 6.1 C 86 % 3.94 C
299 10-01-2014 03:15:00 6.1 C 87 % 4.1 C
300 10-01-2014 03:20:00 6.1 C 86 % 3.94 C
Sensor: Nr:Datum:Temp:Feuchte:Taupunkt:
Aussen-T/F 301 10-01-2014 03:25:00 6.1 C 86 % 3.94 C
302 10-01-2014 03:30:00 6 C 86 % 3.84 C
303 10-01-2014 03:35:00 5.8 C 86 % 3.64 C
304 10-01-2014 03:40:00 5.7 C 87 % 3.71 C
305 10-01-2014 03:45:00 5.6 C 87 % 3.61 C
306 10-01-2014 03:50:00 5.5 C 87 % 3.51 C
307 10-01-2014 03:55:00 5.3 C 87 % 3.32 C
308 10-01-2014 04:00:00 5.1 C 88 % 3.28 C
309 10-01-2014 04:05:00 4.9 C 89 % 3.24 C
310 10-01-2014 04:10:00 4.8 C 89 % 3.14 C
311 10-01-2014 04:15:00 4.7 C 89 % 3.05 C
312 10-01-2014 04:20:00 4.7 C 89 % 3.05 C
313 10-01-2014 04:25:00 4.8 C 89 % 3.14 C
314 10-01-2014 04:30:00 4.8 C 89 % 3.14 C
315 10-01-2014 04:35:00 4.7 C 89 % 3.05 C
316 10-01-2014 04:40:00 4.7 C 89 % 3.05 C
317 10-01-2014 04:45:00 4.8 C 88 % 2.99 C
318 10-01-2014 04:50:00 4.8 C 88 % 2.99 C
319 10-01-2014 04:55:00 4.7 C 89 % 3.05 C
320 10-01-2014 05:00:00 4.6 C 89 % 2.95 C
321 10-01-2014 05:05:00 4.7 C 89 % 3.05 C
322 10-01-2014 05:10:00 4.8 C 88 % 2.99 C
323 10-01-2014 05:15:00 4.7 C 88 % 2.89 C
324 10-01-2014 05:20:00 4.7 C 89 % 3.05 C
325 10-01-2014 05:25:00 4.7 C 89 % 3.05 C
Sensor: Nr:Datum:Temp:Feuchte:Taupunkt:
Aussen-T/F 326 10-01-2014 05:30:00 4.7 C 89 % 3.05 C
327 10-01-2014 05:35:00 5.1 C 88 % 3.28 C
328 10-01-2014 05:40:00 5.4 C 86 % 3.25 C
329 10-01-2014 05:45:00 5.6 C 85 % 3.28 C
330 10-01-2014 05:50:00 5.6 C 85 % 3.28 C
331 10-01-2014 05:55:00 5.4 C 85 % 3.09 C
332 10-01-2014 06:00:00 5.2 C 86 % 3.05 C
333 10-01-2014 06:05:00 5.1 C 87 % 3.12 C
334 10-01-2014 06:10:00 4.9 C 87 % 2.92 C
335 10-01-2014 06:15:00 4.8 C 88 % 2.99 C
336 10-01-2014 06:20:00 4.6 C 89 % 2.95 C
337 10-01-2014 06:25:00 4.5 C 89 % 2.85 C
338 10-01-2014 06:30:00 4.3 C 90 % 2.81 C
339 10-01-2014 06:35:00 4.7 C 90 % 3.2 C
340 10-01-2014 06:40:00 4.8 C 89 % 3.14 C
341 10-01-2014 06:45:00 4.7 C 89 % 3.05 C
342 10-01-2014 06:50:00 4.7 C 89 % 3.05 C
343 10-01-2014 06:55:00 4.6 C 89 % 2.95 C
344 10-01-2014 07:00:00 4.7 C 89 % 3.05 C
345 10-01-2014 07:05:00 4.7 C 90 % 3.2 C
346 10-01-2014 07:10:00 5 C 89 % 3.34 C
347 10-01-2014 07:15:00 5.1 C 88 % 3.28 C
348 10-01-2014 07:20:00 5.2 C 88 % 3.38 C
349 10-01-2014 07:25:00 5.2 C 88 % 3.38 C
350 10-01-2014 07:30:00 5.2 C 87 % 3.22 C
Sensor: Nr:Datum:Temp:Feuchte:Taupunkt:
Aussen-T/F 351 10-01-2014 07:35:00 5.2 C 88 % 3.38 C
352 10-01-2014 07:40:00 5.2 C 88 % 3.38 C
353 10-01-2014 07:45:00 5.1 C 88 % 3.28 C
354 10-01-2014 07:50:00 5.1 C 88 % 3.28 C
355 10-01-2014 07:55:00 5 C 88 % 3.18 C
356 10-01-2014 08:00:00 4.9 C 88 % 3.08 C
357 10-01-2014 08:05:00 4.8 C 88 % 2.99 C
358 10-01-2014 08:10:00 4.6 C 89 % 2.95 C
359 10-01-2014 08:15:00 4.9 C 90 % 3.4 C
360 10-01-2014 08:20:00 5.2 C 88 % 3.38 C
361 10-01-2014 08:25:00 5.5 C 87 % 3.51 C
362 10-01-2014 08:30:00 5.7 C 86 % 3.55 C
363 10-01-2014 08:35:00 5.8 C 85 % 3.48 C
364 10-01-2014 08:40:00 5.8 C 85 % 3.48 C
365 10-01-2014 08:45:00 5.9 C 84 % 3.41 C
366 10-01-2014 08:50:00 6 C 84 % 3.51 C
367 10-01-2014 08:55:00 5.9 C 84 % 3.41 C
368 10-01-2014 09:00:00 5.8 C 85 % 3.48 C
369 10-01-2014 09:05:00 5.7 C 86 % 3.55 C
370 10-01-2014 09:10:00 5.4 C 86 % 3.25 C
371 10-01-2014 09:15:00 5.2 C 87 % 3.22 C
372 10-01-2014 09:20:00 5.1 C 89 % 3.44 C
373 10-01-2014 09:25:00 5.1 C 89 % 3.44 C
374 10-01-2014 09:30:00 5.2 C 89 % 3.54 C
375 10-01-2014 09:35:00 5.3 C 88 % 3.48 C
Sensor: Nr:Datum:Temp:Feuchte:Taupunkt:
Aussen-T/F 376 10-01-2014 09:40:00 5.3 C 89 % 3.64 C
377 10-01-2014 09:45:00 5.3 C 88 % 3.48 C
378 10-01-2014 09:50:00 5.3 C 89 % 3.64 C
379 10-01-2014 09:55:00 5.4 C 89 % 3.74 C
380 10-01-2014 10:00:00 5.4 C 88 % 3.58 C
381 10-01-2014 10:05:00 5.4 C 89 % 3.74 C
382 10-01-2014 10:10:00 5.4 C 89 % 3.74 C
383 10-01-2014 10:15:00 5.4 C 89 % 3.74 C
384 10-01-2014 10:20:00 5.4 C 89 % 3.74 C
385 10-01-2014 10:25:00 5.6 C 89 % 3.93 C
386 10-01-2014 10:30:00 5.7 C 89 % 4.03 C
387 10-01-2014 10:35:00 5.9 C 88 % 4.07 C
388 10-01-2014 10:40:00 5.9 C 87 % 3.91 C
389 10-01-2014 10:45:00 5.9 C 87 % 3.91 C
390 10-01-2014 10:50:00 6.1 C 87 % 4.1 C
391 10-01-2014 10:55:00 6.2 C 86 % 4.04 C
392 10-01-2014 11:00:00 6.3 C 86 % 4.14 C
393 10-01-2014 11:05:00 6.4 C 85 % 4.07 C
394 10-01-2014 11:10:00 6.4 C 85 % 4.07 C
395 10-01-2014 11:15:00 6.5 C 84 % 4 C
396 10-01-2014 11:20:00 6.6 C 84 % 4.1 C
397 10-01-2014 11:25:00 6.6 C 84 % 4.1 C
398 10-01-2014 11:30:00 6.7 C 83 % 4.02 C
399 10-01-2014 11:35:00 6.8 C 83 % 4.12 C
400 10-01-2014 11:40:00 6.8 C 83 % 4.12 C
Sensor: Nr:Datum:Temp:Feuchte:Taupunkt:
Aussen-T/F 401 10-01-2014 11:45:00 6.9 C 83 % 4.22 C
402 10-01-2014 11:50:00 7 C 83 % 4.32 C
403 10-01-2014 11:55:00 7.1 C 82 % 4.24 C
404 10-01-2014 12:00:00 7.1 C 82 % 4.24 C
405 10-01-2014 12:05:00 7.2 C 82 % 4.34 C
406 10-01-2014 12:10:00 7.2 C 82 % 4.34 C
407 10-01-2014 12:15:00 7.2 C 81 % 4.16 C
408 10-01-2014 12:20:00 7.3 C 82 % 4.44 C
409 10-01-2014 12:25:00 7.5 C 81 % 4.46 C
410 10-01-2014 12:30:00 7.6 C 81 % 4.55 C
411 10-01-2014 12:35:00 7.6 C 81 % 4.55 C
412 10-01-2014 12:40:00 7.7 C 81 % 4.65 C
413 10-01-2014 12:45:00 7.8 C 81 % 4.75 C
414 10-01-2014 12:50:00 7.9 C 80 % 4.67 C
415 10-01-2014 12:55:00 7.9 C 80 % 4.67 C
416 10-01-2014 13:00:00 7.8 C 80 % 4.57 C
417 10-01-2014 13:05:00 7.8 C 80 % 4.57 C
418 10-01-2014 13:10:00 7.7 C 81 % 4.65 C
419 10-01-2014 13:15:00 7.7 C 81 % 4.65 C
420 10-01-2014 13:20:00 7.7 C 81 % 4.65 C
421 10-01-2014 13:25:00 7.7 C 81 % 4.65 C
422 10-01-2014 13:30:00 7.7 C 81 % 4.65 C
423 10-01-2014 13:35:00 7.7 C 81 % 4.65 C
424 10-01-2014 13:40:00 7.7 C 80 % 4.47 C
425 10-01-2014 13:45:00 7.7 C 80 % 4.47 C
Sensor: Nr:Datum:Temp:Feuchte:Taupunkt:
Aussen-T/F 426 10-01-2014 13:50:00 7.7 C 80 % 4.47 C
427 10-01-2014 13:55:00 7.7 C 80 % 4.47 C
428 10-01-2014 14:00:00 7.7 C 81 % 4.65 C
429 10-01-2014 14:05:00 7.7 C 81 % 4.65 C
430 10-01-2014 14:10:00 7.7 C 81 % 4.65 C
431 10-01-2014 14:15:00 7.7 C 81 % 4.65 C
432 10-01-2014 14:20:00 7.7 C 81 % 4.65 C
433 10-01-2014 14:25:00 7.7 C 81 % 4.65 C
434 10-01-2014 14:30:00 7.7 C 81 % 4.65 C
435 10-01-2014 14:35:00 7.8 C 81 % 4.75 C
436 10-01-2014 14:40:00 7.8 C 81 % 4.75 C
437 10-01-2014 14:45:00 7.8 C 81 % 4.75 C
438 10-01-2014 14:50:00 7.8 C 81 % 4.75 C
439 10-01-2014 14:55:00 7.8 C 81 % 4.75 C
440 10-01-2014 15:00:00 7.8 C 81 % 4.75 C
441 10-01-2014 15:05:00 7.9 C 82 % 5.02 C
442 10-01-2014 15:10:00 7.9 C 81 % 4.85 C
443 10-01-2014 15:15:00 8 C 81 % 4.94 C
444 10-01-2014 15:20:00 8.1 C 81 % 5.04 C
445 10-01-2014 15:25:00 8.1 C 80 % 4.86 C
446 10-01-2014 15:30:00 8.1 C 81 % 5.04 C
447 10-01-2014 15:35:00 7.8 C 82 % 4.92 C
448 10-01-2014 15:40:00 7.7 C 81 % 4.65 C
449 10-01-2014 15:45:00 7.7 C 81 % 4.65 C
450 10-01-2014 15:50:00 7.7 C 81 % 4.65 C
Sensor: Nr:Datum:Temp:Feuchte:Taupunkt:
Aussen-T/F 451 10-01-2014 15:55:00 7.5 C 81 % 4.46 C
452 10-01-2014 16:00:00 7.4 C 82 % 4.53 C
453 10-01-2014 16:05:00 7.3 C 82 % 4.44 C
454 10-01-2014 16:10:00 7.2 C 83 % 4.51 C
455 10-01-2014 16:15:00 7.1 C 83 % 4.41 C
456 10-01-2014 16:20:00 6.8 C 84 % 4.29 C
457 10-01-2014 16:25:00 6.6 C 85 % 4.26 C
458 10-01-2014 16:30:00 6.3 C 85 % 3.97 C
459 10-01-2014 16:35:00 6.3 C 86 % 4.14 C
460 10-01-2014 16:40:00 6.1 C 86 % 3.94 C
461 10-01-2014 16:45:00 5.8 C 87 % 3.81 C
462 10-01-2014 16:50:00 5.7 C 88 % 3.87 C
463 10-01-2014 16:55:00 5.4 C 89 % 3.74 C
464 10-01-2014 17:00:00 5.3 C 89 % 3.64 C
465 10-01-2014 17:05:00 5.2 C 89 % 3.54 C
466 10-01-2014 17:10:00 5.2 C 90 % 3.7 C
467 10-01-2014 17:15:00 5.1 C 90 % 3.6 C
468 10-01-2014 17:20:00 5.1 C 90 % 3.6 C
469 10-01-2014 17:25:00 5.2 C 90 % 3.7 C
470 10-01-2014 17:30:00 5.2 C 89 % 3.54 C
471 10-01-2014 17:35:00 5.1 C 89 % 3.44 C
472 10-01-2014 17:40:00 5 C 90 % 3.5 C
473 10-01-2014 17:45:00 5.1 C 89 % 3.44 C
474 10-01-2014 17:50:00 4.9 C 89 % 3.24 C
475 10-01-2014 17:55:00 4.8 C 90 % 3.3 C
Sensor: Nr:Datum:Temp:Feuchte:Taupunkt:
Aussen-T/F 476 10-01-2014 18:00:00 4.7 C 90 % 3.2 C
477 10-01-2014 18:05:00 4.8 C 90 % 3.3 C
478 10-01-2014 18:10:00 5 C 90 % 3.5 C
479 10-01-2014 18:15:00 5 C 89 % 3.34 C
480 10-01-2014 18:20:00 5.2 C 89 % 3.54 C
481 10-01-2014 18:25:00 5.5 C 87 % 3.51 C
482 10-01-2014 18:30:00 5.3 C 87 % 3.32 C
483 10-01-2014 18:35:00 5.2 C 88 % 3.38 C
484 10-01-2014 18:40:00 5.1 C 88 % 3.28 C
485 10-01-2014 18:45:00 5.1 C 89 % 3.44 C
486 10-01-2014 18:50:00 5.1 C 88 % 3.28 C
487 10-01-2014 18:55:00 5 C 89 % 3.34 C
488 10-01-2014 19:00:00 4.9 C 89 % 3.24 C
489 10-01-2014 19:05:00 4.9 C 89 % 3.24 C
490 10-01-2014 19:10:00 5 C 89 % 3.34 C
491 10-01-2014 19:15:00 5.1 C 89 % 3.44 C
492 10-01-2014 19:20:00 5.4 C 88 % 3.58 C
493 10-01-2014 19:25:00 5.6 C 87 % 3.61 C
494 10-01-2014 19:30:00 5.7 C 87 % 3.71 C
495 10-01-2014 19:35:00 5.6 C 86 % 3.45 C
496 10-01-2014 19:40:00 5.7 C 86 % 3.55 C
497 10-01-2014 19:45:00 5.6 C 86 % 3.45 C
498 10-01-2014 19:50:00 5.5 C 86 % 3.35 C
499 10-01-2014 19:55:00 5.4 C 86 % 3.25 C
500 10-01-2014 20:00:00 5.4 C 86 % 3.25 C
Sensor: Nr:Datum:Temp:Feuchte:Taupunkt:
Aussen-T/F 501 10-01-2014 20:05:00 5.1 C 87 % 3.12 C
502 10-01-2014 20:10:00 4.9 C 88 % 3.08 C
503 10-01-2014 20:15:00 4.8 C 89 % 3.14 C
504 10-01-2014 20:20:00 4.8 C 89 % 3.14 C
505 10-01-2014 20:25:00 4.7 C 89 % 3.05 C
506 10-01-2014 20:30:00 4.6 C 89 % 2.95 C
507 10-01-2014 20:35:00 4.5 C 89 % 2.85 C
508 10-01-2014 20:40:00 4.4 C 90 % 2.91 C
509 10-01-2014 20:45:00 4.5 C 89 % 2.85 C
510 10-01-2014 20:50:00 4.4 C 89 % 2.75 C
511 10-01-2014 20:55:00 4.3 C 90 % 2.81 C
512 10-01-2014 21:00:00 4.4 C 90 % 2.91 C
513 10-01-2014 21:05:00 4.4 C 90 % 2.91 C
514 10-01-2014 21:10:00 4.4 C 90 % 2.91 C
515 10-01-2014 21:15:00 4.3 C 90 % 2.81 C
516 10-01-2014 21:20:00 4.2 C 91 % 2.87 C
517 10-01-2014 21:25:00 4.2 C 91 % 2.87 C
518 10-01-2014 21:30:00 4.1 C 91 % 2.77 C
519 10-01-2014 21:35:00 4 C 91 % 2.67 C
520 10-01-2014 21:40:00 3.8 C 91 % 2.47 C
521 10-01-2014 21:45:00 3.8 C 92 % 2.62 C
522 10-01-2014 21:50:00 3.7 C 92 % 2.52 C
523 10-01-2014 21:55:00 3.6 C 92 % 2.42 C
524 10-01-2014 22:00:00 3.5 C 92 % 2.33 C
525 10-01-2014 22:05:00 3.4 C 93 % 2.38 C
Sensor: Nr:Datum:Temp:Feuchte:Taupunkt:
Aussen-T/F 526 10-01-2014 22:10:00 3.4 C 93 % 2.38 C
527 10-01-2014 22:15:00 3.4 C 93 % 2.38 C
528 10-01-2014 22:20:00 3.3 C 93 % 2.28 C
529 10-01-2014 22:25:00 3.2 C 93 % 2.18 C
530 10-01-2014 22:30:00 3.2 C 93 % 2.18 C
531 10-01-2014 22:35:00 3.1 C 93 % 2.08 C
532 10-01-2014 22:40:00 3.1 C 94 % 2.23 C
533 10-01-2014 22:45:00 3.1 C 94 % 2.23 C
534 10-01-2014 22:50:00 3.1 C 94 % 2.23 C
535 10-01-2014 22:55:00 3.2 C 94 % 2.33 C
536 10-01-2014 23:00:00 3.1 C 94 % 2.23 C
537 10-01-2014 23:05:00 3.1 C 94 % 2.23 C
538 10-01-2014 23:10:00 3.1 C 94 % 2.23 C
539 10-01-2014 23:15:00 3 C 94 % 2.13 C
540 10-01-2014 23:20:00 3.1 C 95 % 2.38 C
541 10-01-2014 23:25:00 3.1 C 94 % 2.23 C
542 10-01-2014 23:30:00 3 C 94 % 2.13 C
543 10-01-2014 23:35:00 3.1 C 95 % 2.38 C
544 10-01-2014 23:40:00 3.1 C 95 % 2.38 C
545 10-01-2014 23:45:00 3.1 C 95 % 2.38 C
546 10-01-2014 23:50:00 3 C 95 % 2.28 C
547 10-01-2014 23:55:00 2.9 C 95 % 2.18 C
548 11-01-2014 00:00:00 2.8 C 95 % 2.08 C
549 11-01-2014 00:05:00 2.8 C 95 % 2.08 C
550 11-01-2014 00:10:00 2.8 C 95 % 2.08 C
Sensor: Nr:Datum:Temp:Feuchte:Taupunkt:
Aussen-T/F 551 11-01-2014 00:15:00 2.7 C 95 % 1.98 C
552 11-01-2014 00:20:00 2.6 C 95 % 1.88 C
553 11-01-2014 00:25:00 2.5 C 95 % 1.78 C
554 11-01-2014 00:30:00 2.4 C 95 % 1.68 C
555 11-01-2014 00:35:00 2.3 C 95 % 1.58 C
556 11-01-2014 00:40:00 2.3 C 95 % 1.58 C
557 11-01-2014 00:45:00 2.4 C 95 % 1.68 C
558 11-01-2014 00:50:00 2.4 C 95 % 1.68 C
559 11-01-2014 00:55:00 2.3 C 95 % 1.58 C
560 11-01-2014 01:00:00 2.3 C 95 % 1.58 C
561 11-01-2014 01:05:00 2.3 C 95 % 1.58 C
562 11-01-2014 01:10:00 2.3 C 95 % 1.58 C
563 11-01-2014 01:15:00 2.2 C 95 % 1.48 C
564 11-01-2014 01:20:00 2.2 C 96 % 1.63 C
565 11-01-2014 01:25:00 2.2 C 95 % 1.48 C
566 11-01-2014 01:30:00 2.1 C 95 % 1.38 C
567 11-01-2014 01:35:00 2.1 C 95 % 1.38 C
568 11-01-2014 01:40:00 1.9 C 95 % 1.19 C
569 11-01-2014 01:45:00 1.9 C 95 % 1.19 C
570 11-01-2014 01:50:00 1.8 C 95 % 1.09 C
571 11-01-2014 01:55:00 1.7 C 95 % 0.99 C
572 11-01-2014 02:00:00 1.7 C 95 % 0.99 C
573 11-01-2014 02:05:00 1.7 C 96 % 1.13 C
574 11-01-2014 02:10:00 1.7 C 96 % 1.13 C
575 11-01-2014 02:15:00 1.7 C 96 % 1.13 C
Sensor: Nr:Datum:Temp:Feuchte:Taupunkt:
Aussen-T/F 576 11-01-2014 02:20:00 1.7 C 96 % 1.13 C
577 11-01-2014 02:25:00 1.8 C 96 % 1.23 C
578 11-01-2014 02:30:00 1.9 C 96 % 1.33 C
579 11-01-2014 02:35:00 1.9 C 96 % 1.33 C
580 11-01-2014 02:40:00 1.9 C 96 % 1.33 C
581 11-01-2014 02:45:00 1.8 C 96 % 1.23 C
582 11-01-2014 02:50:00 1.8 C 96 % 1.23 C
583 11-01-2014 02:55:00 1.8 C 96 % 1.23 C
584 11-01-2014 03:00:00 1.8 C 96 % 1.23 C
585 11-01-2014 03:05:00 1.8 C 96 % 1.23 C
586 11-01-2014 03:10:00 1.8 C 96 % 1.23 C
587 11-01-2014 03:15:00 1.7 C 96 % 1.13 C
588 11-01-2014 03:20:00 1.5 C 96 % 0.93 C
589 11-01-2014 03:25:00 1.4 C 96 % 0.83 C
590 11-01-2014 03:30:00 1.4 C 96 % 0.83 C
591 11-01-2014 03:35:00 1.4 C 96 % 0.83 C
592 11-01-2014 03:40:00 1.4 C 96 % 0.83 C
593 11-01-2014 03:45:00 1.4 C 96 % 0.83 C
594 11-01-2014 03:50:00 1.4 C 96 % 0.83 C
595 11-01-2014 03:55:00 1.5 C 96 % 0.93 C
596 11-01-2014 04:00:00 1.5 C 96 % 0.93 C
597 11-01-2014 04:05:00 1.4 C 96 % 0.83 C
598 11-01-2014 04:10:00 1.4 C 96 % 0.83 C
599 11-01-2014 04:15:00 1.3 C 96 % 0.73 C
600 11-01-2014 04:20:00 1.3 C 96 % 0.73 C
Sensor: Nr:Datum:Temp:Feuchte:Taupunkt:
Aussen-T/F 601 11-01-2014 04:25:00 1.3 C 96 % 0.73 C
602 11-01-2014 04:30:00 1.3 C 96 % 0.73 C
603 11-01-2014 04:35:00 1.3 C 96 % 0.73 C
604 11-01-2014 04:40:00 1.3 C 96 % 0.73 C
605 11-01-2014 04:45:00 1.4 C 96 % 0.83 C
606 11-01-2014 04:50:00 1.4 C 97 % 0.98 C
607 11-01-2014 04:55:00 1.3 C 97 % 0.88 C
608 11-01-2014 05:00:00 1.3 C 97 % 0.88 C
609 11-01-2014 05:05:00 1.1 C 96 % 0.54 C
610 11-01-2014 05:10:00 0.9 C 96 % 0.34 C
611 11-01-2014 05:15:00 0.8 C 96 % 0.24 C
612 11-01-2014 05:20:00 0.9 C 97 % 0.48 C
613 11-01-2014 05:25:00 0.8 C 96 % 0.24 C
614 11-01-2014 05:30:00 0.8 C 96 % 0.24 C
615 11-01-2014 05:35:00 0.8 C 96 % 0.24 C
616 11-01-2014 05:40:00 0.8 C 96 % 0.24 C
617 11-01-2014 05:45:00 0.8 C 97 % 0.38 C
618 11-01-2014 05:50:00 0.9 C 97 % 0.48 C
619 11-01-2014 05:55:00 0.8 C 97 % 0.38 C
620 11-01-2014 06:00:00 0.9 C 97 % 0.48 C
621 11-01-2014 06:05:00 0.9 C 97 % 0.48 C
622 11-01-2014 06:10:00 1 C 97 % 0.58 C
623 11-01-2014 06:15:00 1.1 C 97 % 0.68 C
624 11-01-2014 06:20:00 1.1 C 97 % 0.68 C
625 11-01-2014 06:25:00 1.1 C 97 % 0.68 C
Sensor: Nr:Datum:Temp:Feuchte:Taupunkt:
Aussen-T/F 626 11-01-2014 06:30:00 1.2 C 97 % 0.78 C
627 11-01-2014 06:35:00 1.2 C 97 % 0.78 C
628 11-01-2014 06:40:00 1.2 C 97 % 0.78 C
629 11-01-2014 06:45:00 1.2 C 97 % 0.78 C
630 11-01-2014 06:50:00 1.2 C 97 % 0.78 C
631 11-01-2014 06:55:00 1.2 C 97 % 0.78 C
632 11-01-2014 07:00:00 1.2 C 97 % 0.78 C
633 11-01-2014 07:05:00 1.3 C 97 % 0.88 C
634 11-01-2014 07:10:00 1.3 C 97 % 0.88 C
635 11-01-2014 07:15:00 1.3 C 97 % 0.88 C
636 11-01-2014 07:20:00 1.3 C 97 % 0.88 C
637 11-01-2014 07:25:00 1.3 C 97 % 0.88 C
638 11-01-2014 07:30:00 1.4 C 97 % 0.98 C
639 11-01-2014 07:35:00 1.4 C 97 % 0.98 C
640 11-01-2014 07:40:00 1.5 C 97 % 1.08 C
641 11-01-2014 07:45:00 1.6 C 97 % 1.18 C
642 11-01-2014 07:50:00 1.6 C 97 % 1.18 C
643 11-01-2014 07:55:00 1.6 C 97 % 1.18 C
644 11-01-2014 08:00:00 1.7 C 97 % 1.28 C
645 11-01-2014 08:05:00 1.7 C 97 % 1.28 C
646 11-01-2014 08:10:00 1.8 C 97 % 1.38 C
647 11-01-2014 08:15:00 1.8 C 97 % 1.38 C
648 11-01-2014 08:20:00 1.8 C 97 % 1.38 C
649 11-01-2014 08:25:00 1.9 C 97 % 1.48 C
650 11-01-2014 08:30:00 1.9 C 97 % 1.48 C
Sensor: Nr:Datum:Temp:Feuchte:Taupunkt:
Aussen-T/F 651 11-01-2014 08:35:00 1.9 C 97 % 1.48 C
652 11-01-2014 08:40:00 1.9 C 97 % 1.48 C
653 11-01-2014 08:45:00 1.9 C 97 % 1.48 C
654 11-01-2014 08:50:00 2 C 97 % 1.58 C
655 11-01-2014 08:55:00 2.1 C 97 % 1.67 C
656 11-01-2014 09:00:00 2.1 C 97 % 1.67 C
657 11-01-2014 09:05:00 2.1 C 97 % 1.67 C
658 11-01-2014 09:10:00 2.2 C 97 % 1.77 C
659 11-01-2014 09:15:00 2.3 C 97 % 1.87 C
660 11-01-2014 09:20:00 2.3 C 97 % 1.87 C
661 11-01-2014 09:25:00 2.3 C 97 % 1.87 C
662 11-01-2014 09:30:00 2.3 C 97 % 1.87 C
663 11-01-2014 09:35:00 2.3 C 97 % 1.87 C
664 11-01-2014 09:40:00 2.3 C 97 % 1.87 C
665 11-01-2014 09:45:00 2.3 C 97 % 1.87 C
666 11-01-2014 09:50:00 2.3 C 97 % 1.87 C
667 11-01-2014 09:55:00 2.3 C 97 % 1.87 C
668 11-01-2014 10:00:00 2.3 C 97 % 1.87 C
669 11-01-2014 10:05:00 2.3 C 97 % 1.87 C
670 11-01-2014 10:10:00 2.3 C 97 % 1.87 C
671 11-01-2014 10:15:00 2.4 C 97 % 1.97 C
672 11-01-2014 10:20:00 2.4 C 97 % 1.97 C
673 11-01-2014 10:25:00 2.6 C 97 % 2.17 C
674 11-01-2014 10:30:00 2.6 C 97 % 2.17 C
675 11-01-2014 10:35:00 2.7 C 97 % 2.27 C
Sensor: Nr:Datum:Temp:Feuchte:Taupunkt:
Aussen-T/F 676 11-01-2014 10:40:00 2.8 C 97 % 2.37 C
677 11-01-2014 10:45:00 2.9 C 97 % 2.47 C
678 11-01-2014 10:50:00 2.9 C 97 % 2.47 C
679 11-01-2014 10:55:00 3 C 97 % 2.57 C
680 11-01-2014 11:00:00 3.1 C 97 % 2.67 C
681 11-01-2014 11:05:00 3.2 C 97 % 2.77 C
682 11-01-2014 11:10:00 3.3 C 97 % 2.87 C
683 11-01-2014 11:15:00 3.4 C 98 % 3.11 C
684 11-01-2014 11:20:00 3.5 C 98 % 3.21 C
685 11-01-2014 11:25:00 3.7 C 97 % 3.27 C
686 11-01-2014 11:30:00 3.8 C 98 % 3.51 C
687 11-01-2014 11:35:00 3.8 C 98 % 3.51 C
688 11-01-2014 11:40:00 4 C 97 % 3.57 C
689 11-01-2014 11:45:00 4.3 C 98 % 4.01 C
690 11-01-2014 11:50:00 4.6 C 98 % 4.31 C
691 11-01-2014 11:55:00 4.8 C 98 % 4.51 C
692 11-01-2014 12:00:00 5.1 C 97 % 4.66 C
693 11-01-2014 12:05:00 5.3 C 96 % 4.72 C
694 11-01-2014 12:10:00 5.6 C 95 % 4.86 C
695 11-01-2014 12:15:00 5.8 C 93 % 4.76 C
696 11-01-2014 12:20:00 6 C 92 % 4.8 C
697 11-01-2014 12:25:00 6.1 C 92 % 4.9 C
698 11-01-2014 12:30:00 6.2 C 91 % 4.84 C
699 11-01-2014 12:35:00 6.2 C 91 % 4.84 C
700 11-01-2014 12:40:00 6.2 C 90 % 4.69 C
Sensor: Nr:Datum:Temp:Feuchte:Taupunkt:
Aussen-T/F 701 11-01-2014 12:45:00 6.3 C 90 % 4.78 C
702 11-01-2014 12:50:00 6.3 C 90 % 4.78 C
703 11-01-2014 12:55:00 6.6 C 89 % 4.92 C
704 11-01-2014 13:00:00 6.6 C 89 % 4.92 C
705 11-01-2014 13:05:00 6.6 C 89 % 4.92 C
706 11-01-2014 13:10:00 6.6 C 89 % 4.92 C
707 11-01-2014 13:15:00 6.9 C 87 % 4.89 C
708 11-01-2014 13:20:00 6.9 C 87 % 4.89 C
709 11-01-2014 13:25:00 6.9 C 87 % 4.89 C
710 11-01-2014 13:30:00 6.8 C 87 % 4.79 C
711 11-01-2014 13:35:00 6.9 C 87 % 4.89 C
712 11-01-2014 13:40:00 6.8 C 87 % 4.79 C
713 11-01-2014 13:45:00 6.9 C 87 % 4.89 C
714 11-01-2014 13:50:00 7.1 C 86 % 4.92 C
715 11-01-2014 13:55:00 7.2 C 87 % 5.19 C
716 11-01-2014 14:00:00 7.3 C 86 % 5.12 C
717 11-01-2014 14:05:00 7.5 C 85 % 5.15 C
718 11-01-2014 14:10:00 7.7 C 84 % 5.17 C
719 11-01-2014 14:15:00 7.9 C 84 % 5.37 C
720 11-01-2014 14:20:00 7.9 C 83 % 5.2 C
721 11-01-2014 14:25:00 8 C 83 % 5.29 C
722 11-01-2014 14:30:00 7.8 C 83 % 5.1 C
723 11-01-2014 14:35:00 7.8 C 84 % 5.27 C
724 11-01-2014 14:40:00 7.7 C 84 % 5.17 C
725 11-01-2014 14:45:00 7.6 C 84 % 5.07 C
Sensor: Nr:Datum:Temp:Feuchte:Taupunkt:
Aussen-T/F 726 11-01-2014 14:50:00 7.5 C 85 % 5.15 C
727 11-01-2014 14:55:00 7.3 C 85 % 4.95 C
728 11-01-2014 15:00:00 7.2 C 86 % 5.02 C
729 11-01-2014 15:05:00 6.9 C 87 % 4.89 C
730 11-01-2014 15:10:00 6.7 C 88 % 4.86 C
731 11-01-2014 15:15:00 6.5 C 89 % 4.82 C
732 11-01-2014 15:20:00 6.5 C 89 % 4.82 C
733 11-01-2014 15:25:00 6.8 C 88 % 4.96 C
734 11-01-2014 15:30:00 7.1 C 88 % 5.25 C
735 11-01-2014 15:35:00 7.4 C 86 % 5.22 C
736 11-01-2014 15:40:00 7.7 C 85 % 5.34 C
737 11-01-2014 15:45:00 7.7 C 85 % 5.34 C
738 11-01-2014 15:50:00 7.6 C 85 % 5.24 C
739 11-01-2014 15:55:00 7.5 C 86 % 5.31 C
740 11-01-2014 16:00:00 7.5 C 86 % 5.31 C
741 11-01-2014 16:05:00 7.6 C 86 % 5.41 C
742 11-01-2014 16:10:00 7.7 C 85 % 5.34 C
743 11-01-2014 16:15:00 7.7 C 86 % 5.51 C
744 11-01-2014 16:20:00 7.7 C 86 % 5.51 C
745 11-01-2014 16:25:00 7.6 C 87 % 5.58 C
746 11-01-2014 16:30:00 7.5 C 87 % 5.48 C
747 11-01-2014 16:35:00 7.3 C 89 % 5.61 C
748 11-01-2014 16:40:00 7.2 C 90 % 5.67 C
749 11-01-2014 16:45:00 7 C 91 % 5.63 C
750 11-01-2014 16:50:00 6.9 C 92 % 5.69 C
Sensor: Nr:Datum:Temp:Feuchte:Taupunkt:
Aussen-T/F 751 11-01-2014 16:55:00 6.7 C 92 % 5.49 C
752 11-01-2014 17:00:00 6.7 C 93 % 5.65 C
753 11-01-2014 17:05:00 6.6 C 93 % 5.55 C
754 11-01-2014 17:10:00 6.6 C 93 % 5.55 C
755 11-01-2014 17:15:00 6.5 C 94 % 5.61 C
756 11-01-2014 17:20:00 6.4 C 94 % 5.51 C
757 11-01-2014 17:25:00 6.4 C 94 % 5.51 C
758 11-01-2014 17:30:00 6.4 C 94 % 5.51 C
759 11-01-2014 17:35:00 6.4 C 94 % 5.51 C
760 11-01-2014 17:40:00 6.3 C 94 % 5.41 C
761 11-01-2014 17:45:00 6.3 C 94 % 5.41 C
762 11-01-2014 17:50:00 6.2 C 95 % 5.46 C
763 11-01-2014 17:55:00 6.2 C 95 % 5.46 C
764 11-01-2014 18:00:00 6.2 C 95 % 5.46 C
765 11-01-2014 18:05:00 6.2 C 93 % 5.15 C
766 11-01-2014 18:10:00 6.4 C 90 % 4.88 C
767 11-01-2014 18:15:00 6.5 C 89 % 4.82 C
768 11-01-2014 18:20:00 6.6 C 88 % 4.76 C
769 11-01-2014 18:25:00 6.4 C 87 % 4.4 C
770 11-01-2014 18:30:00 6.4 C 87 % 4.4 C
771 11-01-2014 18:35:00 6.3 C 88 % 4.46 C
772 11-01-2014 18:40:00 6.2 C 87 % 4.2 C
773 11-01-2014 18:45:00 6.1 C 89 % 4.43 C
774 11-01-2014 18:50:00 5.8 C 90 % 4.29 C
775 11-01-2014 18:55:00 5.8 C 90 % 4.29 C
Sensor: Nr:Datum:Temp:Feuchte:Taupunkt:
Aussen-T/F 776 11-01-2014 19:00:00 5.7 C 91 % 4.35 C
777 11-01-2014 19:05:00 5.8 C 91 % 4.45 C
778 11-01-2014 19:10:00 5.7 C 91 % 4.35 C
779 11-01-2014 19:15:00 5.6 C 90 % 4.09 C
780 11-01-2014 19:20:00 5.8 C 88 % 3.97 C
781 11-01-2014 19:25:00 6.1 C 86 % 3.94 C
782 11-01-2014 19:30:00 6.2 C 86 % 4.04 C
783 11-01-2014 19:35:00 6.1 C 86 % 3.94 C
784 11-01-2014 19:40:00 5.9 C 87 % 3.91 C
785 11-01-2014 19:45:00 5.4 C 88 % 3.58 C
786 11-01-2014 19:50:00 5.1 C 90 % 3.6 C
787 11-01-2014 19:55:00 4.9 C 90 % 3.4 C
788 11-01-2014 20:00:00 4.7 C 91 % 3.36 C
789 11-01-2014 20:05:00 4.6 C 92 % 3.42 C
790 11-01-2014 20:10:00 4.4 C 92 % 3.22 C
791 11-01-2014 20:15:00 4.4 C 93 % 3.37 C
792 11-01-2014 20:20:00 4.3 C 93 % 3.27 C
793 11-01-2014 20:25:00 4.3 C 93 % 3.27 C
794 11-01-2014 20:30:00 4.3 C 93 % 3.27 C
795 11-01-2014 20:35:00 4.3 C 93 % 3.27 C
796 11-01-2014 20:40:00 4.3 C 92 % 3.12 C
797 11-01-2014 20:45:00 4.6 C 92 % 3.42 C
798 11-01-2014 20:50:00 4.7 C 91 % 3.36 C
799 11-01-2014 20:55:00 4.7 C 90 % 3.2 C
800 11-01-2014 21:00:00 4.7 C 90 % 3.2 C
Sensor: Nr:Datum:Temp:Feuchte:Taupunkt:
Aussen-T/F 801 11-01-2014 21:05:00 4.6 C 90 % 3.1 C
802 11-01-2014 21:10:00 4.4 C 91 % 3.06 C
803 11-01-2014 21:15:00 4.5 C 91 % 3.16 C
804 11-01-2014 21:20:00 4.4 C 90 % 2.91 C
805 11-01-2014 21:25:00 4.3 C 91 % 2.96 C
806 11-01-2014 21:30:00 4.1 C 92 % 2.92 C
807 11-01-2014 21:35:00 4.1 C 92 % 2.92 C
808 11-01-2014 21:40:00 4.2 C 92 % 3.02 C
809 11-01-2014 21:45:00 4.3 C 91 % 2.96 C
810 11-01-2014 21:50:00 4.2 C 91 % 2.87 C
811 11-01-2014 21:55:00 4.2 C 91 % 2.87 C
812 11-01-2014 22:00:00 4.2 C 90 % 2.71 C
813 11-01-2014 22:05:00 4.2 C 90 % 2.71 C
814 11-01-2014 22:10:00 3.9 C 91 % 2.57 C
815 11-01-2014 22:15:00 3.8 C 91 % 2.47 C
816 11-01-2014 22:20:00 3.8 C 91 % 2.47 C
817 11-01-2014 22:25:00 3.6 C 92 % 2.42 C
818 11-01-2014 22:30:00 3.4 C 92 % 2.23 C
819 11-01-2014 22:35:00 3.2 C 92 % 2.03 C
820 11-01-2014 22:40:00 3 C 93 % 1.98 C
821 11-01-2014 22:45:00 2.8 C 93 % 1.78 C
822 11-01-2014 22:50:00 2.8 C 93 % 1.78 C
823 11-01-2014 22:55:00 2.8 C 94 % 1.93 C
824 11-01-2014 23:00:00 2.7 C 94 % 1.83 C
825 11-01-2014 23:05:00 2.7 C 94 % 1.83 C
Sensor: Nr:Datum:Temp:Feuchte:Taupunkt:
Aussen-T/F 826 11-01-2014 23:10:00 2.6 C 94 % 1.73 C
827 11-01-2014 23:15:00 2.6 C 94 % 1.73 C
828 11-01-2014 23:20:00 2.6 C 94 % 1.73 C
829 11-01-2014 23:25:00 2.5 C 94 % 1.63 C
830 11-01-2014 23:30:00 2.4 C 94 % 1.54 C
831 11-01-2014 23:35:00 2.4 C 94 % 1.54 C
832 11-01-2014 23:40:00 2.4 C 95 % 1.68 C
833 11-01-2014 23:45:00 2.4 C 95 % 1.68 C
834 11-01-2014 23:50:00 2.3 C 94 % 1.44 C
835 11-01-2014 23:55:00 2.3 C 94 % 1.44 C
836 12-01-2014 00:00:00 2.2 C 95 % 1.48 C
837 12-01-2014 00:05:00 2.2 C 95 % 1.48 C
838 12-01-2014 00:10:00 2.2 C 95 % 1.48 C
839 12-01-2014 00:15:00 2.1 C 95 % 1.38 C
840 12-01-2014 00:20:00 2.1 C 95 % 1.38 C
841 12-01-2014 00:25:00 2.1 C 95 % 1.38 C
842 12-01-2014 00:30:00 1.9 C 95 % 1.19 C
843 12-01-2014 00:35:00 1.8 C 95 % 1.09 C
844 12-01-2014 00:40:00 1.8 C 95 % 1.09 C
845 12-01-2014 00:45:00 1.8 C 95 % 1.09 C
846 12-01-2014 00:50:00 1.9 C 95 % 1.19 C
847 12-01-2014 00:55:00 1.9 C 95 % 1.19 C
848 12-01-2014 01:00:00 1.8 C 95 % 1.09 C
849 12-01-2014 01:05:00 1.8 C 95 % 1.09 C
850 12-01-2014 01:10:00 1.7 C 95 % 0.99 C
Sensor: Nr:Datum:Temp:Feuchte:Taupunkt:
Aussen-T/F 851 12-01-2014 01:15:00 1.7 C 95 % 0.99 C
852 12-01-2014 01:20:00 1.7 C 95 % 0.99 C
853 12-01-2014 01:25:00 1.6 C 95 % 0.89 C
854 12-01-2014 01:30:00 1.6 C 95 % 0.89 C
855 12-01-2014 01:35:00 1.5 C 95 % 0.79 C
856 12-01-2014 01:40:00 1.5 C 95 % 0.79 C
857 12-01-2014 01:45:00 1.4 C 95 % 0.69 C
858 12-01-2014 01:50:00 1.3 C 95 % 0.59 C
859 12-01-2014 01:55:00 1.3 C 95 % 0.59 C
860 12-01-2014 02:00:00 1.4 C 95 % 0.69 C
861 12-01-2014 02:05:00 1.3 C 95 % 0.59 C
862 12-01-2014 02:10:00 1.3 C 95 % 0.59 C
863 12-01-2014 02:15:00 1.3 C 95 % 0.59 C
864 12-01-2014 02:20:00 1.2 C 95 % 0.49 C
865 12-01-2014 02:25:00 1.1 C 95 % 0.39 C
866 12-01-2014 02:30:00 1.1 C 95 % 0.39 C
867 12-01-2014 02:35:00 1 C 95 % 0.29 C
868 12-01-2014 02:40:00 0.9 C 95 % 0.19 C
869 12-01-2014 02:45:00 0.8 C 95 % 0.09 C
870 12-01-2014 02:50:00 0.9 C 96 % 0.34 C
871 12-01-2014 02:55:00 0.9 C 96 % 0.34 C
872 12-01-2014 03:00:00 0.9 C 96 % 0.34 C
873 12-01-2014 03:05:00 0.9 C 96 % 0.34 C
874 12-01-2014 03:10:00 0.9 C 96 % 0.34 C
875 12-01-2014 03:15:00 0.9 C 96 % 0.34 C
Sensor: Nr:Datum:Temp:Feuchte:Taupunkt:
Aussen-T/F 876 12-01-2014 03:20:00 0.9 C 96 % 0.34 C
877 12-01-2014 03:25:00 0.9 C 96 % 0.34 C
878 12-01-2014 03:30:00 0.9 C 96 % 0.34 C
879 12-01-2014 03:35:00 1 C 96 % 0.44 C
880 12-01-2014 03:40:00 1 C 96 % 0.44 C
881 12-01-2014 03:45:00 1.1 C 96 % 0.54 C
882 12-01-2014 03:50:00 1.1 C 96 % 0.54 C
883 12-01-2014 03:55:00 1.1 C 96 % 0.54 C
884 12-01-2014 04:00:00 1.1 C 96 % 0.54 C
885 12-01-2014 04:05:00 1.2 C 96 % 0.63 C
886 12-01-2014 04:10:00 1.2 C 96 % 0.63 C
887 12-01-2014 04:15:00 1.2 C 96 % 0.63 C
888 12-01-2014 04:20:00 1.3 C 96 % 0.73 C
889 12-01-2014 04:25:00 1.3 C 96 % 0.73 C
890 12-01-2014 04:30:00 1.3 C 96 % 0.73 C
891 12-01-2014 04:35:00 1.3 C 96 % 0.73 C
892 12-01-2014 04:40:00 1.3 C 96 % 0.73 C
893 12-01-2014 04:45:00 1.3 C 96 % 0.73 C
894 12-01-2014 04:50:00 1.2 C 96 % 0.63 C
895 12-01-2014 04:55:00 1.2 C 96 % 0.63 C
896 12-01-2014 05:00:00 1.3 C 96 % 0.73 C
897 12-01-2014 05:05:00 1.3 C 96 % 0.73 C
898 12-01-2014 05:10:00 1.3 C 96 % 0.73 C
899 12-01-2014 05:15:00 1.3 C 96 % 0.73 C
900 12-01-2014 05:20:00 1.2 C 96 % 0.63 C
Sensor: Nr:Datum:Temp:Feuchte:Taupunkt:
Aussen-T/F 901 12-01-2014 05:25:00 1.2 C 96 % 0.63 C
902 12-01-2014 05:30:00 1.2 C 96 % 0.63 C
903 12-01-2014 05:35:00 1.2 C 96 % 0.63 C
904 12-01-2014 05:40:00 1.1 C 96 % 0.54 C
905 12-01-2014 05:45:00 1.1 C 96 % 0.54 C
906 12-01-2014 05:50:00 1.1 C 96 % 0.54 C
907 12-01-2014 05:55:00 1 C 96 % 0.44 C
908 12-01-2014 06:00:00 0.9 C 96 % 0.34 C
909 12-01-2014 06:05:00 0.9 C 96 % 0.34 C
910 12-01-2014 06:10:00 0.8 C 96 % 0.24 C
911 12-01-2014 06:15:00 0.8 C 96 % 0.24 C
912 12-01-2014 06:20:00 0.7 C 96 % 0.14 C
913 12-01-2014 06:25:00 0.6 C 96 % 0.04 C
914 12-01-2014 06:30:00 0.6 C 96 % 0.04 C
915 12-01-2014 06:35:00 0.6 C 96 % 0.04 C
916 12-01-2014 06:40:00 0.6 C 96 % 0.04 C
917 12-01-2014 06:45:00 0.6 C 96 % 0.04 C
918 12-01-2014 06:50:00 0.6 C 96 % 0.04 C
919 12-01-2014 06:55:00 0.6 C 96 % 0.04 C
920 12-01-2014 07:00:00 0.6 C 96 % 0.04 C
921 12-01-2014 07:05:00 0.7 C 97 % 0.28 C
922 12-01-2014 07:10:00 0.7 C 97 % 0.28 C
923 12-01-2014 07:15:00 0.7 C 97 % 0.28 C
924 12-01-2014 07:20:00 0.6 C 97 % 0.18 C
925 12-01-2014 07:25:00 0.6 C 97 % 0.18 C
Sensor: Nr:Datum:Temp:Feuchte:Taupunkt:
Aussen-T/F 926 12-01-2014 07:30:00 0.6 C 96 % 0.04 C
927 12-01-2014 07:35:00 0.5 C 96 % -0.06 C
928 12-01-2014 07:40:00 0.4 C 97 % -0.02 C
929 12-01-2014 07:45:00 0.4 C 97 % -0.02 C
930 12-01-2014 07:50:00 0.4 C 97 % -0.02 C
931 12-01-2014 07:55:00 0.3 C 97 % -0.12 C
932 12-01-2014 08:00:00 0.3 C 97 % -0.12 C
933 12-01-2014 08:05:00 0.3 C 97 % -0.12 C
934 12-01-2014 08:10:00 0.2 C 97 % -0.22 C
935 12-01-2014 08:15:00 0.2 C 97 % -0.22 C
936 12-01-2014 08:20:00 0.2 C 97 % -0.22 C
937 12-01-2014 08:25:00 0.1 C 97 % -0.32 C
938 12-01-2014 08:30:00 0.1 C 97 % -0.32 C
939 12-01-2014 08:35:00 0.1 C 97 % -0.32 C
940 12-01-2014 08:40:00 0 C 97 % -0.42 C
941 12-01-2014 08:45:00 0 C 97 % -0.42 C
942 12-01-2014 08:50:00 -0.1 C 97 % -0.52 C
943 12-01-2014 08:55:00 0 C 97 % -0.42 C
944 12-01-2014 09:00:00 0 C 97 % -0.42 C
945 12-01-2014 09:05:00 0 C 97 % -0.42 C
946 12-01-2014 09:10:00 0 C 97 % -0.42 C
947 12-01-2014 09:15:00 0 C 97 % -0.42 C
948 12-01-2014 09:20:00 -0.1 C 97 % -0.52 C
949 12-01-2014 09:25:00 0 C 97 % -0.42 C
950 12-01-2014 09:30:00 0 C 97 % -0.42 C
Sensor: Nr:Datum:Temp:Feuchte:Taupunkt:
Aussen-T/F 951 12-01-2014 09:35:00 0 C 97 % -0.42 C
952 12-01-2014 09:40:00 0 C 97 % -0.42 C
953 12-01-2014 09:45:00 0 C 97 % -0.42 C
954 12-01-2014 09:50:00 0.1 C 97 % -0.32 C
955 12-01-2014 09:55:00 -0.1 C 97 % -0.52 C
956 12-01-2014 10:00:00 0 C 97 % -0.42 C
957 12-01-2014 10:05:00 0.1 C 97 % -0.32 C
958 12-01-2014 10:10:00 0.1 C 97 % -0.32 C
959 12-01-2014 10:15:00 0.1 C 97 % -0.32 C
960 12-01-2014 10:20:00 0.1 C 97 % -0.32 C
961 12-01-2014 10:25:00 0.2 C 97 % -0.22 C
962 12-01-2014 10:30:00 0.2 C 97 % -0.22 C
963 12-01-2014 10:35:00 0.2 C 97 % -0.22 C
964 12-01-2014 10:40:00 0.2 C 97 % -0.22 C
965 12-01-2014 10:45:00 0.2 C 97 % -0.22 C
966 12-01-2014 10:50:00 0.2 C 97 % -0.22 C
967 12-01-2014 10:55:00 0.2 C 97 % -0.22 C
968 12-01-2014 11:00:00 0.2 C 97 % -0.22 C
969 12-01-2014 11:05:00 0.2 C 97 % -0.22 C
970 12-01-2014 11:10:00 0.2 C 97 % -0.22 C
971 12-01-2014 11:15:00 0.2 C 97 % -0.22 C
972 12-01-2014 11:20:00 0.2 C 97 % -0.22 C
973 12-01-2014 11:25:00 0.3 C 98 % 0.02 C
974 12-01-2014 11:30:00 0.3 C 98 % 0.02 C
975 12-01-2014 11:35:00 0.3 C 98 % 0.02 C
Sensor: Nr:Datum:Temp:Feuchte:Taupunkt:
Aussen-T/F 976 12-01-2014 11:40:00 0.3 C 98 % 0.02 C
977 12-01-2014 11:45:00 0.3 C 98 % 0.02 C
978 12-01-2014 11:50:00 0.3 C 98 % 0.02 C
979 12-01-2014 11:55:00 0.3 C 98 % 0.02 C
980 12-01-2014 12:00:00 0.4 C 98 % 0.12 C
981 12-01-2014 12:05:00 0.4 C 98 % 0.12 C
982 12-01-2014 12:10:00 0.4 C 98 % 0.12 C
983 12-01-2014 12:15:00 0.4 C 98 % 0.12 C
984 12-01-2014 12:20:00 0.4 C 98 % 0.12 C
985 12-01-2014 12:25:00 0.4 C 98 % 0.12 C
986 12-01-2014 12:30:00 0.5 C 98 % 0.22 C
987 12-01-2014 12:35:00 0.5 C 98 % 0.22 C
988 12-01-2014 12:40:00 0.5 C 98 % 0.22 C
989 12-01-2014 12:45:00 0.5 C 98 % 0.22 C
990 12-01-2014 12:50:00 0.6 C 98 % 0.32 C
991 12-01-2014 12:55:00 0.6 C 98 % 0.32 C
992 12-01-2014 13:00:00 0.6 C 98 % 0.32 C
993 12-01-2014 13:05:00 0.6 C 98 % 0.32 C
994 12-01-2014 13:10:00 0.7 C 98 % 0.42 C
995 12-01-2014 13:15:00 0.7 C 98 % 0.42 C
996 12-01-2014 13:20:00 0.8 C 98 % 0.52 C
997 12-01-2014 13:25:00 0.8 C 98 % 0.52 C
998 12-01-2014 13:30:00 0.8 C 98 % 0.52 C
999 12-01-2014 13:35:00 0.8 C 98 % 0.52 C
1000 12-01-2014 13:40:00 1 C 98 % 0.72 C
Sensor: Nr:Datum:Temp:Feuchte:Taupunkt:
Aussen-T/F 1001 12-01-2014 13:45:00 1.1 C 98 % 0.82 C
1002 12-01-2014 13:50:00 1.1 C 98 % 0.82 C
1003 12-01-2014 13:55:00 1.1 C 98 % 0.82 C
1004 12-01-2014 14:00:00 1.1 C 98 % 0.82 C
1005 12-01-2014 14:05:00 1.2 C 98 % 0.92 C
1006 12-01-2014 14:10:00 1.3 C 98 % 1.02 C
1007 12-01-2014 14:15:00 1.4 C 98 % 1.12 C
1008 12-01-2014 14:20:00 1.4 C 98 % 1.12 C
1009 12-01-2014 14:25:00 1.4 C 98 % 1.12 C
1010 12-01-2014 14:30:00 1.4 C 98 % 1.12 C
1011 12-01-2014 14:35:00 1.4 C 98 % 1.12 C
1012 12-01-2014 14:40:00 1.4 C 98 % 1.12 C
1013 12-01-2014 14:45:00 1.4 C 98 % 1.12 C
1014 12-01-2014 14:50:00 1.4 C 98 % 1.12 C
1015 12-01-2014 14:55:00 1.4 C 98 % 1.12 C
1016 12-01-2014 15:00:00 1.4 C 98 % 1.12 C
1017 12-01-2014 15:05:00 1.4 C 98 % 1.12 C
1018 12-01-2014 15:10:00 1.3 C 98 % 1.02 C
1019 12-01-2014 15:15:00 1.3 C 98 % 1.02 C
1020 12-01-2014 15:20:00 1.2 C 98 % 0.92 C
1021 12-01-2014 15:25:00 1.2 C 98 % 0.92 C
1022 12-01-2014 15:30:00 1.2 C 98 % 0.92 C
1023 12-01-2014 16:05:00 1.1 C 98 % 0.82 C
1024 12-01-2014 16:10:00 1.1 C 98 % 0.82 C
1025 12-01-2014 16:15:00 1.1 C 98 % 0.82 C
Sensor: Nr:Datum:Temp:Feuchte:Taupunkt:
Aussen-T/F 1026 12-01-2014 16:20:00 1 C 98 % 0.72 C
1027 12-01-2014 16:25:00 1 C 98 % 0.72 C
1028 12-01-2014 16:30:00 0.9 C 98 % 0.62 C
1029 12-01-2014 16:35:00 0.9 C 98 % 0.62 C
1030 12-01-2014 16:40:00 0.9 C 98 % 0.62 C
1031 12-01-2014 17:20:00 0.4 C 98 % 0.12 C
1032 12-01-2014 17:25:00 0.3 C 98 % 0.02 C
1033 12-01-2014 17:30:00 0.3 C 98 % 0.02 C
1034 12-01-2014 17:35:00 0.2 C 98 % -0.08 C
1035 12-01-2014 17:40:00 0.2 C 98 % -0.08 C
1036 12-01-2014 17:45:00 0.1 C 98 % -0.18 C
1037 12-01-2014 17:50:00 0.1 C 98 % -0.18 C
1038 12-01-2014 17:55:00 -0.1 C 98 % -0.38 C
1039 12-01-2014 18:00:00 -0.1 C 98 % -0.38 C
1040 12-01-2014 18:05:00 -0.1 C 98 % -0.38 C
1041 12-01-2014 18:10:00 -0.2 C 98 % -0.48 C
1042 12-01-2014 18:15:00 -0.2 C 98 % -0.48 C
1043 12-01-2014 18:20:00 -0.2 C 98 % -0.48 C
1044 12-01-2014 18:25:00 -0.3 C 98 % -0.58 C
1045 12-01-2014 18:30:00 -0.3 C 98 % -0.58 C
1046 12-01-2014 18:35:00 -0.3 C 98 % -0.58 C
1047 12-01-2014 18:40:00 -0.3 C 98 % -0.58 C
1048 12-01-2014 18:45:00 -0.4 C 98 % -0.68 C
1049 12-01-2014 18:50:00 -0.4 C 98 % -0.68 C
1050 12-01-2014 18:55:00 -0.4 C 98 % -0.68 C
Sensor: Nr:Datum:Temp:Feuchte:Taupunkt:
Aussen-T/F 1051 12-01-2014 19:00:00 -0.4 C 98 % -0.68 C
1052 12-01-2014 19:05:00 -0.4 C 98 % -0.68 C
1053 12-01-2014 19:10:00 -0.5 C 98 % -0.78 C
1054 12-01-2014 19:15:00 -0.5 C 98 % -0.78 C
1055 12-01-2014 19:20:00 -0.6 C 98 % -0.88 C
1056 12-01-2014 19:25:00 -0.6 C 98 % -0.88 C
1057 12-01-2014 19:30:00 -0.6 C 98 % -0.88 C
1058 12-01-2014 19:35:00 -0.6 C 98 % -0.88 C
1059 12-01-2014 19:40:00 -0.6 C 98 % -0.88 C
1060 12-01-2014 19:45:00 -0.6 C 98 % -0.88 C
1061 12-01-2014 19:50:00 -0.6 C 98 % -0.88 C
1062 12-01-2014 19:55:00 -0.7 C 98 % -0.98 C
1063 12-01-2014 20:00:00 -0.7 C 98 % -0.98 C
1064 12-01-2014 20:05:00 -0.7 C 98 % -0.98 C
1065 12-01-2014 20:10:00 -0.8 C 98 % -1.08 C
1066 12-01-2014 20:15:00 -0.8 C 98 % -1.08 C
1067 12-01-2014 20:20:00 -0.8 C 98 % -1.08 C
1068 12-01-2014 20:25:00 -0.8 C 98 % -1.08 C
1069 12-01-2014 20:30:00 -0.8 C 98 % -1.08 C
1070 12-01-2014 20:35:00 -0.8 C 98 % -1.08 C
1071 12-01-2014 20:40:00 -0.8 C 98 % -1.08 C
1072 12-01-2014 20:45:00 -0.9 C 98 % -1.18 C
1073 12-01-2014 20:50:00 -0.9 C 98 % -1.18 C
1074 12-01-2014 20:55:00 -0.9 C 98 % -1.18 C
1075 12-01-2014 21:00:00 -1 C 98 % -1.28 C
Sensor: Nr:Datum:Temp:Feuchte:Taupunkt:
Aussen-T/F 1076 12-01-2014 21:05:00 -1.1 C 98 % -1.38 C
1077 12-01-2014 21:10:00 -1.1 C 98 % -1.38 C
1078 12-01-2014 21:15:00 -1.2 C 98 % -1.47 C
1079 12-01-2014 21:20:00 -1.2 C 98 % -1.47 C
1080 12-01-2014 21:25:00 -1.2 C 98 % -1.47 C
1081 12-01-2014 21:30:00 -1.2 C 98 % -1.47 C
1082 12-01-2014 21:35:00 -1.3 C 98 % -1.57 C
1083 12-01-2014 21:40:00 -1.3 C 98 % -1.57 C
1084 12-01-2014 21:45:00 -1.3 C 98 % -1.57 C
1085 12-01-2014 21:50:00 -1.4 C 98 % -1.67 C
1086 12-01-2014 21:55:00 -1.4 C 98 % -1.67 C
1087 12-01-2014 22:00:00 -1.4 C 98 % -1.67 C
1088 12-01-2014 22:05:00 -1.4 C 98 % -1.67 C
1089 12-01-2014 22:10:00 -1.4 C 98 % -1.67 C
1090 12-01-2014 22:15:00 -1.5 C 98 % -1.77 C
1091 12-01-2014 22:20:00 -1.5 C 98 % -1.77 C
1092 12-01-2014 22:25:00 -1.5 C 98 % -1.77 C
1093 12-01-2014 22:30:00 -1.6 C 98 % -1.87 C
1094 12-01-2014 22:35:00 -1.6 C 98 % -1.87 C
1095 12-01-2014 22:40:00 -1.6 C 98 % -1.87 C
1096 12-01-2014 22:45:00 -1.7 C 98 % -1.97 C
1097 12-01-2014 22:50:00 -1.7 C 98 % -1.97 C
1098 12-01-2014 22:55:00 -1.7 C 98 % -1.97 C
1099 12-01-2014 23:00:00 -1.7 C 98 % -1.97 C
1100 12-01-2014 23:05:00 -1.7 C 98 % -1.97 C
Sensor: Nr:Datum:Temp:Feuchte:Taupunkt:
Aussen-T/F 1101 12-01-2014 23:10:00 -1.7 C 98 % -1.97 C
1102 12-01-2014 23:15:00 -1.7 C 98 % -1.97 C
1103 12-01-2014 23:20:00 -1.7 C 98 % -1.97 C
1104 12-01-2014 23:25:00 -1.7 C 98 % -1.97 C
1105 12-01-2014 23:30:00 -1.7 C 98 % -1.97 C
1106 12-01-2014 23:35:00 -1.7 C 98 % -1.97 C
1107 12-01-2014 23:40:00 -1.7 C 98 % -1.97 C
1108 12-01-2014 23:45:00 -1.7 C 98 % -1.97 C
1109 12-01-2014 23:50:00 -1.7 C 98 % -1.97 C
1110 12-01-2014 23:55:00 -1.7 C 98 % -1.97 C
1111 13-01-2014 00:00:00 -1.7 C 98 % -1.97 C
1112 13-01-2014 00:05:00 -1.7 C 98 % -1.97 C
1113 13-01-2014 00:10:00 -1.7 C 98 % -1.97 C
1114 13-01-2014 00:15:00 -1.7 C 98 % -1.97 C
1115 13-01-2014 00:20:00 -1.7 C 98 % -1.97 C
1116 13-01-2014 00:25:00 -1.7 C 98 % -1.97 C
1117 13-01-2014 00:30:00 -1.7 C 98 % -1.97 C
1118 13-01-2014 00:35:00 -1.7 C 98 % -1.97 C
1119 13-01-2014 00:40:00 -1.7 C 98 % -1.97 C
1120 13-01-2014 00:45:00 -1.7 C 98 % -1.97 C
1121 13-01-2014 00:50:00 -1.7 C 98 % -1.97 C
1122 13-01-2014 00:55:00 -1.7 C 98 % -1.97 C
1123 13-01-2014 01:00:00 -1.7 C 98 % -1.97 C
1124 13-01-2014 01:05:00 -1.7 C 98 % -1.97 C
1125 13-01-2014 01:10:00 -1.7 C 98 % -1.97 C
Sensor: Nr:Datum:Temp:Feuchte:Taupunkt:
Aussen-T/F 1126 13-01-2014 01:15:00 -1.7 C 98 % -1.97 C
1127 13-01-2014 01:20:00 -1.7 C 98 % -1.97 C
1128 13-01-2014 01:25:00 -1.7 C 98 % -1.97 C
1129 13-01-2014 01:30:00 -1.7 C 98 % -1.97 C
1130 13-01-2014 01:35:00 -1.7 C 98 % -1.97 C
1131 13-01-2014 01:40:00 -1.7 C 98 % -1.97 C
1132 13-01-2014 01:45:00 -1.7 C 98 % -1.97 C
1133 13-01-2014 01:50:00 -1.6 C 98 % -1.87 C
1134 13-01-2014 01:55:00 -1.6 C 98 % -1.87 C
1135 13-01-2014 02:00:00 -1.6 C 98 % -1.87 C
1136 13-01-2014 02:05:00 -1.5 C 98 % -1.77 C
1137 13-01-2014 02:10:00 -1.4 C 98 % -1.67 C
1138 13-01-2014 02:15:00 -1.3 C 98 % -1.57 C
1139 13-01-2014 02:20:00 -1.3 C 98 % -1.57 C
1140 13-01-2014 02:25:00 -1.1 C 98 % -1.38 C
1141 13-01-2014 02:30:00 -1 C 98 % -1.28 C
1142 13-01-2014 02:35:00 -0.9 C 98 % -1.18 C
1143 13-01-2014 02:40:00 -0.8 C 98 % -1.08 C
1144 13-01-2014 02:45:00 -0.8 C 98 % -1.08 C
1145 13-01-2014 02:50:00 -0.7 C 98 % -0.98 C
1146 13-01-2014 02:55:00 -0.6 C 98 % -0.88 C
1147 13-01-2014 03:00:00 -0.5 C 98 % -0.78 C
1148 13-01-2014 03:05:00 -0.5 C 98 % -0.78 C
1149 13-01-2014 03:10:00 -0.4 C 98 % -0.68 C
1150 13-01-2014 03:15:00 -0.3 C 98 % -0.58 C
Sensor: Nr:Datum:Temp:Feuchte:Taupunkt:
Aussen-T/F 1151 13-01-2014 03:20:00 -0.2 C 98 % -0.48 C
1152 13-01-2014 03:25:00 -0.1 C 98 % -0.38 C
1153 13-01-2014 03:30:00 -0.1 C 98 % -0.38 C
1154 13-01-2014 03:35:00 -0.1 C 98 % -0.38 C
1155 13-01-2014 03:40:00 -0.1 C 98 % -0.38 C
1156 13-01-2014 03:45:00 -0.1 C 98 % -0.38 C
1157 13-01-2014 03:50:00 -0.1 C 98 % -0.38 C
1158 13-01-2014 03:55:00 0 C 98 % -0.28 C
1159 13-01-2014 04:00:00 0.1 C 98 % -0.18 C
1160 13-01-2014 04:05:00 0.1 C 98 % -0.18 C
1161 13-01-2014 04:10:00 0.1 C 98 % -0.18 C
1162 13-01-2014 04:15:00 0.2 C 98 % -0.08 C
1163 13-01-2014 04:20:00 0.2 C 98 % -0.08 C
1164 13-01-2014 04:25:00 0.2 C 98 % -0.08 C
1165 13-01-2014 04:30:00 0.2 C 98 % -0.08 C
1166 13-01-2014 04:35:00 0.2 C 98 % -0.08 C
1167 13-01-2014 04:40:00 0.3 C 98 % 0.02 C
1168 13-01-2014 04:45:00 0.3 C 98 % 0.02 C
1169 13-01-2014 04:50:00 0.4 C 98 % 0.12 C
1170 13-01-2014 04:55:00 0.6 C 98 % 0.32 C
1171 13-01-2014 05:00:00 0.6 C 98 % 0.32 C
1172 13-01-2014 05:05:00 0.7 C 98 % 0.42 C
1173 13-01-2014 05:10:00 0.8 C 98 % 0.52 C
1174 13-01-2014 05:15:00 0.9 C 98 % 0.62 C
1175 13-01-2014 05:20:00 1 C 98 % 0.72 C
Sensor: Nr:Datum:Temp:Feuchte:Taupunkt:
Aussen-T/F 1176 13-01-2014 05:25:00 1.1 C 98 % 0.82 C
1177 13-01-2014 05:30:00 1.2 C 98 % 0.92 C
1178 13-01-2014 05:35:00 1.2 C 98 % 0.92 C
1179 13-01-2014 05:40:00 1.2 C 98 % 0.92 C
1180 13-01-2014 05:45:00 1.3 C 98 % 1.02 C
1181 13-01-2014 05:50:00 1.3 C 98 % 1.02 C
1182 13-01-2014 05:55:00 1.4 C 98 % 1.12 C
1183 13-01-2014 06:00:00 1.4 C 98 % 1.12 C
1184 13-01-2014 06:05:00 1.5 C 98 % 1.22 C
1185 13-01-2014 06:10:00 1.6 C 98 % 1.32 C
1186 13-01-2014 06:15:00 1.7 C 98 % 1.42 C
1187 13-01-2014 06:20:00 1.8 C 98 % 1.52 C
1188 13-01-2014 06:25:00 1.8 C 98 % 1.52 C
1189 13-01-2014 06:30:00 1.9 C 98 % 1.62 C
1190 13-01-2014 06:35:00 1.9 C 98 % 1.62 C
1191 13-01-2014 06:40:00 2 C 98 % 1.72 C
1192 13-01-2014 06:45:00 2 C 98 % 1.72 C
1193 13-01-2014 06:50:00 2.1 C 98 % 1.82 C
1194 13-01-2014 06:55:00 2.2 C 98 % 1.92 C
1195 13-01-2014 07:00:00 2.2 C 98 % 1.92 C
1196 13-01-2014 07:05:00 2.3 C 98 % 2.02 C
1197 13-01-2014 07:10:00 2.2 C 98 % 1.92 C
1198 13-01-2014 07:15:00 2.2 C 98 % 1.92 C
1199 13-01-2014 07:20:00 2.3 C 98 % 2.02 C
1200 13-01-2014 07:25:00 2.3 C 98 % 2.02 C
Sensor: Nr:Datum:Temp:Feuchte:Taupunkt:
Aussen-T/F 1201 13-01-2014 07:30:00 2.3 C 98 % 2.02 C
1202 13-01-2014 07:35:00 2.4 C 98 % 2.12 C
1203 13-01-2014 07:40:00 2.4 C 98 % 2.12 C
1204 13-01-2014 07:45:00 2.4 C 98 % 2.12 C
1205 13-01-2014 07:50:00 2.5 C 98 % 2.22 C
1206 13-01-2014 07:55:00 2.5 C 98 % 2.22 C
1207 13-01-2014 08:00:00 2.4 C 98 % 2.12 C
1208 13-01-2014 08:05:00 2.4 C 98 % 2.12 C
1209 13-01-2014 08:10:00 2.5 C 98 % 2.22 C
1210 13-01-2014 08:15:00 2.6 C 98 % 2.32 C
1211 13-01-2014 08:20:00 2.6 C 98 % 2.32 C
1212 13-01-2014 08:25:00 2.7 C 98 % 2.42 C
1213 13-01-2014 08:30:00 2.7 C 98 % 2.42 C
1214 13-01-2014 08:35:00 2.8 C 98 % 2.52 C
1215 13-01-2014 08:40:00 2.8 C 98 % 2.52 C
1216 13-01-2014 08:45:00 2.8 C 98 % 2.52 C
1217 13-01-2014 08:50:00 2.8 C 98 % 2.52 C
1218 13-01-2014 08:55:00 2.8 C 98 % 2.52 C
1219 13-01-2014 09:00:00 2.9 C 98 % 2.62 C
1220 13-01-2014 09:05:00 2.9 C 98 % 2.62 C
1221 13-01-2014 09:10:00 3 C 98 % 2.72 C
1222 13-01-2014 09:15:00 3.1 C 98 % 2.82 C
1223 13-01-2014 09:20:00 3.1 C 98 % 2.82 C
1224 13-01-2014 09:25:00 3.2 C 98 % 2.92 C
1225 13-01-2014 09:30:00 3.2 C 98 % 2.92 C
Sensor: Nr:Datum:Temp:Feuchte:Taupunkt:
Aussen-T/F 1226 13-01-2014 09:35:00 3.3 C 98 % 3.01 C
1227 13-01-2014 09:40:00 3.3 C 98 % 3.01 C
1228 13-01-2014 09:45:00 3.4 C 99 % 3.26 C
1229 13-01-2014 09:50:00 3.4 C 98 % 3.11 C
1230 13-01-2014 09:55:00 3.4 C 98 % 3.11 C
1231 13-01-2014 10:00:00 3.5 C 98 % 3.21 C
1232 13-01-2014 10:05:00 3.6 C 98 % 3.31 C
1233 13-01-2014 10:10:00 3.7 C 98 % 3.41 C
1234 13-01-2014 10:15:00 3.7 C 98 % 3.41 C
1235 13-01-2014 10:20:00 3.7 C 99 % 3.56 C
1236 13-01-2014 10:25:00 3.7 C 99 % 3.56 C
1237 13-01-2014 10:30:00 3.8 C 99 % 3.66 C
1238 13-01-2014 10:35:00 3.8 C 98 % 3.51 C
1239 13-01-2014 10:40:00 3.9 C 98 % 3.61 C
1240 13-01-2014 10:45:00 4 C 98 % 3.71 C
1241 13-01-2014 10:50:00 4.2 C 99 % 4.06 C
1242 13-01-2014 10:55:00 4.4 C 99 % 4.26 C
1243 13-01-2014 11:00:00 4.9 C 99 % 4.76 C
1244 13-01-2014 11:05:00 5.3 C 99 % 5.16 C
1245 13-01-2014 11:10:00 5.2 C 98 % 4.91 C
1246 13-01-2014 11:15:00 4.9 C 99 % 4.76 C
1247 13-01-2014 11:20:00 4.8 C 98 % 4.51 C
1248 13-01-2014 11:25:00 4.8 C 98 % 4.51 C
1249 13-01-2014 11:30:00 4.9 C 99 % 4.76 C
1250 13-01-2014 11:35:00 5.1 C 99 % 4.96 C
Sensor: Nr:Datum:Temp:Feuchte:Taupunkt:
Aussen-T/F 1251 13-01-2014 11:40:00 5.1 C 99 % 4.96 C
1252 13-01-2014 11:45:00 5.4 C 99 % 5.26 C
1253 13-01-2014 11:50:00 5.6 C 99 % 5.46 C
1254 13-01-2014 11:55:00 5.5 C 99 % 5.36 C
1255 13-01-2014 12:00:00 5.6 C 99 % 5.46 C
1256 13-01-2014 12:05:00 5.8 C 99 % 5.66 C
1257 13-01-2014 12:10:00 6.1 C 99 % 5.95 C
1258 13-01-2014 12:15:00 6.2 C 99 % 6.05 C
1259 13-01-2014 12:20:00 6.3 C 99 % 6.15 C
1260 13-01-2014 12:25:00 6.3 C 99 % 6.15 C
1261 13-01-2014 12:30:00 6.4 C 99 % 6.25 C
1262 13-01-2014 12:35:00 6.6 C 99 % 6.45 C
1263 13-01-2014 12:40:00 6.6 C 98 % 6.31 C
1264 13-01-2014 12:45:00 6.7 C 97 % 6.26 C
1265 13-01-2014 12:50:00 6.9 C 96 % 6.31 C
1266 13-01-2014 12:55:00 7.1 C 95 % 6.35 C
1267 13-01-2014 13:00:00 7.2 C 95 % 6.45 C
1268 13-01-2014 13:05:00 7.3 C 94 % 6.4 C
1269 13-01-2014 13:10:00 7.6 C 92 % 6.39 C
1270 13-01-2014 13:15:00 7.7 C 91 % 6.33 C
1271 13-01-2014 13:20:00 7.8 C 90 % 6.27 C
1272 13-01-2014 13:25:00 7.9 C 89 % 6.2 C
1273 13-01-2014 13:30:00 8.1 C 89 % 6.4 C
1274 13-01-2014 13:35:00 8.1 C 88 % 6.24 C
1275 13-01-2014 13:40:00 8.2 C 88 % 6.33 C
Sensor: Nr:Datum:Temp:Feuchte:Taupunkt:
Aussen-T/F 1276 13-01-2014 13:45:00 8.2 C 87 % 6.17 C
1277 13-01-2014 13:50:00 8.2 C 86 % 6 C
1278 13-01-2014 13:55:00 8.2 C 85 % 5.83 C
1279 13-01-2014 14:00:00 8.2 C 86 % 6 C
1280 13-01-2014 14:05:00 8.2 C 85 % 5.83 C
1281 13-01-2014 14:10:00 8.2 C 86 % 6 C
1282 13-01-2014 14:15:00 8.1 C 85 % 5.73 C
1283 13-01-2014 14:20:00 8.1 C 86 % 5.9 C
1284 13-01-2014 14:25:00 8.1 C 86 % 5.9 C
1285 13-01-2014 14:30:00 8 C 86 % 5.81 C
1286 13-01-2014 14:35:00 8 C 86 % 5.81 C
1287 13-01-2014 14:40:00 7.9 C 87 % 5.87 C
1288 13-01-2014 14:45:00 7.9 C 86 % 5.71 C
1289 13-01-2014 14:50:00 7.8 C 87 % 5.78 C
1290 13-01-2014 14:55:00 7.8 C 87 % 5.78 C
1291 13-01-2014 15:00:00 7.8 C 87 % 5.78 C
1292 13-01-2014 15:05:00 7.7 C 88 % 5.84 C
1293 13-01-2014 15:10:00 7.6 C 89 % 5.91 C
1294 13-01-2014 15:15:00 7.6 C 88 % 5.74 C
1295 13-01-2014 15:20:00 7.6 C 88 % 5.74 C
1296 13-01-2014 15:25:00 7.4 C 90 % 5.87 C
1297 13-01-2014 15:30:00 7.4 C 90 % 5.87 C
1298 13-01-2014 15:35:00 7.3 C 90 % 5.77 C
1299 13-01-2014 15:40:00 7.2 C 91 % 5.83 C
1300 13-01-2014 15:45:00 7.1 C 91 % 5.73 C
Sensor: Nr:Datum:Temp:Feuchte:Taupunkt:
Aussen-T/F 1301 13-01-2014 15:50:00 7 C 92 % 5.79 C
1302 13-01-2014 15:55:00 6.9 C 92 % 5.69 C
1303 13-01-2014 16:00:00 6.9 C 93 % 5.85 C
1304 13-01-2014 16:05:00 6.9 C 93 % 5.85 C
1305 13-01-2014 16:10:00 6.9 C 93 % 5.85 C
1306 13-01-2014 16:15:00 7 C 93 % 5.95 C
1307 13-01-2014 16:20:00 7 C 92 % 5.79 C
1308 13-01-2014 16:25:00 6.9 C 92 % 5.69 C
1309 13-01-2014 16:30:00 6.8 C 92 % 5.59 C
1310 13-01-2014 16:35:00 6.6 C 92 % 5.4 C
1311 13-01-2014 16:40:00 6.4 C 93 % 5.35 C
1312 13-01-2014 16:45:00 6.3 C 94 % 5.41 C
1313 13-01-2014 16:50:00 6.2 C 94 % 5.31 C
1314 13-01-2014 16:55:00 6.2 C 94 % 5.31 C
1315 13-01-2014 17:00:00 6.2 C 94 % 5.31 C
1316 13-01-2014 17:05:00 6.2 C 94 % 5.31 C
1317 13-01-2014 17:10:00 6.2 C 94 % 5.31 C
1318 13-01-2014 17:15:00 6.2 C 95 % 5.46 C
1319 13-01-2014 17:20:00 6.2 C 95 % 5.46 C
1320 13-01-2014 17:25:00 6.2 C 95 % 5.46 C
1321 13-01-2014 17:30:00 6.2 C 95 % 5.46 C
1322 13-01-2014 17:35:00 6.3 C 95 % 5.56 C
1323 13-01-2014 17:40:00 6.2 C 95 % 5.46 C
1324 13-01-2014 17:45:00 6.2 C 95 % 5.46 C
1325 13-01-2014 17:50:00 6.2 C 95 % 5.46 C
Sensor: Nr:Datum:Temp:Feuchte:Taupunkt:
Aussen-T/F 1326 13-01-2014 17:55:00 6.2 C 94 % 5.31 C
1327 13-01-2014 18:00:00 6.1 C 95 % 5.36 C
1328 13-01-2014 18:05:00 6.2 C 95 % 5.46 C
1329 13-01-2014 18:10:00 6.1 C 95 % 5.36 C
1330 13-01-2014 18:15:00 6.2 C 95 % 5.46 C
1331 13-01-2014 18:20:00 6.2 C 95 % 5.46 C
1332 13-01-2014 18:25:00 6.2 C 95 % 5.46 C
1333 13-01-2014 18:30:00 6.2 C 95 % 5.46 C
1334 13-01-2014 18:35:00 6.1 C 96 % 5.51 C
1335 13-01-2014 18:40:00 6.1 C 96 % 5.51 C
1336 13-01-2014 18:45:00 6.1 C 96 % 5.51 C
1337 13-01-2014 18:50:00 6.1 C 96 % 5.51 C
1338 13-01-2014 18:55:00 6.1 C 96 % 5.51 C
1339 13-01-2014 19:00:00 6.1 C 96 % 5.51 C
1340 13-01-2014 19:05:00 6.1 C 96 % 5.51 C
1341 13-01-2014 19:10:00 6.1 C 96 % 5.51 C
1342 13-01-2014 19:15:00 6.1 C 96 % 5.51 C
1343 13-01-2014 19:20:00 6.1 C 96 % 5.51 C
1344 13-01-2014 19:25:00 6 C 96 % 5.41 C
1345 13-01-2014 19:30:00 6 C 96 % 5.41 C
1346 13-01-2014 19:35:00 6 C 96 % 5.41 C
1347 13-01-2014 19:40:00 6 C 96 % 5.41 C
1348 13-01-2014 19:45:00 6 C 96 % 5.41 C
1349 13-01-2014 19:50:00 5.9 C 96 % 5.31 C
1350 13-01-2014 19:55:00 5.9 C 96 % 5.31 C
Sensor: Nr:Datum:Temp:Feuchte:Taupunkt:
Aussen-T/F 1351 13-01-2014 20:00:00 5.8 C 96 % 5.21 C
1352 13-01-2014 20:05:00 5.8 C 96 % 5.21 C
1353 13-01-2014 20:10:00 5.8 C 96 % 5.21 C
1354 13-01-2014 20:15:00 5.8 C 96 % 5.21 C
1355 13-01-2014 20:20:00 5.7 C 96 % 5.11 C
1356 13-01-2014 20:25:00 5.7 C 96 % 5.11 C
1357 13-01-2014 20:30:00 5.7 C 96 % 5.11 C
1358 13-01-2014 20:35:00 5.7 C 96 % 5.11 C
1359 13-01-2014 20:40:00 5.7 C 96 % 5.11 C
1360 13-01-2014 20:45:00 5.7 C 96 % 5.11 C
1361 13-01-2014 20:50:00 5.7 C 96 % 5.11 C
1362 13-01-2014 20:55:00 5.7 C 96 % 5.11 C
1363 13-01-2014 21:00:00 5.6 C 96 % 5.01 C
1364 13-01-2014 21:05:00 5.6 C 96 % 5.01 C
1365 13-01-2014 21:10:00 5.6 C 96 % 5.01 C
1366 13-01-2014 21:15:00 5.6 C 96 % 5.01 C
1367 13-01-2014 21:20:00 5.6 C 96 % 5.01 C
1368 13-01-2014 21:25:00 5.6 C 96 % 5.01 C
1369 13-01-2014 21:30:00 5.4 C 95 % 4.66 C
1370 13-01-2014 21:35:00 5.2 C 95 % 4.47 C
1371 13-01-2014 21:40:00 5 C 95 % 4.27 C
1372 13-01-2014 21:45:00 4.8 C 95 % 4.07 C
1373 13-01-2014 21:50:00 4.8 C 95 % 4.07 C
1374 13-01-2014 21:55:00 4.8 C 96 % 4.22 C
1375 13-01-2014 22:00:00 4.7 C 96 % 4.12 C
Sensor: Nr:Datum:Temp:Feuchte:Taupunkt:
Aussen-T/F 1376 13-01-2014 22:05:00 4.6 C 96 % 4.02 C
1377 13-01-2014 22:10:00 4.5 C 96 % 3.92 C
1378 13-01-2014 22:15:00 4.5 C 96 % 3.92 C
1379 13-01-2014 22:20:00 4.5 C 96 % 3.92 C
1380 13-01-2014 22:25:00 4.4 C 96 % 3.82 C
1381 13-01-2014 22:30:00 4.3 C 96 % 3.72 C
1382 13-01-2014 22:35:00 4.2 C 96 % 3.62 C
1383 13-01-2014 22:40:00 4.1 C 96 % 3.52 C
1384 13-01-2014 22:45:00 4 C 96 % 3.42 C
1385 13-01-2014 22:50:00 3.9 C 96 % 3.32 C
1386 13-01-2014 22:55:00 3.8 C 96 % 3.22 C
1387 13-01-2014 23:00:00 3.8 C 96 % 3.22 C
1388 13-01-2014 23:05:00 3.8 C 96 % 3.22 C
1389 13-01-2014 23:10:00 3.8 C 97 % 3.37 C
1390 13-01-2014 23:15:00 3.8 C 96 % 3.22 C
1391 13-01-2014 23:20:00 3.8 C 96 % 3.22 C
1392 13-01-2014 23:25:00 3.8 C 97 % 3.37 C
1393 13-01-2014 23:30:00 3.9 C 97 % 3.47 C
1394 13-01-2014 23:35:00 3.9 C 97 % 3.47 C
1395 13-01-2014 23:40:00 4.1 C 97 % 3.67 C
1396 13-01-2014 23:45:00 4.2 C 97 % 3.77 C
1397 13-01-2014 23:50:00 4.2 C 97 % 3.77 C
1398 13-01-2014 23:55:00 4.2 C 97 % 3.77 C
1399 14-01-2014 00:00:00 4.2 C 97 % 3.77 C
1400 14-01-2014 00:05:00 4.1 C 97 % 3.67 C
Sensor: Nr:Datum:Temp:Feuchte:Taupunkt:
Aussen-T/F 1401 14-01-2014 00:10:00 4.1 C 97 % 3.67 C
1402 14-01-2014 00:15:00 4.1 C 97 % 3.67 C
1403 14-01-2014 00:20:00 4 C 96 % 3.42 C
1404 14-01-2014 00:25:00 3.9 C 96 % 3.32 C
1405 14-01-2014 00:30:00 3.7 C 96 % 3.12 C
1406 14-01-2014 00:35:00 3.7 C 97 % 3.27 C
1407 14-01-2014 00:40:00 3.7 C 96 % 3.12 C
1408 14-01-2014 00:45:00 3.7 C 96 % 3.12 C
1409 14-01-2014 00:50:00 3.6 C 96 % 3.02 C
1410 14-01-2014 00:55:00 3.7 C 97 % 3.27 C
1411 14-01-2014 01:00:00 3.7 C 97 % 3.27 C
1412 14-01-2014 01:05:00 3.6 C 97 % 3.17 C
1413 14-01-2014 01:10:00 3.6 C 97 % 3.17 C
1414 14-01-2014 01:15:00 3.7 C 97 % 3.27 C
1415 14-01-2014 01:20:00 3.7 C 97 % 3.27 C
1416 14-01-2014 01:25:00 3.6 C 97 % 3.17 C
1417 14-01-2014 01:30:00 3.6 C 97 % 3.17 C
1418 14-01-2014 01:35:00 3.5 C 97 % 3.07 C
1419 14-01-2014 01:40:00 3.3 C 96 % 2.72 C
1420 14-01-2014 01:45:00 3.3 C 97 % 2.87 C
1421 14-01-2014 01:50:00 3.2 C 97 % 2.77 C
1422 14-01-2014 01:55:00 3.2 C 97 % 2.77 C
1423 14-01-2014 02:00:00 3.3 C 97 % 2.87 C
1424 14-01-2014 02:05:00 3.2 C 97 % 2.77 C
1425 14-01-2014 02:10:00 3.2 C 97 % 2.77 C
Sensor: Nr:Datum:Temp:Feuchte:Taupunkt:
Aussen-T/F 1426 14-01-2014 02:15:00 3.2 C 97 % 2.77 C
1427 14-01-2014 02:20:00 3.2 C 97 % 2.77 C
1428 14-01-2014 02:25:00 3.3 C 97 % 2.87 C
1429 14-01-2014 02:30:00 3.2 C 97 % 2.77 C
1430 14-01-2014 02:35:00 3.2 C 97 % 2.77 C
1431 14-01-2014 02:40:00 3.3 C 97 % 2.87 C
1432 14-01-2014 02:45:00 3.4 C 97 % 2.97 C
1433 14-01-2014 02:50:00 3.5 C 97 % 3.07 C
1434 14-01-2014 02:55:00 3.6 C 97 % 3.17 C
1435 14-01-2014 03:00:00 3.7 C 97 % 3.27 C
1436 14-01-2014 03:05:00 3.8 C 97 % 3.37 C
1437 14-01-2014 03:10:00 3.9 C 97 % 3.47 C
1438 14-01-2014 03:15:00 4 C 98 % 3.71 C
1439 14-01-2014 03:20:00 4.1 C 98 % 3.81 C
1440 14-01-2014 03:25:00 4.1 C 98 % 3.81 C
1441 14-01-2014 03:30:00 4.1 C 98 % 3.81 C
1442 14-01-2014 03:35:00 4.1 C 97 % 3.67 C
1443 14-01-2014 03:40:00 4.1 C 97 % 3.67 C
1444 14-01-2014 03:45:00 4.1 C 97 % 3.67 C
1445 14-01-2014 03:50:00 4.1 C 97 % 3.67 C
1446 14-01-2014 03:55:00 4.1 C 97 % 3.67 C
1447 14-01-2014 04:00:00 4.1 C 97 % 3.67 C
1448 14-01-2014 04:05:00 4.2 C 97 % 3.77 C
1449 14-01-2014 04:10:00 4.2 C 97 % 3.77 C
1450 14-01-2014 04:15:00 4.2 C 97 % 3.77 C
Sensor: Nr:Datum:Temp:Feuchte:Taupunkt:
Aussen-T/F 1451 14-01-2014 04:20:00 4.2 C 97 % 3.77 C
1452 14-01-2014 04:25:00 4.2 C 97 % 3.77 C
1453 14-01-2014 04:30:00 4.2 C 97 % 3.77 C
1454 14-01-2014 04:35:00 4.3 C 97 % 3.87 C
1455 14-01-2014 04:40:00 4.3 C 97 % 3.87 C
1456 14-01-2014 04:45:00 4.5 C 98 % 4.21 C
1457 14-01-2014 04:50:00 4.7 C 98 % 4.41 C
1458 14-01-2014 04:55:00 4.8 C 98 % 4.51 C
1459 14-01-2014 05:00:00 5 C 98 % 4.71 C
1460 14-01-2014 05:05:00 5.1 C 98 % 4.81 C
1461 14-01-2014 05:10:00 5.2 C 97 % 4.76 C
1462 14-01-2014 05:15:00 5.2 C 97 % 4.76 C
1463 14-01-2014 05:20:00 5.3 C 96 % 4.72 C
1464 14-01-2014 05:25:00 5.3 C 95 % 4.57 C
1465 14-01-2014 05:30:00 5.4 C 95 % 4.66 C
1466 14-01-2014 05:35:00 5.5 C 95 % 4.76 C
1467 14-01-2014 05:40:00 5.6 C 95 % 4.86 C
1468 14-01-2014 05:45:00 5.6 C 94 % 4.71 C
1469 14-01-2014 05:50:00 5.5 C 94 % 4.61 C
1470 14-01-2014 05:55:00 5.5 C 94 % 4.61 C
1471 14-01-2014 06:00:00 5.4 C 94 % 4.51 C
1472 14-01-2014 06:05:00 5.4 C 93 % 4.36 C
1473 14-01-2014 06:10:00 5.3 C 94 % 4.41 C
1474 14-01-2014 06:15:00 5.3 C 94 % 4.41 C
1475 14-01-2014 06:20:00 5.3 C 94 % 4.41 C
Sensor: Nr:Datum:Temp:Feuchte:Taupunkt:
Aussen-T/F 1476 14-01-2014 06:25:00 5.2 C 94 % 4.32 C
1477 14-01-2014 06:30:00 5.2 C 94 % 4.32 C
1478 14-01-2014 06:35:00 5.2 C 94 % 4.32 C
1479 14-01-2014 06:40:00 5 C 94 % 4.12 C
1480 14-01-2014 06:45:00 4.9 C 94 % 4.02 C
1481 14-01-2014 06:50:00 5 C 95 % 4.27 C
1482 14-01-2014 06:55:00 5 C 95 % 4.27 C
1483 14-01-2014 07:00:00 4.9 C 95 % 4.17 C
1484 14-01-2014 07:05:00 4.9 C 95 % 4.17 C
1485 14-01-2014 07:10:00 4.7 C 94 % 3.82 C
1486 14-01-2014 07:15:00 4.6 C 95 % 3.87 C
1487 14-01-2014 07:20:00 4.6 C 95 % 3.87 C
1488 14-01-2014 07:25:00 4.8 C 96 % 4.22 C
1489 14-01-2014 07:30:00 4.8 C 95 % 4.07 C
1490 14-01-2014 07:35:00 4.8 C 95 % 4.07 C
1491 14-01-2014 07:40:00 4.7 C 95 % 3.97 C
1492 14-01-2014 07:45:00 4.5 C 95 % 3.77 C
1493 14-01-2014 07:50:00 4.3 C 95 % 3.57 C
1494 14-01-2014 07:55:00 4.2 C 95 % 3.47 C
1495 14-01-2014 08:00:00 4.2 C 96 % 3.62 C
1496 14-01-2014 08:05:00 4.2 C 96 % 3.62 C
1497 14-01-2014 08:10:00 4.5 C 97 % 4.07 C
1498 14-01-2014 08:15:00 4.6 C 97 % 4.17 C
1499 14-01-2014 08:20:00 4.7 C 96 % 4.12 C
1500 14-01-2014 08:25:00 4.5 C 96 % 3.92 C
Sensor: Nr:Datum:Temp:Feuchte:Taupunkt:
Aussen-T/F 1501 14-01-2014 08:30:00 4.3 C 95 % 3.57 C
1502 14-01-2014 08:35:00 4.1 C 95 % 3.37 C
1503 14-01-2014 08:40:00 4 C 96 % 3.42 C
1504 14-01-2014 08:45:00 4 C 96 % 3.42 C
1505 14-01-2014 08:50:00 4 C 96 % 3.42 C
1506 14-01-2014 08:55:00 4.2 C 97 % 3.77 C
1507 14-01-2014 09:00:00 4.3 C 97 % 3.87 C
1508 14-01-2014 09:05:00 4.4 C 97 % 3.97 C
1509 14-01-2014 09:10:00 4.4 C 97 % 3.97 C
1510 14-01-2014 09:15:00 4.6 C 97 % 4.17 C
1511 14-01-2014 09:20:00 4.7 C 97 % 4.27 C
1512 14-01-2014 09:25:00 4.9 C 97 % 4.46 C
1513 14-01-2014 09:30:00 5.1 C 97 % 4.66 C
1514 14-01-2014 09:35:00 5.2 C 97 % 4.76 C
1515 14-01-2014 09:40:00 5.3 C 97 % 4.86 C
1516 14-01-2014 09:45:00 5.5 C 96 % 4.91 C
1517 14-01-2014 09:50:00 5.6 C 96 % 5.01 C
1518 14-01-2014 09:55:00 5.7 C 95 % 4.96 C
1519 14-01-2014 10:00:00 5.8 C 95 % 5.06 C
1520 14-01-2014 10:05:00 5.8 C 95 % 5.06 C
1521 14-01-2014 10:10:00 5.8 C 94 % 4.91 C
1522 14-01-2014 10:15:00 5.8 C 94 % 4.91 C
1523 14-01-2014 10:20:00 5.8 C 93 % 4.76 C
1524 14-01-2014 10:25:00 5.8 C 93 % 4.76 C
1525 14-01-2014 10:30:00 5.8 C 93 % 4.76 C
Sensor: Nr:Datum:Temp:Feuchte:Taupunkt:
Aussen-T/F 1526 14-01-2014 10:35:00 5.8 C 93 % 4.76 C
1527 14-01-2014 10:40:00 5.8 C 93 % 4.76 C
1528 14-01-2014 10:45:00 5.8 C 93 % 4.76 C
1529 14-01-2014 10:50:00 5.8 C 94 % 4.91 C
1530 14-01-2014 10:55:00 5.8 C 94 % 4.91 C
1531 14-01-2014 11:00:00 5.8 C 94 % 4.91 C
1532 14-01-2014 11:05:00 5.9 C 94 % 5.01 C
1533 14-01-2014 11:10:00 5.9 C 94 % 5.01 C
1534 14-01-2014 11:15:00 5.9 C 94 % 5.01 C
1535 14-01-2014 11:20:00 5.9 C 94 % 5.01 C
1536 14-01-2014 12:05:00 6.8 C 92 % 5.59 C
1537 14-01-2014 12:10:00 6.9 C 91 % 5.54 C
1538 14-01-2014 12:15:00 6.9 C 91 % 5.54 C
1539 14-01-2014 12:20:00 6.9 C 90 % 5.38 C
1540 14-01-2014 12:25:00 6.9 C 90 % 5.38 C
1541 14-01-2014 12:30:00 6.9 C 91 % 5.54 C
1542 14-01-2014 12:35:00 6.9 C 90 % 5.38 C
1543 14-01-2014 12:40:00 6.9 C 91 % 5.54 C
1544 14-01-2014 12:45:00 6.9 C 91 % 5.54 C
1545 14-01-2014 12:50:00 6.9 C 92 % 5.69 C
1546 14-01-2014 12:55:00 7 C 91 % 5.63 C
1547 14-01-2014 13:00:00 7.1 C 91 % 5.73 C
1548 14-01-2014 13:05:00 7.3 C 91 % 5.93 C
1549 14-01-2014 13:10:00 7.4 C 91 % 6.03 C
1550 14-01-2014 13:15:00 7.5 C 89 % 5.81 C
Sensor: Nr:Datum:Temp:Feuchte:Taupunkt:
Aussen-T/F 1551 14-01-2014 13:20:00 7.6 C 89 % 5.91 C
1552 14-01-2014 13:25:00 7.6 C 89 % 5.91 C
1553 14-01-2014 13:30:00 7.6 C 88 % 5.74 C
1554 14-01-2014 13:35:00 7.6 C 89 % 5.91 C
1555 14-01-2014 13:40:00 7.7 C 88 % 5.84 C
1556 14-01-2014 13:45:00 7.7 C 88 % 5.84 C
1557 14-01-2014 13:50:00 7.8 C 88 % 5.94 C
1558 14-01-2014 13:55:00 7.8 C 88 % 5.94 C
1559 14-01-2014 14:00:00 7.9 C 87 % 5.87 C
1560 14-01-2014 14:05:00 8 C 87 % 5.97 C
1561 14-01-2014 14:10:00 8.1 C 87 % 6.07 C
1562 14-01-2014 14:15:00 8.1 C 87 % 6.07 C
1563 14-01-2014 14:20:00 8.1 C 86 % 5.9 C
1564 14-01-2014 14:25:00 8.1 C 87 % 6.07 C
1565 14-01-2014 14:30:00 8.1 C 87 % 6.07 C
1566 14-01-2014 14:35:00 8 C 87 % 5.97 C
1567 14-01-2014 14:40:00 7.9 C 88 % 6.04 C
1568 14-01-2014 14:45:00 7.8 C 87 % 5.78 C
1569 14-01-2014 14:50:00 7.8 C 87 % 5.78 C
1570 14-01-2014 14:55:00 7.8 C 87 % 5.78 C
1571 14-01-2014 15:00:00 7.7 C 88 % 5.84 C
1572 14-01-2014 15:05:00 7.5 C 89 % 5.81 C
1573 14-01-2014 15:10:00 7.3 C 90 % 5.77 C
1574 14-01-2014 15:15:00 7.1 C 91 % 5.73 C
1575 14-01-2014 15:20:00 7.2 C 92 % 5.99 C
Sensor: Nr:Datum:Temp:Feuchte:Taupunkt:
Aussen-T/F 1576 14-01-2014 15:25:00 7.2 C 92 % 5.99 C
1577 14-01-2014 15:30:00 7.2 C 91 % 5.83 C
1578 14-01-2014 15:35:00 7.3 C 90 % 5.77 C
1579 14-01-2014 15:40:00 7.4 C 90 % 5.87 C
1580 14-01-2014 15:45:00 7.5 C 89 % 5.81 C
1581 14-01-2014 15:50:00 7.6 C 88 % 5.74 C
1582 14-01-2014 15:55:00 7.6 C 87 % 5.58 C
1583 14-01-2014 16:00:00 7.6 C 88 % 5.74 C
1584 14-01-2014 16:05:00 7.6 C 88 % 5.74 C
1585 14-01-2014 16:10:00 7.6 C 87 % 5.58 C
1586 14-01-2014 16:15:00 7.6 C 87 % 5.58 C
1587 14-01-2014 16:20:00 7.5 C 87 % 5.48 C
1588 14-01-2014 16:25:00 7.4 C 87 % 5.38 C
1589 14-01-2014 16:30:00 7.3 C 88 % 5.45 C
1590 14-01-2014 16:35:00 7.2 C 88 % 5.35 C
1591 14-01-2014 16:40:00 7 C 88 % 5.15 C
1592 14-01-2014 16:45:00 6.8 C 89 % 5.12 C
1593 14-01-2014 16:50:00 6.7 C 90 % 5.18 C
1594 14-01-2014 16:55:00 6.5 C 90 % 4.98 C
1595 14-01-2014 17:00:00 6.4 C 90 % 4.88 C
1596 14-01-2014 17:05:00 6.4 C 90 % 4.88 C
1597 14-01-2014 17:10:00 6.4 C 91 % 5.04 C
1598 14-01-2014 17:15:00 6.4 C 91 % 5.04 C
1599 14-01-2014 17:20:00 6.4 C 91 % 5.04 C
1600 14-01-2014 17:25:00 6.4 C 92 % 5.2 C
Sensor: Nr:Datum:Temp:Feuchte:Taupunkt:
Aussen-T/F 1601 14-01-2014 17:30:00 6.4 C 92 % 5.2 C
1602 14-01-2014 17:35:00 6.4 C 92 % 5.2 C
1603 14-01-2014 17:40:00 6.3 C 93 % 5.25 C
1604 14-01-2014 17:45:00 6.3 C 93 % 5.25 C
1605 14-01-2014 17:50:00 6.2 C 94 % 5.31 C
1606 14-01-2014 17:55:00 6.1 C 94 % 5.21 C
1607 14-01-2014 18:00:00 6 C 94 % 5.11 C
1608 14-01-2014 18:05:00 5.9 C 95 % 5.16 C
1609 14-01-2014 18:10:00 5.8 C 95 % 5.06 C
1610 14-01-2014 18:15:00 5.7 C 95 % 4.96 C
1611 14-01-2014 18:20:00 5.6 C 95 % 4.86 C
1612 14-01-2014 18:25:00 5.4 C 95 % 4.66 C
1613 14-01-2014 18:30:00 5.2 C 95 % 4.47 C
1614 14-01-2014 18:35:00 5 C 95 % 4.27 C
1615 14-01-2014 18:40:00 4.7 C 95 % 3.97 C
1616 14-01-2014 18:45:00 4.6 C 95 % 3.87 C
1617 14-01-2014 18:50:00 4.4 C 95 % 3.67 C
1618 14-01-2014 18:55:00 4.2 C 95 % 3.47 C
1619 14-01-2014 19:00:00 4.1 C 96 % 3.52 C
1620 14-01-2014 19:05:00 4.1 C 96 % 3.52 C
1621 14-01-2014 19:10:00 3.9 C 96 % 3.32 C
1622 14-01-2014 19:15:00 3.8 C 96 % 3.22 C
1623 14-01-2014 19:20:00 3.8 C 96 % 3.22 C
1624 14-01-2014 19:25:00 3.6 C 96 % 3.02 C
1625 14-01-2014 19:30:00 3.4 C 96 % 2.82 C
Sensor: Nr:Datum:Temp:Feuchte:Taupunkt:
Aussen-T/F 1626 14-01-2014 19:35:00 3.4 C 96 % 2.82 C
1627 14-01-2014 19:40:00 3.3 C 96 % 2.72 C
1628 14-01-2014 19:45:00 3.2 C 96 % 2.63 C
1629 14-01-2014 19:50:00 3.2 C 96 % 2.63 C
1630 14-01-2014 19:55:00 3.1 C 96 % 2.53 C
1631 14-01-2014 20:00:00 3 C 96 % 2.43 C
1632 14-01-2014 20:05:00 3.1 C 96 % 2.53 C
1633 14-01-2014 20:10:00 3.1 C 96 % 2.53 C
1634 14-01-2014 20:15:00 3.2 C 97 % 2.77 C
1635 14-01-2014 20:20:00 3.2 C 97 % 2.77 C
1636 14-01-2014 20:25:00 3.2 C 97 % 2.77 C
1637 14-01-2014 20:30:00 3.2 C 97 % 2.77 C
1638 14-01-2014 20:35:00 3.2 C 97 % 2.77 C
1639 14-01-2014 20:40:00 3.3 C 97 % 2.87 C
1640 14-01-2014 20:45:00 3.3 C 97 % 2.87 C
1641 14-01-2014 20:50:00 3.4 C 97 % 2.97 C
1642 14-01-2014 20:55:00 3.4 C 97 % 2.97 C
1643 14-01-2014 21:00:00 3.5 C 97 % 3.07 C
1644 14-01-2014 21:05:00 3.5 C 97 % 3.07 C
1645 14-01-2014 21:10:00 3.4 C 97 % 2.97 C
1646 14-01-2014 21:15:00 3.3 C 97 % 2.87 C
1647 14-01-2014 21:20:00 3.2 C 97 % 2.77 C
1648 14-01-2014 21:25:00 3.2 C 97 % 2.77 C
1649 14-01-2014 21:30:00 3.2 C 97 % 2.77 C
1650 14-01-2014 21:35:00 3.2 C 97 % 2.77 C
Sensor: Nr:Datum:Temp:Feuchte:Taupunkt:
Aussen-T/F 1651 14-01-2014 21:40:00 3.4 C 97 % 2.97 C
1652 14-01-2014 21:45:00 3.6 C 97 % 3.17 C
1653 14-01-2014 21:50:00 3.5 C 97 % 3.07 C
1654 14-01-2014 21:55:00 3.4 C 97 % 2.97 C
1655 14-01-2014 22:00:00 3.4 C 97 % 2.97 C
1656 14-01-2014 22:05:00 3.4 C 97 % 2.97 C
1657 14-01-2014 22:10:00 3.5 C 97 % 3.07 C
1658 14-01-2014 22:15:00 3.6 C 97 % 3.17 C
1659 14-01-2014 22:20:00 3.7 C 98 % 3.41 C
1660 14-01-2014 22:25:00 3.8 C 98 % 3.51 C
1661 14-01-2014 22:30:00 3.9 C 97 % 3.47 C
1662 14-01-2014 22:35:00 4 C 97 % 3.57 C
1663 14-01-2014 22:40:00 4.1 C 97 % 3.67 C
1664 14-01-2014 22:45:00 4.1 C 98 % 3.81 C
1665 14-01-2014 22:50:00 4.1 C 98 % 3.81 C
1666 14-01-2014 22:55:00 4.2 C 98 % 3.91 C
1667 14-01-2014 23:00:00 4.2 C 97 % 3.77 C
1668 14-01-2014 23:05:00 4.2 C 97 % 3.77 C
1669 14-01-2014 23:10:00 4.2 C 97 % 3.77 C
1670 14-01-2014 23:15:00 4.2 C 97 % 3.77 C
1671 14-01-2014 23:20:00 4.3 C 97 % 3.87 C
1672 14-01-2014 23:25:00 4.3 C 97 % 3.87 C
1673 14-01-2014 23:30:00 4.3 C 98 % 4.01 C
1674 14-01-2014 23:35:00 4.3 C 98 % 4.01 C
1675 14-01-2014 23:40:00 4.4 C 98 % 4.11 C
Sensor: Nr:Datum:Temp:Feuchte:Taupunkt:
Aussen-T/F 1676 14-01-2014 23:45:00 4.6 C 97 % 4.17 C
1677 14-01-2014 23:50:00 4.7 C 98 % 4.41 C
1678 14-01-2014 23:55:00 4.8 C 97 % 4.37 C
1679 15-01-2014 00:00:00 4.8 C 97 % 4.37 C
1680 15-01-2014 00:05:00 4.8 C 97 % 4.37 C
1681 15-01-2014 00:10:00 4.8 C 97 % 4.37 C
1682 15-01-2014 00:15:00 4.8 C 97 % 4.37 C
1683 15-01-2014 00:20:00 4.8 C 97 % 4.37 C
1684 15-01-2014 00:25:00 4.8 C 97 % 4.37 C
1685 15-01-2014 00:30:00 4.8 C 97 % 4.37 C
1686 15-01-2014 00:35:00 4.8 C 96 % 4.22 C
1687 15-01-2014 00:40:00 4.8 C 96 % 4.22 C
1688 15-01-2014 00:45:00 4.8 C 96 % 4.22 C
1689 15-01-2014 00:50:00 4.8 C 96 % 4.22 C
1690 15-01-2014 00:55:00 4.8 C 96 % 4.22 C
1691 15-01-2014 01:00:00 4.8 C 96 % 4.22 C
1692 15-01-2014 01:05:00 4.8 C 96 % 4.22 C
1693 15-01-2014 01:10:00 4.8 C 96 % 4.22 C
1694 15-01-2014 01:15:00 4.9 C 96 % 4.32 C
1695 15-01-2014 01:20:00 4.9 C 96 % 4.32 C
1696 15-01-2014 01:25:00 4.9 C 96 % 4.32 C
1697 15-01-2014 01:30:00 4.9 C 96 % 4.32 C
1698 15-01-2014 01:35:00 4.9 C 95 % 4.17 C
1699 15-01-2014 01:40:00 4.9 C 95 % 4.17 C
1700 15-01-2014 01:45:00 5 C 95 % 4.27 C
Sensor: Nr:Datum:Temp:Feuchte:Taupunkt:
Aussen-T/F 1701 15-01-2014 01:50:00 5 C 95 % 4.27 C
1702 15-01-2014 01:55:00 5 C 95 % 4.27 C
1703 15-01-2014 02:00:00 4.9 C 95 % 4.17 C
1704 15-01-2014 02:05:00 4.9 C 95 % 4.17 C
1705 15-01-2014 02:10:00 4.8 C 95 % 4.07 C
1706 15-01-2014 02:15:00 4.8 C 95 % 4.07 C
1707 15-01-2014 02:20:00 4.7 C 95 % 3.97 C
1708 15-01-2014 02:25:00 4.7 C 94 % 3.82 C
1709 15-01-2014 02:30:00 4.8 C 94 % 3.92 C
1710 15-01-2014 02:35:00 4.8 C 94 % 3.92 C
1711 15-01-2014 02:40:00 4.8 C 93 % 3.77 C
1712 15-01-2014 02:45:00 4.8 C 93 % 3.77 C
1713 15-01-2014 02:50:00 4.8 C 93 % 3.77 C
1714 15-01-2014 02:55:00 4.8 C 93 % 3.77 C
1715 15-01-2014 03:00:00 4.8 C 93 % 3.77 C
1716 15-01-2014 03:05:00 4.7 C 92 % 3.51 C
1717 15-01-2014 03:10:00 4.8 C 92 % 3.61 C
1718 15-01-2014 03:15:00 4.7 C 92 % 3.51 C
1719 15-01-2014 03:20:00 4.7 C 92 % 3.51 C
1720 15-01-2014 03:25:00 4.7 C 92 % 3.51 C
1721 15-01-2014 03:30:00 4.8 C 91 % 3.46 C
1722 15-01-2014 03:35:00 4.8 C 91 % 3.46 C
1723 15-01-2014 03:40:00 4.8 C 90 % 3.3 C
1724 15-01-2014 03:45:00 4.8 C 90 % 3.3 C
1725 15-01-2014 03:50:00 4.8 C 90 % 3.3 C
Sensor: Nr:Datum:Temp:Feuchte:Taupunkt:
Aussen-T/F 1726 15-01-2014 03:55:00 4.7 C 89 % 3.05 C
1727 15-01-2014 04:00:00 4.6 C 89 % 2.95 C
1728 15-01-2014 04:05:00 4.6 C 87 % 2.63 C
1729 15-01-2014 04:10:00 4.6 C 86 % 2.47 C
1730 15-01-2014 04:15:00 4.5 C 86 % 2.37 C
1731 15-01-2014 04:20:00 4.4 C 86 % 2.27 C
1732 15-01-2014 04:25:00 4.2 C 86 % 2.07 C
1733 15-01-2014 04:30:00 4.1 C 87 % 2.14 C
1734 15-01-2014 04:35:00 3.9 C 88 % 2.1 C
1735 15-01-2014 04:40:00 3.7 C 89 % 2.06 C
1736 15-01-2014 04:45:00 3.4 C 90 % 1.92 C
1737 15-01-2014 04:50:00 3.3 C 90 % 1.82 C
1738 15-01-2014 04:55:00 3.2 C 91 % 1.88 C
1739 15-01-2014 05:00:00 3.2 C 91 % 1.88 C
1740 15-01-2014 05:05:00 3.2 C 91 % 1.88 C
1741 15-01-2014 05:10:00 3.3 C 91 % 1.98 C
1742 15-01-2014 05:15:00 3.4 C 91 % 2.07 C
1743 15-01-2014 05:20:00 3.5 C 91 % 2.17 C
1744 15-01-2014 05:25:00 3.4 C 91 % 2.07 C
1745 15-01-2014 05:30:00 3.4 C 91 % 2.07 C
1746 15-01-2014 05:35:00 3.3 C 91 % 1.98 C
1747 15-01-2014 05:40:00 3.1 C 91 % 1.78 C
1748 15-01-2014 05:45:00 2.9 C 91 % 1.58 C
1749 15-01-2014 05:50:00 2.7 C 92 % 1.53 C
1750 15-01-2014 05:55:00 2.6 C 92 % 1.43 C
Sensor: Nr:Datum:Temp:Feuchte:Taupunkt:
Aussen-T/F 1751 15-01-2014 06:00:00 2.6 C 93 % 1.59 C
1752 15-01-2014 06:05:00 2.6 C 92 % 1.43 C
1753 15-01-2014 06:10:00 2.4 C 93 % 1.39 C
1754 15-01-2014 06:15:00 2.4 C 93 % 1.39 C
1755 15-01-2014 06:20:00 2.3 C 93 % 1.29 C
1756 15-01-2014 06:25:00 2.1 C 93 % 1.09 C
1757 15-01-2014 06:30:00 2.1 C 93 % 1.09 C
1758 15-01-2014 06:35:00 1.9 C 94 % 1.04 C
1759 15-01-2014 06:40:00 1.8 C 94 % 0.94 C
1760 15-01-2014 06:45:00 1.8 C 94 % 0.94 C
1761 15-01-2014 06:50:00 1.7 C 94 % 0.84 C
1762 15-01-2014 06:55:00 1.6 C 94 % 0.74 C
1763 15-01-2014 07:00:00 1.7 C 94 % 0.84 C
1764 15-01-2014 07:05:00 1.6 C 94 % 0.74 C
1765 15-01-2014 07:10:00 1.6 C 94 % 0.74 C
1766 15-01-2014 07:15:00 1.6 C 95 % 0.89 C
1767 15-01-2014 07:20:00 1.6 C 95 % 0.89 C
1768 15-01-2014 07:25:00 1.6 C 95 % 0.89 C
1769 15-01-2014 07:30:00 1.6 C 95 % 0.89 C
1770 15-01-2014 07:35:00 1.5 C 94 % 0.64 C
1771 15-01-2014 07:40:00 1.4 C 95 % 0.69 C
1772 15-01-2014 07:45:00 1.4 C 95 % 0.69 C
1773 15-01-2014 07:50:00 1.6 C 95 % 0.89 C
1774 15-01-2014 07:55:00 1.6 C 95 % 0.89 C
1775 15-01-2014 08:00:00 1.7 C 95 % 0.99 C
Sensor: Nr:Datum:Temp:Feuchte:Taupunkt:
Aussen-T/F 1776 15-01-2014 08:05:00 1.7 C 95 % 0.99 C
1777 15-01-2014 08:10:00 1.7 C 95 % 0.99 C
1778 15-01-2014 08:15:00 1.7 C 95 % 0.99 C
1779 15-01-2014 08:20:00 1.7 C 95 % 0.99 C
1780 15-01-2014 08:25:00 1.7 C 95 % 0.99 C
1781 15-01-2014 08:30:00 1.7 C 95 % 0.99 C
1782 15-01-2014 08:35:00 1.7 C 95 % 0.99 C
1783 15-01-2014 08:40:00 1.7 C 95 % 0.99 C
1784 15-01-2014 08:45:00 1.8 C 95 % 1.09 C
1785 15-01-2014 08:50:00 1.9 C 96 % 1.33 C
1786 15-01-2014 08:55:00 1.9 C 96 % 1.33 C
1787 15-01-2014 09:00:00 2 C 96 % 1.43 C
1788 15-01-2014 09:05:00 2.1 C 96 % 1.53 C
1789 15-01-2014 09:10:00 2.1 C 96 % 1.53 C
1790 15-01-2014 09:15:00 2.2 C 96 % 1.63 C
1791 15-01-2014 09:20:00 2.2 C 96 % 1.63 C
1792 15-01-2014 09:25:00 2.2 C 96 % 1.63 C
1793 15-01-2014 09:30:00 2.2 C 96 % 1.63 C
1794 15-01-2014 09:35:00 2.3 C 95 % 1.58 C
1795 15-01-2014 09:40:00 2.3 C 95 % 1.58 C
1796 15-01-2014 09:45:00 2.4 C 95 % 1.68 C
1797 15-01-2014 09:50:00 2.6 C 96 % 2.03 C
1798 15-01-2014 09:55:00 2.7 C 96 % 2.13 C
1799 15-01-2014 10:00:00 2.8 C 95 % 2.08 C
1800 15-01-2014 10:05:00 2.9 C 95 % 2.18 C
Sensor: Nr:Datum:Temp:Feuchte:Taupunkt:
Aussen-T/F 1801 15-01-2014 10:10:00 2.9 C 95 % 2.18 C
1802 15-01-2014 10:15:00 3.1 C 94 % 2.23 C
1803 15-01-2014 10:20:00 3.2 C 94 % 2.33 C
1804 15-01-2014 10:25:00 3.4 C 93 % 2.38 C
1805 15-01-2014 10:30:00 3.6 C 92 % 2.42 C
1806 15-01-2014 10:35:00 3.7 C 91 % 2.37 C
1807 15-01-2014 10:40:00 3.8 C 90 % 2.31 C
1808 15-01-2014 10:45:00 3.9 C 91 % 2.57 C
1809 15-01-2014 10:50:00 4.1 C 90 % 2.61 C
1810 15-01-2014 10:55:00 4.1 C 89 % 2.45 C
1811 15-01-2014 11:00:00 4.2 C 89 % 2.55 C
1812 15-01-2014 11:05:00 4.3 C 89 % 2.65 C
1813 15-01-2014 11:10:00 4.4 C 88 % 2.59 C
1814 15-01-2014 11:15:00 4.4 C 87 % 2.43 C
1815 15-01-2014 11:20:00 4.6 C 87 % 2.63 C
1816 15-01-2014 11:25:00 4.6 C 87 % 2.63 C
1817 15-01-2014 11:30:00 4.7 C 87 % 2.73 C
1818 15-01-2014 11:35:00 4.7 C 86 % 2.56 C
1819 15-01-2014 11:40:00 4.8 C 87 % 2.82 C
1820 15-01-2014 11:45:00 4.8 C 87 % 2.82 C
1821 15-01-2014 11:50:00 4.9 C 86 % 2.76 C
1822 15-01-2014 11:55:00 5 C 86 % 2.86 C
1823 15-01-2014 12:00:00 5.1 C 87 % 3.12 C
1824 15-01-2014 12:05:00 5.2 C 84 % 2.72 C
1825 15-01-2014 12:10:00 5.3 C 83 % 2.65 C
Sensor: Nr:Datum:Temp:Feuchte:Taupunkt:
Aussen-T/F 1826 15-01-2014 12:15:00 5.4 C 84 % 2.92 C
1827 15-01-2014 12:20:00 5.5 C 84 % 3.02 C
1828 15-01-2014 12:25:00 5.6 C 83 % 2.95 C
1829 15-01-2014 12:30:00 5.6 C 84 % 3.12 C
1830 15-01-2014 12:35:00 5.7 C 84 % 3.21 C
1831 15-01-2014 12:40:00 5.7 C 84 % 3.21 C
1832 15-01-2014 12:45:00 5.8 C 84 % 3.31 C
1833 15-01-2014 12:50:00 5.8 C 83 % 3.14 C
1834 15-01-2014 12:55:00 5.9 C 83 % 3.24 C
1835 15-01-2014 13:00:00 5.9 C 83 % 3.24 C
1836 15-01-2014 13:05:00 5.9 C 83 % 3.24 C
1837 15-01-2014 13:10:00 5.9 C 82 % 3.07 C
1838 15-01-2014 13:15:00 5.9 C 82 % 3.07 C
1839 15-01-2014 13:20:00 5.9 C 82 % 3.07 C
1840 15-01-2014 13:25:00 5.9 C 82 % 3.07 C
1841 15-01-2014 13:30:00 5.9 C 81 % 2.9 C
1842 15-01-2014 13:35:00 6 C 82 % 3.17 C
1843 15-01-2014 13:40:00 6 C 82 % 3.17 C
1844 15-01-2014 13:45:00 5.9 C 83 % 3.24 C
1845 15-01-2014 13:50:00 5.8 C 83 % 3.14 C
1846 15-01-2014 13:55:00 5.7 C 84 % 3.21 C
1847 15-01-2014 14:00:00 5.6 C 84 % 3.12 C
1848 15-01-2014 14:05:00 5.6 C 85 % 3.28 C
1849 15-01-2014 14:10:00 5.5 C 85 % 3.18 C
1850 15-01-2014 14:15:00 5.5 C 86 % 3.35 C
Sensor: Nr:Datum:Temp:Feuchte:Taupunkt:
Aussen-T/F 1851 15-01-2014 14:20:00 5.5 C 86 % 3.35 C
1852 15-01-2014 14:25:00 5.4 C 86 % 3.25 C
1853 15-01-2014 14:30:00 5.3 C 86 % 3.15 C
1854 15-01-2014 14:35:00 5.3 C 87 % 3.32 C
1855 15-01-2014 14:40:00 5.2 C 87 % 3.22 C
1856 15-01-2014 14:45:00 5.2 C 88 % 3.38 C
1857 15-01-2014 14:50:00 5.1 C 88 % 3.28 C
1858 15-01-2014 14:55:00 5.1 C 89 % 3.44 C
1859 15-01-2014 15:00:00 5.1 C 89 % 3.44 C
1860 15-01-2014 15:05:00 5 C 90 % 3.5 C
1861 15-01-2014 15:10:00 4.9 C 90 % 3.4 C
1862 15-01-2014 15:15:00 4.9 C 91 % 3.56 C
1863 15-01-2014 15:20:00 4.8 C 91 % 3.46 C
1864 15-01-2014 15:25:00 4.8 C 91 % 3.46 C
1865 15-01-2014 15:30:00 4.8 C 91 % 3.46 C
1866 15-01-2014 15:35:00 4.8 C 92 % 3.61 C
1867 15-01-2014 15:40:00 4.7 C 92 % 3.51 C
1868 15-01-2014 15:45:00 4.7 C 92 % 3.51 C
1869 15-01-2014 15:50:00 4.7 C 93 % 3.67 C
1870 15-01-2014 15:55:00 4.6 C 92 % 3.42 C
1871 15-01-2014 16:00:00 4.6 C 92 % 3.42 C
1872 15-01-2014 16:05:00 4.6 C 92 % 3.42 C
1873 15-01-2014 16:10:00 4.6 C 92 % 3.42 C
1874 15-01-2014 16:15:00 4.5 C 93 % 3.47 C
1875 15-01-2014 16:20:00 4.5 C 93 % 3.47 C
Sensor: Nr:Datum:Temp:Feuchte:Taupunkt:
Aussen-T/F 1876 15-01-2014 16:25:00 4.4 C 93 % 3.37 C
1877 15-01-2014 16:30:00 4.4 C 93 % 3.37 C
1878 15-01-2014 16:35:00 4.4 C 93 % 3.37 C
1879 15-01-2014 16:40:00 4.4 C 93 % 3.37 C
1880 15-01-2014 16:45:00 4.4 C 93 % 3.37 C
1881 15-01-2014 16:50:00 4.4 C 93 % 3.37 C
1882 15-01-2014 16:55:00 4.4 C 93 % 3.37 C
1883 15-01-2014 17:00:00 4.4 C 93 % 3.37 C
1884 15-01-2014 17:05:00 4.4 C 94 % 3.52 C
1885 15-01-2014 17:10:00 4.4 C 94 % 3.52 C
1886 15-01-2014 17:15:00 4.4 C 93 % 3.37 C
1887 15-01-2014 17:20:00 4.4 C 94 % 3.52 C
1888 15-01-2014 17:25:00 4.4 C 94 % 3.52 C
1889 15-01-2014 17:30:00 4.4 C 93 % 3.37 C
1890 15-01-2014 17:35:00 4.4 C 93 % 3.37 C
1891 15-01-2014 17:40:00 4.4 C 92 % 3.22 C
1892 15-01-2014 17:45:00 4.5 C 92 % 3.32 C
1893 15-01-2014 17:50:00 4.6 C 92 % 3.42 C
1894 15-01-2014 17:55:00 4.6 C 92 % 3.42 C
1895 15-01-2014 18:00:00 4.6 C 91 % 3.26 C
1896 15-01-2014 18:05:00 4.6 C 91 % 3.26 C
1897 15-01-2014 18:10:00 4.7 C 91 % 3.36 C
1898 15-01-2014 18:15:00 4.7 C 91 % 3.36 C
1899 15-01-2014 18:20:00 4.7 C 91 % 3.36 C
1900 15-01-2014 18:25:00 4.7 C 90 % 3.2 C
Sensor: Nr:Datum:Temp:Feuchte:Taupunkt:
Aussen-T/F 1901 15-01-2014 18:30:00 4.7 C 90 % 3.2 C
1902 15-01-2014 18:35:00 4.8 C 90 % 3.3 C
1903 15-01-2014 18:40:00 4.8 C 90 % 3.3 C
1904 15-01-2014 18:45:00 4.8 C 90 % 3.3 C
1905 15-01-2014 18:50:00 4.8 C 90 % 3.3 C
1906 15-01-2014 18:55:00 4.8 C 91 % 3.46 C
1907 15-01-2014 19:00:00 4.8 C 92 % 3.61 C
1908 15-01-2014 19:05:00 4.7 C 92 % 3.51 C
1909 15-01-2014 19:10:00 4.8 C 90 % 3.3 C
1910 15-01-2014 19:15:00 4.8 C 91 % 3.46 C
1911 15-01-2014 19:20:00 4.8 C 91 % 3.46 C
1912 15-01-2014 19:25:00 4.8 C 91 % 3.46 C
1913 15-01-2014 19:30:00 4.8 C 91 % 3.46 C
1914 15-01-2014 19:35:00 4.8 C 91 % 3.46 C
1915 15-01-2014 19:40:00 4.8 C 90 % 3.3 C
1916 15-01-2014 19:45:00 4.9 C 91 % 3.56 C
1917 15-01-2014 19:50:00 4.9 C 91 % 3.56 C
1918 15-01-2014 19:55:00 4.9 C 91 % 3.56 C
1919 15-01-2014 20:00:00 4.9 C 91 % 3.56 C
1920 15-01-2014 20:05:00 4.8 C 91 % 3.46 C
1921 15-01-2014 20:10:00 4.8 C 92 % 3.61 C
1922 15-01-2014 20:15:00 4.8 C 92 % 3.61 C
1923 15-01-2014 20:20:00 4.8 C 92 % 3.61 C
1924 15-01-2014 20:25:00 4.8 C 93 % 3.77 C
1925 15-01-2014 20:30:00 4.8 C 93 % 3.77 C
Sensor: Nr:Datum:Temp:Feuchte:Taupunkt:
Aussen-T/F 1926 15-01-2014 20:35:00 4.8 C 93 % 3.77 C
1927 15-01-2014 20:40:00 4.7 C 94 % 3.82 C
1928 15-01-2014 20:45:00 4.7 C 94 % 3.82 C
1929 15-01-2014 20:50:00 4.7 C 94 % 3.82 C
1930 15-01-2014 20:55:00 4.7 C 94 % 3.82 C
1931 15-01-2014 21:00:00 4.7 C 94 % 3.82 C
1932 15-01-2014 21:05:00 4.7 C 94 % 3.82 C
1933 15-01-2014 21:10:00 4.7 C 94 % 3.82 C
1934 15-01-2014 21:15:00 4.7 C 94 % 3.82 C
1935 15-01-2014 21:20:00 4.7 C 95 % 3.97 C
1936 15-01-2014 21:25:00 4.7 C 95 % 3.97 C
1937 15-01-2014 21:30:00 4.6 C 95 % 3.87 C
1938 15-01-2014 21:35:00 4.6 C 95 % 3.87 C
1939 15-01-2014 21:40:00 4.6 C 95 % 3.87 C
1940 15-01-2014 21:45:00 4.6 C 95 % 3.87 C
1941 15-01-2014 21:50:00 4.6 C 95 % 3.87 C
1942 15-01-2014 21:55:00 4.6 C 96 % 4.02 C
1943 15-01-2014 22:00:00 4.5 C 96 % 3.92 C
1944 15-01-2014 22:05:00 4.5 C 96 % 3.92 C
1945 15-01-2014 22:10:00 4.5 C 96 % 3.92 C
1946 15-01-2014 22:15:00 4.5 C 96 % 3.92 C
1947 15-01-2014 22:20:00 4.5 C 96 % 3.92 C
1948 15-01-2014 22:25:00 4.5 C 96 % 3.92 C
1949 15-01-2014 22:30:00 4.5 C 96 % 3.92 C
1950 15-01-2014 22:35:00 4.4 C 96 % 3.82 C
Sensor: Nr:Datum:Temp:Feuchte:Taupunkt:
Aussen-T/F 1951 15-01-2014 22:40:00 4.4 C 96 % 3.82 C
1952 15-01-2014 22:45:00 4.4 C 96 % 3.82 C
1953 15-01-2014 22:50:00 4.4 C 96 % 3.82 C
1954 15-01-2014 22:55:00 4.4 C 96 % 3.82 C
1955 15-01-2014 23:00:00 4.5 C 97 % 4.07 C
1956 15-01-2014 23:05:00 4.4 C 97 % 3.97 C
1957 15-01-2014 23:10:00 4.4 C 97 % 3.97 C
1958 15-01-2014 23:15:00 4.4 C 97 % 3.97 C
1959 15-01-2014 23:20:00 4.4 C 97 % 3.97 C
1960 15-01-2014 23:25:00 4.4 C 97 % 3.97 C
1961 15-01-2014 23:30:00 4.5 C 97 % 4.07 C
1962 15-01-2014 23:35:00 4.5 C 97 % 4.07 C
1963 15-01-2014 23:40:00 4.5 C 97 % 4.07 C
1964 15-01-2014 23:45:00 4.5 C 97 % 4.07 C
1965 15-01-2014 23:50:00 4.5 C 97 % 4.07 C
1966 15-01-2014 23:55:00 4.5 C 97 % 4.07 C
1967 16-01-2014 00:00:00 4.5 C 97 % 4.07 C
1968 16-01-2014 00:05:00 4.5 C 97 % 4.07 C
1969 16-01-2014 00:10:00 4.5 C 97 % 4.07 C
1970 16-01-2014 00:15:00 4.5 C 97 % 4.07 C
1971 16-01-2014 00:20:00 4.5 C 97 % 4.07 C
1972 16-01-2014 00:25:00 4.5 C 97 % 4.07 C
1973 16-01-2014 00:30:00 4.5 C 97 % 4.07 C
1974 16-01-2014 00:35:00 4.5 C 97 % 4.07 C
1975 16-01-2014 00:40:00 4.5 C 97 % 4.07 C
Sensor: Nr:Datum:Temp:Feuchte:Taupunkt:
Aussen-T/F 1976 16-01-2014 00:45:00 4.5 C 97 % 4.07 C
1977 16-01-2014 00:50:00 4.5 C 97 % 4.07 C
1978 16-01-2014 00:55:00 4.5 C 97 % 4.07 C
1979 16-01-2014 01:00:00 4.5 C 97 % 4.07 C
1980 16-01-2014 01:05:00 4.5 C 97 % 4.07 C
1981 16-01-2014 01:10:00 4.6 C 97 % 4.17 C
1982 16-01-2014 01:15:00 4.6 C 97 % 4.17 C
1983 16-01-2014 01:20:00 4.6 C 97 % 4.17 C
1984 16-01-2014 01:25:00 4.6 C 97 % 4.17 C
1985 16-01-2014 01:30:00 4.7 C 97 % 4.27 C
1986 16-01-2014 01:35:00 4.7 C 97 % 4.27 C
1987 16-01-2014 01:40:00 4.7 C 97 % 4.27 C
1988 16-01-2014 01:45:00 4.7 C 97 % 4.27 C
1989 16-01-2014 01:50:00 4.8 C 97 % 4.37 C
1990 16-01-2014 01:55:00 4.8 C 97 % 4.37 C
1991 16-01-2014 02:00:00 4.8 C 97 % 4.37 C
1992 16-01-2014 02:05:00 4.8 C 97 % 4.37 C
1993 16-01-2014 02:10:00 4.8 C 97 % 4.37 C
1994 16-01-2014 02:15:00 4.8 C 97 % 4.37 C
1995 16-01-2014 02:20:00 4.9 C 97 % 4.46 C
1996 16-01-2014 02:25:00 4.9 C 97 % 4.46 C
1997 16-01-2014 02:30:00 4.9 C 97 % 4.46 C
1998 16-01-2014 02:35:00 4.9 C 97 % 4.46 C
1999 16-01-2014 02:40:00 4.9 C 97 % 4.46 C
2000 16-01-2014 02:45:00 5 C 97 % 4.56 C
Sensor: Nr:Datum:Temp:Feuchte:Taupunkt:
Aussen-T/F 2001 16-01-2014 02:50:00 5 C 97 % 4.56 C
2002 16-01-2014 02:55:00 5.1 C 98 % 4.81 C
2003 16-01-2014 03:00:00 5.1 C 98 % 4.81 C
2004 16-01-2014 03:05:00 5.1 C 98 % 4.81 C
2005 16-01-2014 03:10:00 5.1 C 98 % 4.81 C
2006 16-01-2014 03:15:00 5.1 C 98 % 4.81 C
2007 16-01-2014 03:20:00 5.1 C 98 % 4.81 C
2008 16-01-2014 03:25:00 5.1 C 98 % 4.81 C
2009 16-01-2014 03:30:00 5.1 C 98 % 4.81 C
2010 16-01-2014 03:35:00 5.1 C 98 % 4.81 C
2011 16-01-2014 03:40:00 5.1 C 98 % 4.81 C
2012 16-01-2014 03:45:00 5.1 C 98 % 4.81 C
2013 16-01-2014 03:50:00 5.2 C 98 % 4.91 C
2014 16-01-2014 03:55:00 5.2 C 98 % 4.91 C
2015 16-01-2014 04:00:00 5.2 C 98 % 4.91 C
2016 16-01-2014 04:05:00 5.2 C 98 % 4.91 C
2017 16-01-2014 04:10:00 5.3 C 98 % 5.01 C
2018 16-01-2014 04:15:00 5.3 C 98 % 5.01 C
2019 16-01-2014 04:20:00 5.3 C 98 % 5.01 C
2020 16-01-2014 04:25:00 5.3 C 98 % 5.01 C
2021 16-01-2014 04:30:00 5.2 C 98 % 4.91 C
2022 16-01-2014 04:35:00 5.3 C 98 % 5.01 C
2023 16-01-2014 04:40:00 5.3 C 98 % 5.01 C
2024 16-01-2014 04:45:00 5.3 C 98 % 5.01 C
2025 16-01-2014 04:50:00 5.3 C 98 % 5.01 C
Sensor: Nr:Datum:Temp:Feuchte:Taupunkt:
Aussen-T/F 2026 16-01-2014 04:55:00 5.3 C 98 % 5.01 C
2027 16-01-2014 05:00:00 5.3 C 98 % 5.01 C
2028 16-01-2014 05:05:00 5.4 C 98 % 5.11 C
2029 16-01-2014 05:10:00 5.4 C 98 % 5.11 C
2030 16-01-2014 05:15:00 5.4 C 98 % 5.11 C
2031 16-01-2014 05:20:00 5.4 C 98 % 5.11 C
2032 16-01-2014 05:25:00 5.4 C 98 % 5.11 C
2033 16-01-2014 05:30:00 5.4 C 98 % 5.11 C
2034 16-01-2014 05:35:00 5.4 C 98 % 5.11 C
2035 16-01-2014 05:40:00 5.4 C 98 % 5.11 C
2036 16-01-2014 05:45:00 5.4 C 98 % 5.11 C
2037 16-01-2014 05:50:00 5.4 C 98 % 5.11 C
2038 16-01-2014 05:55:00 5.5 C 98 % 5.21 C
2039 16-01-2014 06:00:00 5.5 C 98 % 5.21 C
2040 16-01-2014 06:05:00 5.5 C 98 % 5.21 C
2041 16-01-2014 06:10:00 5.5 C 98 % 5.21 C
2042 16-01-2014 06:15:00 5.5 C 98 % 5.21 C
2043 16-01-2014 06:20:00 5.5 C 98 % 5.21 C
2044 16-01-2014 06:25:00 5.5 C 98 % 5.21 C
2045 16-01-2014 06:30:00 5.5 C 98 % 5.21 C
2046 16-01-2014 06:35:00 5.6 C 98 % 5.31 C
2047 16-01-2014 06:40:00 5.6 C 98 % 5.31 C
2048 16-01-2014 06:45:00 5.6 C 98 % 5.31 C
2049 16-01-2014 06:50:00 5.6 C 98 % 5.31 C
2050 16-01-2014 06:55:00 5.6 C 98 % 5.31 C
Sensor: Nr:Datum:Temp:Feuchte:Taupunkt:
Aussen-T/F 2051 16-01-2014 07:00:00 5.6 C 98 % 5.31 C
2052 16-01-2014 07:05:00 5.6 C 98 % 5.31 C
2053 16-01-2014 07:10:00 5.6 C 98 % 5.31 C
2054 16-01-2014 07:15:00 5.6 C 98 % 5.31 C
2055 16-01-2014 07:20:00 5.6 C 98 % 5.31 C
2056 16-01-2014 07:25:00 5.6 C 98 % 5.31 C
2057 16-01-2014 07:30:00 5.7 C 98 % 5.41 C
2058 16-01-2014 07:35:00 5.7 C 98 % 5.41 C
2059 16-01-2014 07:40:00 5.7 C 98 % 5.41 C
2060 16-01-2014 07:45:00 5.7 C 98 % 5.41 C
2061 16-01-2014 07:50:00 5.6 C 98 % 5.31 C
2062 16-01-2014 07:55:00 5.7 C 98 % 5.41 C
2063 16-01-2014 08:00:00 5.6 C 98 % 5.31 C
2064 16-01-2014 08:05:00 5.6 C 98 % 5.31 C
2065 16-01-2014 08:10:00 5.5 C 98 % 5.21 C
2066 16-01-2014 08:15:00 5.4 C 98 % 5.11 C
2067 16-01-2014 08:20:00 5.4 C 98 % 5.11 C
2068 16-01-2014 08:25:00 5.4 C 98 % 5.11 C
2069 16-01-2014 08:30:00 5.4 C 98 % 5.11 C
2070 16-01-2014 08:35:00 5.4 C 98 % 5.11 C
2071 16-01-2014 08:40:00 5.4 C 98 % 5.11 C
2072 16-01-2014 08:45:00 5.4 C 98 % 5.11 C
2073 16-01-2014 08:50:00 5.4 C 98 % 5.11 C
2074 16-01-2014 08:55:00 5.4 C 98 % 5.11 C
2075 16-01-2014 09:00:00 5.4 C 98 % 5.11 C
Sensor: Nr:Datum:Temp:Feuchte:Taupunkt:
Aussen-T/F 2076 16-01-2014 09:05:00 5.4 C 98 % 5.11 C
2077 16-01-2014 09:10:00 5.6 C 98 % 5.31 C
2078 16-01-2014 09:15:00 5.6 C 98 % 5.31 C
2079 16-01-2014 09:20:00 5.6 C 98 % 5.31 C
2080 16-01-2014 09:25:00 5.6 C 98 % 5.31 C
2081 16-01-2014 09:30:00 5.6 C 98 % 5.31 C
2082 16-01-2014 09:35:00 5.6 C 98 % 5.31 C
2083 16-01-2014 09:40:00 5.7 C 98 % 5.41 C
2084 16-01-2014 09:45:00 5.8 C 98 % 5.51 C
2085 16-01-2014 09:50:00 5.8 C 98 % 5.51 C
2086 16-01-2014 09:55:00 5.9 C 98 % 5.61 C
2087 16-01-2014 10:00:00 5.9 C 98 % 5.61 C
2088 16-01-2014 10:05:00 5.9 C 98 % 5.61 C
2089 16-01-2014 10:10:00 6.1 C 98 % 5.81 C
2090 16-01-2014 10:15:00 6.1 C 98 % 5.81 C
2091 16-01-2014 10:20:00 6.1 C 98 % 5.81 C
2092 16-01-2014 10:25:00 6.1 C 98 % 5.81 C
2093 16-01-2014 10:30:00 6.1 C 98 % 5.81 C
2094 16-01-2014 10:35:00 6.2 C 98 % 5.91 C
2095 16-01-2014 10:40:00 6.2 C 98 % 5.91 C
2096 16-01-2014 10:45:00 6.2 C 98 % 5.91 C
2097 16-01-2014 10:50:00 6.2 C 98 % 5.91 C
2098 16-01-2014 10:55:00 6.2 C 97 % 5.76 C
2099 16-01-2014 11:00:00 6.2 C 97 % 5.76 C
2100 16-01-2014 11:05:00 6.2 C 97 % 5.76 C
Sensor: Nr:Datum:Temp:Feuchte:Taupunkt:
Aussen-T/F 2101 16-01-2014 11:10:00 6.2 C 97 % 5.76 C
2102 16-01-2014 11:15:00 6.2 C 97 % 5.76 C
2103 16-01-2014 11:20:00 6.2 C 97 % 5.76 C
2104 16-01-2014 11:25:00 6.2 C 96 % 5.61 C
2105 16-01-2014 11:30:00 6.4 C 95 % 5.66 C
2106 16-01-2014 11:35:00 6.6 C 94 % 5.71 C
2107 16-01-2014 11:40:00 6.7 C 94 % 5.8 C
2108 16-01-2014 11:45:00 6.8 C 92 % 5.59 C
2109 16-01-2014 11:50:00 6.9 C 94 % 6 C
2110 16-01-2014 11:55:00 7 C 93 % 5.95 C
2111 16-01-2014 12:00:00 7.1 C 94 % 6.2 C
2112 16-01-2014 12:05:00 7.2 C 94 % 6.3 C
2113 16-01-2014 12:10:00 7.3 C 95 % 6.55 C
2114 16-01-2014 12:15:00 7.3 C 94 % 6.4 C
2115 16-01-2014 12:20:00 7.3 C 92 % 6.09 C
2116 16-01-2014 12:25:00 7.4 C 93 % 6.34 C
2117 16-01-2014 12:30:00 7.6 C 92 % 6.39 C
2118 16-01-2014 12:35:00 7.7 C 90 % 6.17 C
2119 16-01-2014 12:40:00 7.8 C 89 % 6.1 C
2120 16-01-2014 12:45:00 7.9 C 89 % 6.2 C
2121 16-01-2014 12:50:00 8 C 90 % 6.46 C
2122 16-01-2014 12:55:00 8 C 88 % 6.14 C
2123 16-01-2014 13:00:00 8.1 C 89 % 6.4 C
2124 16-01-2014 13:05:00 8.2 C 90 % 6.66 C
2125 16-01-2014 13:10:00 8.2 C 89 % 6.5 C
Sensor: Nr:Datum:Temp:Feuchte:Taupunkt:
Aussen-T/F 2126 16-01-2014 13:15:00 8.2 C 88 % 6.33 C
2127 16-01-2014 13:20:00 8.2 C 84 % 5.66 C
2128 16-01-2014 13:25:00 8.3 C 86 % 6.1 C
2129 16-01-2014 13:30:00 8.3 C 86 % 6.1 C
2130 16-01-2014 13:35:00 8.4 C 86 % 6.2 C
2131 16-01-2014 13:40:00 8.4 C 84 % 5.86 C
2132 16-01-2014 13:45:00 8.4 C 84 % 5.86 C
2133 16-01-2014 13:50:00 8.5 C 84 % 5.96 C
2134 16-01-2014 13:55:00 8.6 C 86 % 6.39 C
2135 16-01-2014 14:00:00 8.5 C 88 % 6.63 C
2136 16-01-2014 14:05:00 8.4 C 88 % 6.53 C
2137 16-01-2014 14:10:00 8.3 C 88 % 6.43 C
2138 16-01-2014 14:15:00 8.3 C 89 % 6.6 C
2139 16-01-2014 14:20:00 8.2 C 87 % 6.17 C
2140 16-01-2014 14:25:00 8.1 C 89 % 6.4 C
2141 16-01-2014 14:30:00 8 C 89 % 6.3 C
2142 16-01-2014 14:35:00 7.9 C 90 % 6.36 C
2143 16-01-2014 14:40:00 7.8 C 90 % 6.27 C
2144 16-01-2014 14:45:00 7.8 C 91 % 6.43 C
2145 16-01-2014 14:50:00 7.8 C 91 % 6.43 C
2146 16-01-2014 14:55:00 7.8 C 91 % 6.43 C
2147 16-01-2014 15:00:00 7.7 C 88 % 5.84 C
2148 16-01-2014 15:05:00 7.7 C 89 % 6 C
2149 16-01-2014 15:10:00 7.8 C 89 % 6.1 C
2150 16-01-2014 15:15:00 7.8 C 89 % 6.1 C
Sensor: Nr:Datum:Temp:Feuchte:Taupunkt:
Aussen-T/F 2151 16-01-2014 15:20:00 7.8 C 89 % 6.1 C
2152 16-01-2014 15:25:00 7.8 C 88 % 5.94 C
2153 16-01-2014 15:30:00 8 C 89 % 6.3 C
2154 16-01-2014 15:35:00 8.1 C 88 % 6.24 C
2155 16-01-2014 15:40:00 8.1 C 89 % 6.4 C
2156 16-01-2014 15:45:00 8.1 C 86 % 5.9 C
2157 16-01-2014 15:50:00 8.2 C 86 % 6 C
2158 16-01-2014 15:55:00 8.2 C 86 % 6 C
2159 16-01-2014 16:00:00 8.2 C 88 % 6.33 C
2160 16-01-2014 16:05:00 8.2 C 86 % 6 C
2161 16-01-2014 16:10:00 8.2 C 86 % 6 C
2162 16-01-2014 16:15:00 8.3 C 86 % 6.1 C
2163 16-01-2014 16:20:00 8.3 C 85 % 5.93 C
2164 16-01-2014 16:25:00 8.4 C 85 % 6.03 C
2165 16-01-2014 16:30:00 8.5 C 84 % 5.96 C
2166 16-01-2014 16:35:00 8.6 C 84 % 6.05 C
2167 16-01-2014 16:40:00 8.6 C 84 % 6.05 C
2168 16-01-2014 16:45:00 8.6 C 84 % 6.05 C
2169 16-01-2014 16:50:00 8.4 C 85 % 6.03 C
2170 16-01-2014 16:55:00 8.3 C 87 % 6.27 C
2171 16-01-2014 17:00:00 8.2 C 86 % 6 C
2172 16-01-2014 17:05:00 8.3 C 85 % 5.93 C
2173 16-01-2014 17:10:00 8.3 C 86 % 6.1 C
2174 16-01-2014 17:15:00 8.3 C 85 % 5.93 C
2175 16-01-2014 17:20:00 8.3 C 87 % 6.27 C
Sensor: Nr:Datum:Temp:Feuchte:Taupunkt:
Aussen-T/F 2176 16-01-2014 17:25:00 8.2 C 86 % 6 C
2177 16-01-2014 17:30:00 8.1 C 88 % 6.24 C
2178 16-01-2014 17:35:00 8.2 C 88 % 6.33 C
2179 16-01-2014 17:40:00 8.1 C 87 % 6.07 C
2180 16-01-2014 17:45:00 8.1 C 88 % 6.24 C
2181 16-01-2014 17:50:00 8.1 C 89 % 6.4 C
2182 16-01-2014 17:55:00 8.1 C 88 % 6.24 C
2183 16-01-2014 18:00:00 7.9 C 88 % 6.04 C
2184 16-01-2014 18:05:00 7.8 C 89 % 6.1 C
2185 16-01-2014 18:10:00 7.9 C 89 % 6.2 C
2186 16-01-2014 18:15:00 7.8 C 89 % 6.1 C
2187 16-01-2014 18:20:00 7.9 C 89 % 6.2 C
2188 16-01-2014 18:25:00 7.9 C 89 % 6.2 C
2189 16-01-2014 18:30:00 8 C 88 % 6.14 C
2190 16-01-2014 18:35:00 8 C 88 % 6.14 C
2191 16-01-2014 18:40:00 8.3 C 87 % 6.27 C
2192 16-01-2014 18:45:00 8.5 C 86 % 6.3 C
2193 16-01-2014 18:50:00 8.6 C 85 % 6.23 C
2194 16-01-2014 18:55:00 8.7 C 85 % 6.32 C
2195 16-01-2014 19:00:00 8.7 C 84 % 6.15 C
2196 16-01-2014 19:05:00 8.7 C 85 % 6.32 C
2197 16-01-2014 19:10:00 8.8 C 84 % 6.25 C
2198 16-01-2014 19:15:00 8.7 C 85 % 6.32 C
2199 16-01-2014 19:20:00 8.7 C 85 % 6.32 C
2200 16-01-2014 19:25:00 8.7 C 85 % 6.32 C
Sensor: Nr:Datum:Temp:Feuchte:Taupunkt:
Aussen-T/F 2201 16-01-2014 19:30:00 8.7 C 85 % 6.32 C
2202 16-01-2014 19:35:00 8.7 C 85 % 6.32 C
2203 16-01-2014 19:40:00 8.7 C 85 % 6.32 C
2204 16-01-2014 19:45:00 8.7 C 85 % 6.32 C
2205 16-01-2014 19:50:00 8.7 C 86 % 6.49 C
2206 16-01-2014 19:55:00 8.6 C 86 % 6.39 C
2207 16-01-2014 20:00:00 8.5 C 86 % 6.3 C
2208 16-01-2014 20:05:00 8.3 C 87 % 6.27 C
2209 16-01-2014 20:10:00 7.9 C 87 % 5.87 C
2210 16-01-2014 20:15:00 7.8 C 89 % 6.1 C
2211 16-01-2014 20:20:00 7.7 C 89 % 6 C
2212 16-01-2014 20:25:00 7.4 C 90 % 5.87 C
2213 16-01-2014 20:30:00 7.3 C 91 % 5.93 C
2214 16-01-2014 20:35:00 7.2 C 91 % 5.83 C
2215 16-01-2014 20:40:00 7.1 C 92 % 5.89 C
2216 16-01-2014 20:45:00 7.1 C 92 % 5.89 C
2217 16-01-2014 20:50:00 7.1 C 93 % 6.05 C
2218 16-01-2014 20:55:00 7.1 C 93 % 6.05 C
2219 16-01-2014 21:00:00 7.2 C 93 % 6.15 C
2220 16-01-2014 21:05:00 7.2 C 92 % 5.99 C
2221 16-01-2014 21:10:00 7.1 C 92 % 5.89 C
2222 16-01-2014 21:15:00 7.1 C 92 % 5.89 C
2223 16-01-2014 21:20:00 6.9 C 92 % 5.69 C
2224 16-01-2014 21:25:00 7 C 93 % 5.95 C
2225 16-01-2014 21:30:00 7 C 93 % 5.95 C
Sensor: Nr:Datum:Temp:Feuchte:Taupunkt:
Aussen-T/F 2226 16-01-2014 21:35:00 7 C 93 % 5.95 C
2227 16-01-2014 21:40:00 7 C 93 % 5.95 C
2228 16-01-2014 21:45:00 6.9 C 93 % 5.85 C
2229 16-01-2014 21:50:00 6.9 C 93 % 5.85 C
2230 16-01-2014 21:55:00 6.9 C 93 % 5.85 C
2231 16-01-2014 22:00:00 6.9 C 93 % 5.85 C
2232 16-01-2014 22:05:00 6.9 C 93 % 5.85 C
2233 16-01-2014 22:10:00 6.9 C 93 % 5.85 C
2234 16-01-2014 22:15:00 6.9 C 94 % 6 C
2235 16-01-2014 22:20:00 6.9 C 93 % 5.85 C
2236 16-01-2014 22:25:00 6.9 C 93 % 5.85 C
2237 16-01-2014 22:30:00 6.8 C 93 % 5.75 C
2238 16-01-2014 22:35:00 6.7 C 93 % 5.65 C
2239 16-01-2014 22:40:00 6.7 C 93 % 5.65 C
2240 16-01-2014 22:45:00 6.7 C 93 % 5.65 C
2241 16-01-2014 22:50:00 6.6 C 93 % 5.55 C
2242 16-01-2014 22:55:00 6.6 C 92 % 5.4 C
2243 16-01-2014 23:00:00 6.4 C 92 % 5.2 C
2244 16-01-2014 23:05:00 6.3 C 92 % 5.1 C
2245 16-01-2014 23:10:00 6.1 C 93 % 5.06 C
2246 16-01-2014 23:15:00 5.8 C 92 % 4.6 C
2247 16-01-2014 23:20:00 5.7 C 93 % 4.66 C
2248 16-01-2014 23:25:00 5.6 C 94 % 4.71 C
2249 16-01-2014 23:30:00 5.4 C 94 % 4.51 C
2250 16-01-2014 23:35:00 5.3 C 94 % 4.41 C
Sensor: Nr:Datum:Temp:Feuchte:Taupunkt:
Aussen-T/F 2251 16-01-2014 23:40:00 5.3 C 94 % 4.41 C
2252 16-01-2014 23:45:00 5.2 C 95 % 4.47 C
2253 16-01-2014 23:50:00 5.1 C 94 % 4.22 C
2254 16-01-2014 23:55:00 5.1 C 95 % 4.37 C
2255 17-01-2014 00:00:00 5.1 C 95 % 4.37 C
2256 17-01-2014 00:05:00 5.1 C 95 % 4.37 C
2257 17-01-2014 00:10:00 5.2 C 95 % 4.47 C
2258 17-01-2014 00:15:00 5.3 C 96 % 4.72 C
2259 17-01-2014 00:20:00 5.4 C 96 % 4.81 C
2260 17-01-2014 00:25:00 5.7 C 96 % 5.11 C
2261 17-01-2014 00:30:00 5.8 C 96 % 5.21 C
2262 17-01-2014 00:35:00 6.1 C 96 % 5.51 C
2263 17-01-2014 00:40:00 6.3 C 95 % 5.56 C
2264 17-01-2014 00:45:00 6.4 C 94 % 5.51 C
2265 17-01-2014 00:50:00 6.4 C 94 % 5.51 C
2266 17-01-2014 00:55:00 6.4 C 94 % 5.51 C
2267 17-01-2014 01:00:00 6.4 C 94 % 5.51 C
2268 17-01-2014 01:05:00 6.4 C 94 % 5.51 C
2269 17-01-2014 01:10:00 6.4 C 94 % 5.51 C
2270 17-01-2014 01:15:00 6.4 C 94 % 5.51 C
2271 17-01-2014 01:20:00 6.6 C 94 % 5.71 C
2272 17-01-2014 01:25:00 6.6 C 93 % 5.55 C
2273 17-01-2014 01:30:00 6.7 C 93 % 5.65 C
2274 17-01-2014 01:35:00 6.7 C 93 % 5.65 C
2275 17-01-2014 01:40:00 6.7 C 93 % 5.65 C
Sensor: Nr:Datum:Temp:Feuchte:Taupunkt:
Aussen-T/F 2276 17-01-2014 01:45:00 6.7 C 93 % 5.65 C
2277 17-01-2014 01:50:00 6.7 C 93 % 5.65 C
2278 17-01-2014 01:55:00 6.8 C 93 % 5.75 C
2279 17-01-2014 02:00:00 6.8 C 92 % 5.59 C
2280 17-01-2014 02:05:00 6.9 C 92 % 5.69 C
2281 17-01-2014 02:10:00 6.9 C 92 % 5.69 C
2282 17-01-2014 02:15:00 6.9 C 92 % 5.69 C
2283 17-01-2014 02:20:00 6.9 C 92 % 5.69 C
2284 17-01-2014 02:25:00 6.9 C 92 % 5.69 C
2285 17-01-2014 02:30:00 6.9 C 92 % 5.69 C
2286 17-01-2014 02:35:00 6.9 C 92 % 5.69 C
2287 17-01-2014 02:40:00 6.9 C 93 % 5.85 C
2288 17-01-2014 02:45:00 6.9 C 93 % 5.85 C
2289 17-01-2014 02:50:00 6.8 C 93 % 5.75 C
2290 17-01-2014 02:55:00 6.8 C 93 % 5.75 C
2291 17-01-2014 03:00:00 6.8 C 93 % 5.75 C
2292 17-01-2014 03:05:00 6.8 C 94 % 5.9 C
2293 17-01-2014 03:10:00 6.8 C 94 % 5.9 C
2294 17-01-2014 03:15:00 6.8 C 94 % 5.9 C
2295 17-01-2014 03:20:00 6.8 C 94 % 5.9 C
2296 17-01-2014 03:25:00 6.8 C 94 % 5.9 C
2297 17-01-2014 03:30:00 6.8 C 94 % 5.9 C
2298 17-01-2014 03:35:00 6.8 C 95 % 6.06 C
2299 17-01-2014 03:40:00 6.8 C 95 % 6.06 C
2300 17-01-2014 03:45:00 6.8 C 95 % 6.06 C
Sensor: Nr:Datum:Temp:Feuchte:Taupunkt:
Aussen-T/F 2301 17-01-2014 03:50:00 6.8 C 95 % 6.06 C
2302 17-01-2014 03:55:00 6.8 C 96 % 6.21 C
2303 17-01-2014 04:00:00 6.8 C 96 % 6.21 C
2304 17-01-2014 04:05:00 6.8 C 96 % 6.21 C
2305 17-01-2014 04:10:00 6.8 C 96 % 6.21 C
2306 17-01-2014 04:15:00 6.7 C 96 % 6.11 C
2307 17-01-2014 04:20:00 6.7 C 96 % 6.11 C
2308 17-01-2014 04:25:00 6.7 C 96 % 6.11 C
2309 17-01-2014 04:30:00 6.7 C 96 % 6.11 C
2310 17-01-2014 04:35:00 6.7 C 96 % 6.11 C
2311 17-01-2014 04:40:00 6.7 C 97 % 6.26 C
2312 17-01-2014 04:45:00 6.7 C 97 % 6.26 C
2313 17-01-2014 04:50:00 6.7 C 97 % 6.26 C
2314 17-01-2014 04:55:00 6.7 C 96 % 6.11 C
2315 17-01-2014 05:00:00 6.7 C 96 % 6.11 C
2316 17-01-2014 05:05:00 6.7 C 97 % 6.26 C
2317 17-01-2014 05:10:00 6.7 C 97 % 6.26 C
2318 17-01-2014 05:15:00 6.7 C 97 % 6.26 C
2319 17-01-2014 05:20:00 6.7 C 97 % 6.26 C
2320 17-01-2014 05:25:00 6.6 C 97 % 6.16 C
2321 17-01-2014 05:30:00 6.4 C 97 % 5.96 C
2322 17-01-2014 05:35:00 6.3 C 97 % 5.86 C
2323 17-01-2014 05:40:00 6.3 C 97 % 5.86 C
2324 17-01-2014 05:45:00 6.3 C 97 % 5.86 C
2325 17-01-2014 05:50:00 6.4 C 97 % 5.96 C
Sensor: Nr:Datum:Temp:Feuchte:Taupunkt:
Aussen-T/F 2326 17-01-2014 05:55:00 6.4 C 97 % 5.96 C
2327 17-01-2014 06:00:00 6.4 C 97 % 5.96 C
2328 17-01-2014 06:05:00 6.4 C 97 % 5.96 C
2329 17-01-2014 06:10:00 6.4 C 97 % 5.96 C
2330 17-01-2014 06:15:00 6.4 C 97 % 5.96 C
2331 17-01-2014 06:20:00 6.5 C 97 % 6.06 C
2332 17-01-2014 06:25:00 6.5 C 97 % 6.06 C
2333 17-01-2014 06:30:00 6.4 C 97 % 5.96 C
2334 17-01-2014 06:35:00 6.4 C 97 % 5.96 C
2335 17-01-2014 06:40:00 6.4 C 97 % 5.96 C
2336 17-01-2014 06:45:00 6.4 C 97 % 5.96 C
2337 17-01-2014 06:50:00 6.4 C 97 % 5.96 C
2338 17-01-2014 06:55:00 6.4 C 97 % 5.96 C
2339 17-01-2014 07:00:00 6.4 C 97 % 5.96 C
2340 17-01-2014 07:05:00 6.4 C 97 % 5.96 C
2341 17-01-2014 07:10:00 6.4 C 97 % 5.96 C
2342 17-01-2014 07:15:00 6.3 C 97 % 5.86 C
2343 17-01-2014 07:20:00 6.3 C 97 % 5.86 C
2344 17-01-2014 07:25:00 6.2 C 97 % 5.76 C
2345 17-01-2014 07:30:00 5.9 C 96 % 5.31 C
2346 17-01-2014 07:35:00 5.8 C 96 % 5.21 C
2347 17-01-2014 07:40:00 5.8 C 97 % 5.36 C
2348 17-01-2014 07:45:00 5.9 C 97 % 5.46 C
2349 17-01-2014 07:50:00 5.9 C 97 % 5.46 C
2350 17-01-2014 07:55:00 5.9 C 97 % 5.46 C
Sensor: Nr:Datum:Temp:Feuchte:Taupunkt:
Aussen-T/F 2351 17-01-2014 08:00:00 5.9 C 97 % 5.46 C
2352 17-01-2014 08:05:00 5.8 C 97 % 5.36 C
2353 17-01-2014 08:10:00 5.6 C 97 % 5.16 C
2354 17-01-2014 08:15:00 5.4 C 97 % 4.96 C
2355 17-01-2014 08:20:00 5.4 C 97 % 4.96 C
2356 17-01-2014 08:25:00 5.3 C 97 % 4.86 C
2357 17-01-2014 08:30:00 5.4 C 97 % 4.96 C
2358 17-01-2014 08:35:00 5.3 C 97 % 4.86 C
2359 17-01-2014 08:40:00 5.4 C 97 % 4.96 C
2360 17-01-2014 08:45:00 5.4 C 97 % 4.96 C
2361 17-01-2014 08:50:00 5.4 C 97 % 4.96 C
2362 17-01-2014 08:55:00 5.5 C 97 % 5.06 C
2363 17-01-2014 09:00:00 5.6 C 97 % 5.16 C
2364 17-01-2014 09:05:00 5.7 C 97 % 5.26 C
2365 17-01-2014 09:10:00 5.8 C 97 % 5.36 C
2366 17-01-2014 09:15:00 5.9 C 97 % 5.46 C
2367 17-01-2014 09:20:00 5.9 C 97 % 5.46 C
2368 17-01-2014 09:25:00 6.1 C 97 % 5.66 C
2369 17-01-2014 09:30:00 6.2 C 97 % 5.76 C
2370 17-01-2014 09:35:00 6.3 C 98 % 6.01 C
2371 17-01-2014 09:40:00 6.3 C 97 % 5.86 C
2372 17-01-2014 09:45:00 6.3 C 97 % 5.86 C
2373 17-01-2014 09:50:00 6.1 C 97 % 5.66 C
2374 17-01-2014 09:55:00 5.9 C 96 % 5.31 C
2375 17-01-2014 10:00:00 5.9 C 96 % 5.31 C
Sensor: Nr:Datum:Temp:Feuchte:Taupunkt:
Aussen-T/F 2376 17-01-2014 10:05:00 5.9 C 97 % 5.46 C
2377 17-01-2014 10:10:00 6.1 C 97 % 5.66 C
2378 17-01-2014 10:15:00 6.3 C 97 % 5.86 C
2379 17-01-2014 10:20:00 6.4 C 97 % 5.96 C
2380 17-01-2014 10:25:00 6.6 C 97 % 6.16 C
2381 17-01-2014 10:30:00 6.7 C 97 % 6.26 C
2382 17-01-2014 10:35:00 6.8 C 97 % 6.36 C
2383 17-01-2014 10:40:00 6.9 C 96 % 6.31 C
2384 17-01-2014 10:45:00 7.2 C 96 % 6.61 C
2385 17-01-2014 10:50:00 7.3 C 95 % 6.55 C
2386 17-01-2014 10:55:00 7.4 C 95 % 6.65 C
2387 17-01-2014 11:00:00 7.4 C 95 % 6.65 C
2388 17-01-2014 11:05:00 7.5 C 95 % 6.75 C
2389 17-01-2014 11:10:00 7.7 C 92 % 6.48 C
2390 17-01-2014 11:15:00 7.9 C 92 % 6.68 C
2391 17-01-2014 11:20:00 8.1 C 90 % 6.56 C
2392 17-01-2014 11:25:00 8.2 C 91 % 6.82 C
2393 17-01-2014 11:30:00 8.3 C 91 % 6.92 C
2394 17-01-2014 11:35:00 8.3 C 90 % 6.76 C
2395 17-01-2014 11:40:00 8.3 C 90 % 6.76 C
2396 17-01-2014 11:45:00 8.4 C 92 % 7.18 C
2397 17-01-2014 11:50:00 8.4 C 92 % 7.18 C
2398 17-01-2014 11:55:00 8.4 C 91 % 7.02 C
2399 17-01-2014 12:00:00 8.6 C 90 % 7.06 C
2400 17-01-2014 12:05:00 8.7 C 89 % 6.99 C
Sensor: Nr:Datum:Temp:Feuchte:Taupunkt:
Aussen-T/F 2401 17-01-2014 12:10:00 8.8 C 89 % 7.09 C
2402 17-01-2014 12:15:00 9 C 86 % 6.79 C
2403 17-01-2014 12:20:00 9.1 C 85 % 6.72 C
2404 17-01-2014 12:25:00 9.2 C 86 % 6.98 C
2405 17-01-2014 12:30:00 9.3 C 86 % 7.08 C
2406 17-01-2014 12:35:00 9.3 C 84 % 6.74 C
2407 17-01-2014 12:40:00 9.4 C 84 % 6.84 C
2408 17-01-2014 12:45:00 9.5 C 83 % 6.76 C
2409 17-01-2014 12:50:00 9.6 C 82 % 6.68 C
2410 17-01-2014 12:55:00 9.7 C 82 % 6.78 C
2411 17-01-2014 13:00:00 9.7 C 81 % 6.6 C
2412 17-01-2014 13:05:00 9.7 C 82 % 6.78 C
2413 17-01-2014 13:10:00 9.8 C 82 % 6.88 C
2414 17-01-2014 13:15:00 9.8 C 83 % 7.05 C
2415 17-01-2014 13:20:00 9.9 C 82 % 6.98 C
2416 17-01-2014 13:25:00 9.9 C 83 % 7.15 C
2417 17-01-2014 13:30:00 10 C 81 % 6.89 C
2418 17-01-2014 13:35:00 10 C 82 % 7.07 C
2419 17-01-2014 13:40:00 10.1 C 83 % 7.35 C
2420 17-01-2014 13:45:00 10.1 C 86 % 7.87 C
2421 17-01-2014 13:50:00 10.1 C 85 % 7.7 C
2422 17-01-2014 13:55:00 10.1 C 85 % 7.7 C
2423 17-01-2014 14:00:00 10.1 C 83 % 7.35 C
2424 17-01-2014 14:05:00 10.1 C 86 % 7.87 C
2425 17-01-2014 14:10:00 10.1 C 82 % 7.17 C
Sensor: Nr:Datum:Temp:Feuchte:Taupunkt:
Aussen-T/F 2426 17-01-2014 14:15:00 10.1 C 82 % 7.17 C
2427 17-01-2014 14:20:00 10.1 C 86 % 7.87 C
2428 17-01-2014 14:25:00 10.1 C 85 % 7.7 C
2429 17-01-2014 14:30:00 10.1 C 87 % 8.04 C
2430 17-01-2014 14:35:00 10 C 86 % 7.77 C
2431 17-01-2014 14:40:00 10 C 83 % 7.25 C
2432 17-01-2014 14:45:00 9.9 C 84 % 7.33 C
2433 17-01-2014 14:50:00 9.9 C 86 % 7.67 C
2434 17-01-2014 14:55:00 9.8 C 83 % 7.05 C
2435 17-01-2014 15:00:00 9.8 C 84 % 7.23 C
2436 17-01-2014 15:05:00 9.7 C 88 % 7.81 C
2437 17-01-2014 15:10:00 9.4 C 88 % 7.52 C
2438 17-01-2014 15:15:00 9.2 C 89 % 7.48 C
2439 17-01-2014 15:20:00 9.1 C 90 % 7.55 C
2440 17-01-2014 15:25:00 9.1 C 91 % 7.71 C
2441 17-01-2014 15:30:00 9.1 C 91 % 7.71 C
2442 17-01-2014 15:35:00 9.2 C 91 % 7.81 C
2443 17-01-2014 15:40:00 9.2 C 91 % 7.81 C
2444 17-01-2014 15:45:00 9.2 C 90 % 7.65 C
2445 17-01-2014 15:50:00 9.2 C 90 % 7.65 C
2446 17-01-2014 15:55:00 9.2 C 89 % 7.48 C
2447 17-01-2014 16:00:00 9.2 C 89 % 7.48 C
2448 17-01-2014 16:05:00 9 C 88 % 7.12 C
2449 17-01-2014 16:10:00 8.9 C 88 % 7.02 C
2450 17-01-2014 16:15:00 8.8 C 89 % 7.09 C
Sensor: Nr:Datum:Temp:Feuchte:Taupunkt:
Aussen-T/F 2451 17-01-2014 16:20:00 8.7 C 89 % 6.99 C
2452 17-01-2014 16:25:00 8.6 C 87 % 6.56 C
2453 17-01-2014 16:30:00 8.6 C 88 % 6.73 C
2454 17-01-2014 16:35:00 8.4 C 87 % 6.37 C
2455 17-01-2014 16:40:00 8.3 C 88 % 6.43 C
2456 17-01-2014 16:45:00 8.1 C 88 % 6.24 C
2457 17-01-2014 16:50:00 7.9 C 88 % 6.04 C
2458 17-01-2014 16:55:00 7.7 C 89 % 6 C
2459 17-01-2014 17:00:00 7.4 C 89 % 5.71 C
2460 17-01-2014 17:05:00 7.3 C 89 % 5.61 C
2461 17-01-2014 17:10:00 7.1 C 89 % 5.41 C
2462 17-01-2014 17:15:00 6.9 C 90 % 5.38 C
2463 17-01-2014 17:20:00 6.8 C 90 % 5.28 C
2464 17-01-2014 17:25:00 6.7 C 90 % 5.18 C
2465 17-01-2014 17:30:00 6.5 C 91 % 5.14 C
2466 17-01-2014 17:35:00 6.4 C 91 % 5.04 C
2467 17-01-2014 17:40:00 6.3 C 92 % 5.1 C
2468 17-01-2014 17:45:00 6.2 C 92 % 5 C
2469 17-01-2014 17:50:00 6.3 C 93 % 5.25 C
2470 17-01-2014 17:55:00 6.3 C 93 % 5.25 C
2471 17-01-2014 18:00:00 6.4 C 93 % 5.35 C
2472 17-01-2014 18:05:00 6.4 C 93 % 5.35 C
2473 17-01-2014 18:10:00 6.3 C 93 % 5.25 C
2474 17-01-2014 18:15:00 6.2 C 93 % 5.15 C
2475 17-01-2014 18:20:00 6.1 C 93 % 5.06 C
Sensor: Nr:Datum:Temp:Feuchte:Taupunkt:
Aussen-T/F 2476 17-01-2014 18:25:00 6 C 93 % 4.96 C
2477 17-01-2014 18:30:00 5.9 C 93 % 4.86 C
2478 17-01-2014 18:35:00 5.9 C 93 % 4.86 C
2479 17-01-2014 18:40:00 5.8 C 93 % 4.76 C
2480 17-01-2014 18:45:00 5.8 C 93 % 4.76 C
2481 17-01-2014 18:50:00 5.7 C 93 % 4.66 C
2482 17-01-2014 18:55:00 5.7 C 93 % 4.66 C
2483 17-01-2014 19:00:00 5.7 C 94 % 4.81 C
2484 17-01-2014 19:05:00 5.7 C 94 % 4.81 C
2485 17-01-2014 19:10:00 5.6 C 94 % 4.71 C
2486 17-01-2014 19:15:00 5.6 C 94 % 4.71 C
2487 17-01-2014 19:20:00 5.6 C 94 % 4.71 C
2488 17-01-2014 19:25:00 5.6 C 94 % 4.71 C
2489 17-01-2014 19:30:00 5.6 C 93 % 4.56 C
2490 17-01-2014 19:35:00 5.6 C 93 % 4.56 C
2491 17-01-2014 19:40:00 5.6 C 93 % 4.56 C
2492 17-01-2014 19:45:00 5.4 C 93 % 4.36 C
2493 17-01-2014 19:50:00 5.4 C 93 % 4.36 C
2494 17-01-2014 19:55:00 5.3 C 94 % 4.41 C
2495 17-01-2014 20:00:00 5.3 C 94 % 4.41 C
2496 17-01-2014 20:05:00 5.3 C 94 % 4.41 C
2497 17-01-2014 20:10:00 5.3 C 94 % 4.41 C
2498 17-01-2014 20:15:00 5.2 C 93 % 4.16 C
2499 17-01-2014 20:20:00 5.2 C 94 % 4.32 C
2500 17-01-2014 20:25:00 5.2 C 94 % 4.32 C
Sensor: Nr:Datum:Temp:Feuchte:Taupunkt:
Aussen-T/F 2501 17-01-2014 20:30:00 5.2 C 93 % 4.16 C
2502 17-01-2014 20:35:00 5.2 C 93 % 4.16 C
2503 17-01-2014 20:40:00 5.2 C 93 % 4.16 C
2504 17-01-2014 20:45:00 5.2 C 93 % 4.16 C
2505 17-01-2014 20:50:00 5.2 C 93 % 4.16 C
2506 17-01-2014 20:55:00 5.1 C 93 % 4.06 C
2507 17-01-2014 21:00:00 5 C 93 % 3.96 C
2508 17-01-2014 21:05:00 4.9 C 93 % 3.87 C
2509 17-01-2014 21:10:00 4.9 C 93 % 3.87 C
2510 17-01-2014 21:15:00 4.9 C 93 % 3.87 C
2511 17-01-2014 21:20:00 4.9 C 94 % 4.02 C
2512 17-01-2014 21:25:00 5 C 94 % 4.12 C
2513 17-01-2014 21:30:00 4.9 C 93 % 3.87 C
2514 17-01-2014 21:35:00 4.9 C 93 % 3.87 C
2515 17-01-2014 21:40:00 4.8 C 93 % 3.77 C
2516 17-01-2014 21:45:00 4.8 C 93 % 3.77 C
2517 17-01-2014 21:50:00 4.7 C 94 % 3.82 C
2518 17-01-2014 21:55:00 4.6 C 94 % 3.72 C
2519 17-01-2014 22:00:00 4.7 C 94 % 3.82 C
2520 17-01-2014 22:05:00 4.6 C 94 % 3.72 C
2521 17-01-2014 22:10:00 4.6 C 94 % 3.72 C
2522 17-01-2014 22:15:00 4.7 C 94 % 3.82 C
2523 17-01-2014 22:20:00 4.7 C 94 % 3.82 C
2524 17-01-2014 22:25:00 4.6 C 94 % 3.72 C
2525 17-01-2014 22:30:00 4.6 C 94 % 3.72 C
Sensor: Nr:Datum:Temp:Feuchte:Taupunkt:
Aussen-T/F 2526 17-01-2014 22:35:00 4.6 C 94 % 3.72 C
2527 17-01-2014 22:40:00 4.4 C 94 % 3.52 C
2528 17-01-2014 22:45:00 4.4 C 94 % 3.52 C
2529 17-01-2014 22:50:00 4.3 C 94 % 3.42 C
2530 17-01-2014 22:55:00 4.3 C 94 % 3.42 C
2531 17-01-2014 23:00:00 4.3 C 94 % 3.42 C
2532 17-01-2014 23:05:00 4.3 C 94 % 3.42 C
2533 17-01-2014 23:10:00 4.3 C 94 % 3.42 C
2534 17-01-2014 23:15:00 4.3 C 94 % 3.42 C
2535 17-01-2014 23:20:00 4.2 C 94 % 3.32 C
2536 17-01-2014 23:25:00 4.2 C 94 % 3.32 C
2537 17-01-2014 23:30:00 4.2 C 95 % 3.47 C
2538 17-01-2014 23:35:00 4.2 C 95 % 3.47 C
2539 17-01-2014 23:40:00 4.2 C 95 % 3.47 C
2540 17-01-2014 23:45:00 4.1 C 94 % 3.22 C
2541 17-01-2014 23:50:00 4.1 C 94 % 3.22 C
2542 17-01-2014 23:55:00 4 C 95 % 3.27 C
2543 18-01-2014 00:00:00 4 C 95 % 3.27 C
2544 18-01-2014 00:05:00 3.9 C 95 % 3.17 C
2545 18-01-2014 00:10:00 3.8 C 94 % 2.93 C
2546 18-01-2014 00:15:00 3.8 C 94 % 2.93 C
2547 18-01-2014 00:20:00 3.8 C 95 % 3.07 C
2548 18-01-2014 00:25:00 3.8 C 95 % 3.07 C
2549 18-01-2014 00:30:00 3.8 C 95 % 3.07 C
2550 18-01-2014 00:35:00 3.7 C 94 % 2.83 C
Sensor: Nr:Datum:Temp:Feuchte:Taupunkt:
Aussen-T/F 2551 18-01-2014 00:40:00 3.7 C 95 % 2.98 C
2552 18-01-2014 00:45:00 3.7 C 95 % 2.98 C
2553 18-01-2014 00:50:00 3.6 C 95 % 2.88 C
2554 18-01-2014 00:55:00 3.7 C 95 % 2.98 C
2555 18-01-2014 01:00:00 3.7 C 95 % 2.98 C
2556 18-01-2014 01:05:00 3.8 C 95 % 3.07 C
2557 18-01-2014 01:10:00 3.7 C 95 % 2.98 C
2558 18-01-2014 01:15:00 3.6 C 95 % 2.88 C
2559 18-01-2014 01:20:00 3.6 C 95 % 2.88 C
2560 18-01-2014 01:25:00 3.6 C 95 % 2.88 C
2561 18-01-2014 01:30:00 3.5 C 95 % 2.78 C
2562 18-01-2014 01:35:00 3.4 C 95 % 2.68 C
2563 18-01-2014 01:40:00 3.4 C 95 % 2.68 C
2564 18-01-2014 01:45:00 3.4 C 95 % 2.68 C
2565 18-01-2014 01:50:00 3.3 C 95 % 2.58 C
2566 18-01-2014 01:55:00 3.3 C 95 % 2.58 C
2567 18-01-2014 02:00:00 3.3 C 95 % 2.58 C
2568 18-01-2014 02:05:00 3.3 C 95 % 2.58 C
2569 18-01-2014 02:10:00 3.2 C 95 % 2.48 C
2570 18-01-2014 02:15:00 3.1 C 95 % 2.38 C
2571 18-01-2014 02:20:00 3.1 C 95 % 2.38 C
2572 18-01-2014 02:25:00 3 C 95 % 2.28 C
2573 18-01-2014 02:30:00 3 C 95 % 2.28 C
2574 18-01-2014 02:35:00 2.9 C 95 % 2.18 C
2575 18-01-2014 02:40:00 2.9 C 95 % 2.18 C
Sensor: Nr:Datum:Temp:Feuchte:Taupunkt:
Aussen-T/F 2576 18-01-2014 02:45:00 2.8 C 95 % 2.08 C
2577 18-01-2014 02:50:00 2.8 C 95 % 2.08 C
2578 18-01-2014 02:55:00 2.7 C 95 % 1.98 C
2579 18-01-2014 03:00:00 2.7 C 95 % 1.98 C
2580 18-01-2014 03:05:00 2.7 C 96 % 2.13 C
2581 18-01-2014 03:10:00 2.7 C 96 % 2.13 C
2582 18-01-2014 03:15:00 2.7 C 96 % 2.13 C
2583 18-01-2014 03:20:00 2.8 C 96 % 2.23 C
2584 18-01-2014 03:25:00 2.8 C 96 % 2.23 C
2585 18-01-2014 03:30:00 2.9 C 96 % 2.33 C
2586 18-01-2014 03:35:00 2.9 C 96 % 2.33 C
2587 18-01-2014 03:40:00 2.9 C 96 % 2.33 C
2588 18-01-2014 03:45:00 3 C 96 % 2.43 C
2589 18-01-2014 03:50:00 2.9 C 96 % 2.33 C
2590 18-01-2014 03:55:00 2.9 C 96 % 2.33 C
2591 18-01-2014 04:00:00 2.8 C 96 % 2.23 C
2592 18-01-2014 04:05:00 2.8 C 96 % 2.23 C
2593 18-01-2014 04:10:00 2.8 C 96 % 2.23 C
2594 18-01-2014 04:15:00 2.7 C 96 % 2.13 C
2595 18-01-2014 04:20:00 2.7 C 96 % 2.13 C
2596 18-01-2014 04:25:00 2.6 C 96 % 2.03 C
2597 18-01-2014 04:30:00 2.7 C 96 % 2.13 C
2598 18-01-2014 04:35:00 2.6 C 96 % 2.03 C
2599 18-01-2014 04:40:00 2.5 C 96 % 1.93 C
2600 18-01-2014 04:45:00 2.4 C 96 % 1.83 C
Sensor: Nr:Datum:Temp:Feuchte:Taupunkt:
Aussen-T/F 2601 18-01-2014 04:50:00 2.4 C 96 % 1.83 C
2602 18-01-2014 04:55:00 2.3 C 96 % 1.73 C
2603 18-01-2014 05:00:00 2.2 C 95 % 1.48 C
2604 18-01-2014 05:05:00 2.1 C 96 % 1.53 C
2605 18-01-2014 05:10:00 2 C 96 % 1.43 C
2606 18-01-2014 05:15:00 1.9 C 96 % 1.33 C
2607 18-01-2014 05:20:00 1.9 C 96 % 1.33 C
2608 18-01-2014 05:25:00 1.8 C 96 % 1.23 C
2609 18-01-2014 05:30:00 1.8 C 96 % 1.23 C
2610 18-01-2014 05:35:00 1.9 C 96 % 1.33 C
2611 18-01-2014 05:40:00 1.9 C 96 % 1.33 C
2612 18-01-2014 05:45:00 1.8 C 96 % 1.23 C
2613 18-01-2014 05:50:00 1.8 C 96 % 1.23 C
2614 18-01-2014 05:55:00 1.8 C 96 % 1.23 C
2615 18-01-2014 06:00:00 1.8 C 96 % 1.23 C
2616 18-01-2014 06:05:00 1.8 C 97 % 1.38 C
2617 18-01-2014 06:10:00 1.8 C 97 % 1.38 C
2618 18-01-2014 06:15:00 1.8 C 97 % 1.38 C
2619 18-01-2014 06:20:00 1.8 C 97 % 1.38 C
2620 18-01-2014 06:25:00 1.8 C 97 % 1.38 C
2621 18-01-2014 06:30:00 1.8 C 96 % 1.23 C
2622 18-01-2014 06:35:00 1.8 C 97 % 1.38 C
2623 18-01-2014 06:40:00 1.8 C 97 % 1.38 C
2624 18-01-2014 06:45:00 2 C 97 % 1.58 C
2625 18-01-2014 06:50:00 2.4 C 97 % 1.97 C
Sensor: Nr:Datum:Temp:Feuchte:Taupunkt:
Aussen-T/F 2626 18-01-2014 06:55:00 2.6 C 97 % 2.17 C
2627 18-01-2014 07:00:00 2.7 C 97 % 2.27 C
2628 18-01-2014 07:05:00 2.8 C 97 % 2.37 C
2629 18-01-2014 07:10:00 2.8 C 97 % 2.37 C
2630 18-01-2014 07:15:00 2.8 C 97 % 2.37 C
2631 18-01-2014 07:20:00 2.7 C 96 % 2.13 C
2632 18-01-2014 07:25:00 2.6 C 96 % 2.03 C
2633 18-01-2014 07:30:00 2.5 C 96 % 1.93 C
2634 18-01-2014 07:35:00 2.5 C 96 % 1.93 C
2635 18-01-2014 07:40:00 2.6 C 97 % 2.17 C
2636 18-01-2014 07:45:00 2.6 C 96 % 2.03 C
2637 18-01-2014 07:50:00 2.7 C 97 % 2.27 C
2638 18-01-2014 07:55:00 2.8 C 97 % 2.37 C
2639 18-01-2014 08:00:00 3 C 97 % 2.57 C
2640 18-01-2014 08:05:00 3.2 C 97 % 2.77 C
2641 18-01-2014 08:10:00 3.2 C 97 % 2.77 C
2642 18-01-2014 08:15:00 4.1 C 95 % 3.37 C
2643 18-01-2014 08:20:00 4.3 C 94 % 3.42 C
2644 18-01-2014 08:25:00 4.4 C 93 % 3.37 C
2645 18-01-2014 08:30:00 4.6 C 92 % 3.42 C
2646 18-01-2014 08:35:00 4.6 C 92 % 3.42 C
2647 18-01-2014 08:40:00 4.6 C 92 % 3.42 C
2648 18-01-2014 08:45:00 4.8 C 90 % 3.3 C
2649 18-01-2014 08:50:00 4.8 C 90 % 3.3 C
2650 18-01-2014 08:55:00 4.8 C 89 % 3.14 C
Sensor: Nr:Datum:Temp:Feuchte:Taupunkt:
Aussen-T/F 2651 18-01-2014 09:00:00 4.8 C 89 % 3.14 C
2652 18-01-2014 09:05:00 4.8 C 89 % 3.14 C
2653 18-01-2014 09:10:00 4.8 C 89 % 3.14 C
2654 18-01-2014 09:15:00 4.8 C 89 % 3.14 C
2655 18-01-2014 09:20:00 4.8 C 89 % 3.14 C
2656 18-01-2014 09:25:00 4.8 C 89 % 3.14 C
2657 18-01-2014 09:30:00 4.7 C 89 % 3.05 C
2658 18-01-2014 09:35:00 4.7 C 89 % 3.05 C
2659 18-01-2014 09:40:00 4.8 C 89 % 3.14 C
2660 18-01-2014 09:45:00 4.8 C 89 % 3.14 C
2661 18-01-2014 09:50:00 4.8 C 89 % 3.14 C
2662 18-01-2014 09:55:00 4.8 C 89 % 3.14 C
2663 18-01-2014 10:00:00 4.8 C 89 % 3.14 C
2664 18-01-2014 10:05:00 4.8 C 89 % 3.14 C
2665 18-01-2014 10:10:00 4.9 C 89 % 3.24 C
2666 18-01-2014 10:15:00 4.8 C 89 % 3.14 C
2667 18-01-2014 10:20:00 4.8 C 89 % 3.14 C
2668 18-01-2014 10:25:00 4.8 C 89 % 3.14 C
2669 18-01-2014 10:30:00 4.8 C 89 % 3.14 C
2670 18-01-2014 10:35:00 5 C 89 % 3.34 C
2671 18-01-2014 10:40:00 5.2 C 89 % 3.54 C
2672 18-01-2014 10:45:00 5.3 C 88 % 3.48 C
2673 18-01-2014 10:50:00 5.3 C 88 % 3.48 C
2674 18-01-2014 10:55:00 5.3 C 88 % 3.48 C
2675 18-01-2014 11:00:00 5.3 C 88 % 3.48 C
Sensor: Nr:Datum:Temp:Feuchte:Taupunkt:
Aussen-T/F 2676 18-01-2014 11:05:00 5.8 C 88 % 3.97 C
2677 18-01-2014 11:10:00 5.8 C 88 % 3.97 C
2678 18-01-2014 11:30:00 6.2 C 100 % 6.2 C
2679 18-01-2014 11:35:00 6.2 C 100 % 6.2 C
2680 18-01-2014 11:40:00 6.2 C 100 % 6.2 C
2681 18-01-2014 12:40:00 6.9 C 86 % 4.72 C
2682 18-01-2014 12:45:00 6.9 C 85 % 4.56 C
2683 18-01-2014 12:50:00 6.9 C 84 % 4.39 C
2684 18-01-2014 12:55:00 6.9 C 85 % 4.56 C
2685 18-01-2014 13:00:00 6.9 C 85 % 4.56 C
2686 18-01-2014 13:05:00 7.2 C 83 % 4.51 C
2687 18-01-2014 13:10:00 7.3 C 82 % 4.44 C
2688 18-01-2014 13:15:00 7.4 C 82 % 4.53 C
2689 18-01-2014 13:20:00 7.5 C 83 % 4.81 C
2690 18-01-2014 13:25:00 7.6 C 81 % 4.55 C
2691 18-01-2014 13:30:00 7.7 C 82 % 4.83 C
2692 18-01-2014 13:35:00 7.7 C 82 % 4.83 C
2693 18-01-2014 13:40:00 7.8 C 81 % 4.75 C
2694 18-01-2014 13:45:00 7.9 C 80 % 4.67 C
2695 18-01-2014 13:50:00 7.9 C 81 % 4.85 C
2696 18-01-2014 13:55:00 7.9 C 81 % 4.85 C
2697 18-01-2014 14:00:00 8 C 81 % 4.94 C
2698 18-01-2014 14:05:00 7.9 C 81 % 4.85 C
2699 18-01-2014 14:10:00 7.9 C 82 % 5.02 C
2700 18-01-2014 14:15:00 7.9 C 81 % 4.85 C
Sensor: Nr:Datum:Temp:Feuchte:Taupunkt:
Aussen-T/F 2701 18-01-2014 14:20:00 7.9 C 80 % 4.67 C
2702 18-01-2014 14:25:00 7.9 C 80 % 4.67 C
2703 18-01-2014 14:30:00 7.9 C 80 % 4.67 C
2704 18-01-2014 14:50:00 8.1 C 80 % 4.86 C
2705 18-01-2014 14:55:00 8.1 C 80 % 4.86 C
2706 18-01-2014 15:00:00 8.1 C 82 % 5.22 C
2707 18-01-2014 15:05:00 7.9 C 83 % 5.2 C
2708 18-01-2014 15:10:00 7.8 C 82 % 4.92 C
2709 18-01-2014 15:15:00 7.8 C 82 % 4.92 C
2710 18-01-2014 15:20:00 7.8 C 81 % 4.75 C
2711 18-01-2014 15:25:00 7.8 C 83 % 5.1 C
2712 18-01-2014 15:30:00 7.8 C 84 % 5.27 C
2713 18-01-2014 15:35:00 7.8 C 82 % 4.92 C
2714 18-01-2014 15:40:00 7.8 C 82 % 4.92 C
2715 18-01-2014 15:45:00 7.8 C 81 % 4.75 C
2716 18-01-2014 15:50:00 7.8 C 83 % 5.1 C
2717 18-01-2014 15:55:00 7.7 C 82 % 4.83 C
2718 18-01-2014 16:00:00 7.5 C 84 % 4.98 C
2719 18-01-2014 16:05:00 7.3 C 85 % 4.95 C
2720 18-01-2014 16:10:00 7.1 C 86 % 4.92 C
2721 18-01-2014 16:15:00 6.9 C 85 % 4.56 C
2722 18-01-2014 16:20:00 6.8 C 85 % 4.46 C
2723 18-01-2014 16:25:00 6.8 C 85 % 4.46 C
2724 18-01-2014 16:30:00 6.7 C 85 % 4.36 C
2725 18-01-2014 16:35:00 6.7 C 85 % 4.36 C
Sensor: Nr:Datum:Temp:Feuchte:Taupunkt:
Aussen-T/F 2726 18-01-2014 16:40:00 6.7 C 85 % 4.36 C
2727 18-01-2014 16:45:00 6.7 C 84 % 4.19 C
2728 18-01-2014 16:50:00 6.7 C 85 % 4.36 C
2729 18-01-2014 16:55:00 6.6 C 85 % 4.26 C
2730 18-01-2014 17:00:00 6.3 C 85 % 3.97 C
2731 18-01-2014 17:05:00 6.3 C 85 % 3.97 C
2732 18-01-2014 17:10:00 6.1 C 86 % 3.94 C
2733 18-01-2014 17:15:00 5.8 C 87 % 3.81 C
2734 18-01-2014 17:20:00 5.6 C 87 % 3.61 C
2735 18-01-2014 17:25:00 5.5 C 88 % 3.67 C
2736 18-01-2014 17:30:00 5.5 C 87 % 3.51 C
2737 18-01-2014 17:35:00 5.6 C 87 % 3.61 C
2738 18-01-2014 17:40:00 5.7 C 86 % 3.55 C
2739 18-01-2014 17:45:00 5.6 C 86 % 3.45 C
2740 18-01-2014 17:50:00 5.7 C 85 % 3.38 C
2741 18-01-2014 17:55:00 5.8 C 86 % 3.64 C
2742 18-01-2014 18:00:00 5.7 C 86 % 3.55 C
2743 18-01-2014 18:05:00 5.6 C 85 % 3.28 C
2744 18-01-2014 18:10:00 5.6 C 85 % 3.28 C
2745 18-01-2014 18:15:00 5.7 C 85 % 3.38 C
2746 18-01-2014 18:20:00 5.6 C 85 % 3.28 C
2747 18-01-2014 18:25:00 5.6 C 86 % 3.45 C
2748 18-01-2014 18:30:00 5.6 C 85 % 3.28 C
2749 18-01-2014 18:35:00 5.8 C 85 % 3.48 C
2750 18-01-2014 18:40:00 6 C 83 % 3.34 C
Sensor: Nr:Datum:Temp:Feuchte:Taupunkt:
Aussen-T/F 2751 18-01-2014 18:45:00 6.1 C 83 % 3.44 C
2752 18-01-2014 18:50:00 6.2 C 82 % 3.36 C
2753 18-01-2014 18:55:00 6.2 C 82 % 3.36 C
2754 18-01-2014 19:00:00 6.2 C 83 % 3.53 C
2755 18-01-2014 19:05:00 6.3 C 81 % 3.29 C
2756 18-01-2014 19:10:00 6.4 C 81 % 3.38 C
2757 18-01-2014 19:15:00 6.3 C 81 % 3.29 C
2758 18-01-2014 19:20:00 6.3 C 82 % 3.46 C
2759 18-01-2014 19:25:00 6.1 C 82 % 3.26 C
2760 18-01-2014 19:30:00 5.9 C 83 % 3.24 C
2761 18-01-2014 19:35:00 5.7 C 85 % 3.38 C
2762 18-01-2014 19:40:00 5.8 C 84 % 3.31 C
2763 18-01-2014 19:45:00 5.8 C 85 % 3.48 C
2764 18-01-2014 19:50:00 5.8 C 84 % 3.31 C
2765 18-01-2014 19:55:00 5.9 C 84 % 3.41 C
2766 18-01-2014 20:00:00 5.9 C 84 % 3.41 C
2767 18-01-2014 20:05:00 5.7 C 85 % 3.38 C
2768 18-01-2014 20:10:00 5.6 C 85 % 3.28 C
2769 18-01-2014 20:15:00 5.4 C 87 % 3.41 C
2770 18-01-2014 20:20:00 5.2 C 87 % 3.22 C
2771 18-01-2014 20:25:00 5 C 88 % 3.18 C
2772 18-01-2014 20:30:00 4.9 C 88 % 3.08 C
2773 18-01-2014 20:35:00 4.8 C 88 % 2.99 C
2774 18-01-2014 20:40:00 4.7 C 89 % 3.05 C
2775 18-01-2014 20:45:00 4.6 C 89 % 2.95 C
Sensor: Nr:Datum:Temp:Feuchte:Taupunkt:
Aussen-T/F 2776 18-01-2014 20:50:00 4.4 C 90 % 2.91 C
2777 18-01-2014 20:55:00 4.3 C 90 % 2.81 C
2778 18-01-2014 21:00:00 4.1 C 90 % 2.61 C
2779 18-01-2014 21:05:00 3.8 C 90 % 2.31 C
2780 18-01-2014 21:10:00 3.6 C 91 % 2.27 C
2781 18-01-2014 21:15:00 3.5 C 91 % 2.17 C
2782 18-01-2014 21:20:00 3.4 C 92 % 2.23 C
2783 18-01-2014 21:25:00 3.4 C 92 % 2.23 C
2784 18-01-2014 21:30:00 3.3 C 92 % 2.13 C
2785 18-01-2014 21:35:00 3.2 C 92 % 2.03 C
2786 18-01-2014 21:40:00 3.1 C 92 % 1.93 C
2787 18-01-2014 21:45:00 3 C 93 % 1.98 C
2788 18-01-2014 21:50:00 2.9 C 93 % 1.88 C
2789 18-01-2014 21:55:00 2.8 C 93 % 1.78 C
2790 18-01-2014 22:00:00 2.7 C 93 % 1.68 C
2791 18-01-2014 22:05:00 2.7 C 94 % 1.83 C
2792 18-01-2014 22:10:00 2.7 C 94 % 1.83 C
2793 18-01-2014 22:15:00 2.7 C 94 % 1.83 C
2794 18-01-2014 22:20:00 2.8 C 94 % 1.93 C
2795 18-01-2014 22:25:00 2.8 C 94 % 1.93 C
2796 18-01-2014 22:30:00 2.8 C 94 % 1.93 C
2797 18-01-2014 22:35:00 2.9 C 94 % 2.03 C
2798 18-01-2014 22:40:00 3.1 C 95 % 2.38 C
2799 18-01-2014 22:45:00 3.1 C 95 % 2.38 C
2800 18-01-2014 22:50:00 3.2 C 95 % 2.48 C
Sensor: Nr:Datum:Temp:Feuchte:Taupunkt:
Aussen-T/F 2801 18-01-2014 22:55:00 3.3 C 95 % 2.58 C
2802 18-01-2014 23:00:00 3.4 C 95 % 2.68 C
2803 18-01-2014 23:05:00 3.5 C 95 % 2.78 C
2804 18-01-2014 23:10:00 3.6 C 95 % 2.88 C
2805 18-01-2014 23:15:00 3.6 C 95 % 2.88 C
2806 18-01-2014 23:20:00 3.7 C 94 % 2.83 C
2807 18-01-2014 23:25:00 3.7 C 94 % 2.83 C
2808 18-01-2014 23:30:00 3.8 C 94 % 2.93 C
2809 18-01-2014 23:35:00 3.8 C 94 % 2.93 C
2810 18-01-2014 23:40:00 3.8 C 94 % 2.93 C
2811 18-01-2014 23:45:00 3.8 C 94 % 2.93 C
2812 18-01-2014 23:50:00 3.9 C 94 % 3.02 C
2813 18-01-2014 23:55:00 3.9 C 94 % 3.02 C
2814 19-01-2014 00:00:00 4 C 94 % 3.12 C
2815 19-01-2014 00:05:00 4.1 C 94 % 3.22 C
2816 19-01-2014 00:10:00 4.1 C 94 % 3.22 C
2817 19-01-2014 00:15:00 4.1 C 94 % 3.22 C
2818 19-01-2014 00:20:00 4.2 C 94 % 3.32 C
2819 19-01-2014 00:25:00 4.2 C 94 % 3.32 C
2820 19-01-2014 00:30:00 4.2 C 94 % 3.32 C
2821 19-01-2014 00:35:00 4.2 C 94 % 3.32 C
2822 19-01-2014 00:40:00 4.2 C 94 % 3.32 C
2823 19-01-2014 00:45:00 4.3 C 94 % 3.42 C
2824 19-01-2014 00:50:00 4.3 C 94 % 3.42 C
2825 19-01-2014 00:55:00 4.3 C 94 % 3.42 C
Sensor: Nr:Datum:Temp:Feuchte:Taupunkt:
Aussen-T/F 2826 19-01-2014 01:00:00 4.4 C 94 % 3.52 C
2827 19-01-2014 01:05:00 4.4 C 94 % 3.52 C
2828 19-01-2014 01:10:00 4.4 C 94 % 3.52 C
2829 19-01-2014 01:15:00 4.4 C 94 % 3.52 C
2830 19-01-2014 01:20:00 4.4 C 94 % 3.52 C
2831 19-01-2014 01:25:00 4.4 C 93 % 3.37 C
2832 19-01-2014 01:30:00 4.4 C 94 % 3.52 C
2833 19-01-2014 01:35:00 4.4 C 94 % 3.52 C
2834 19-01-2014 01:40:00 4.4 C 94 % 3.52 C
2835 19-01-2014 01:45:00 4.4 C 94 % 3.52 C
2836 19-01-2014 01:50:00 4.5 C 94 % 3.62 C
2837 19-01-2014 01:55:00 4.5 C 93 % 3.47 C
2838 19-01-2014 02:00:00 4.6 C 94 % 3.72 C
2839 19-01-2014 02:05:00 4.6 C 93 % 3.57 C
2840 19-01-2014 02:10:00 4.6 C 93 % 3.57 C
2841 19-01-2014 02:15:00 4.6 C 93 % 3.57 C
2842 19-01-2014 02:20:00 4.6 C 92 % 3.42 C
2843 19-01-2014 02:25:00 4.7 C 92 % 3.51 C
2844 19-01-2014 02:30:00 4.7 C 92 % 3.51 C
2845 19-01-2014 02:35:00 4.7 C 92 % 3.51 C
2846 19-01-2014 02:40:00 4.7 C 92 % 3.51 C
2847 19-01-2014 02:45:00 4.7 C 92 % 3.51 C
2848 19-01-2014 02:50:00 4.7 C 91 % 3.36 C
2849 19-01-2014 02:55:00 4.7 C 91 % 3.36 C
2850 19-01-2014 03:00:00 4.6 C 91 % 3.26 C
Sensor: Nr:Datum:Temp:Feuchte:Taupunkt:
Aussen-T/F 2851 19-01-2014 03:05:00 4.6 C 91 % 3.26 C
2852 19-01-2014 03:10:00 4.6 C 91 % 3.26 C
2853 19-01-2014 03:15:00 4.6 C 91 % 3.26 C
2854 19-01-2014 03:20:00 4.6 C 91 % 3.26 C
2855 19-01-2014 03:25:00 4.5 C 91 % 3.16 C
2856 19-01-2014 03:30:00 4.5 C 91 % 3.16 C
2857 19-01-2014 03:35:00 4.4 C 91 % 3.06 C
2858 19-01-2014 03:40:00 4.4 C 92 % 3.22 C
2859 19-01-2014 03:45:00 4.3 C 92 % 3.12 C
2860 19-01-2014 03:50:00 4.3 C 92 % 3.12 C
2861 19-01-2014 03:55:00 4.2 C 92 % 3.02 C
2862 19-01-2014 04:00:00 4.2 C 92 % 3.02 C
2863 19-01-2014 04:05:00 4.2 C 92 % 3.02 C
2864 19-01-2014 04:10:00 4.2 C 92 % 3.02 C
2865 19-01-2014 04:15:00 4.2 C 92 % 3.02 C
2866 19-01-2014 04:20:00 4.2 C 92 % 3.02 C
2867 19-01-2014 04:25:00 4.2 C 92 % 3.02 C
2868 19-01-2014 04:30:00 4.2 C 92 % 3.02 C
2869 19-01-2014 04:35:00 4.2 C 92 % 3.02 C
2870 19-01-2014 04:40:00 4.2 C 92 % 3.02 C
2871 19-01-2014 04:45:00 4.2 C 92 % 3.02 C
2872 19-01-2014 04:50:00 4.2 C 93 % 3.17 C
2873 19-01-2014 04:55:00 4.2 C 93 % 3.17 C
2874 19-01-2014 05:00:00 4.2 C 93 % 3.17 C
2875 19-01-2014 05:05:00 4.1 C 93 % 3.07 C
Sensor: Nr:Datum:Temp:Feuchte:Taupunkt:
Aussen-T/F 2876 19-01-2014 05:10:00 4.2 C 93 % 3.17 C
2877 19-01-2014 05:15:00 4.1 C 93 % 3.07 C
2878 19-01-2014 05:20:00 4.1 C 93 % 3.07 C
2879 19-01-2014 05:25:00 4.1 C 93 % 3.07 C
2880 19-01-2014 05:30:00 4.2 C 93 % 3.17 C
2881 19-01-2014 05:35:00 4.2 C 93 % 3.17 C
2882 19-01-2014 05:40:00 4.2 C 93 % 3.17 C
2883 19-01-2014 05:45:00 4.2 C 93 % 3.17 C
2884 19-01-2014 05:50:00 4.1 C 93 % 3.07 C
2885 19-01-2014 05:55:00 4.1 C 93 % 3.07 C
2886 19-01-2014 06:00:00 4.1 C 93 % 3.07 C
2887 19-01-2014 06:05:00 4.1 C 93 % 3.07 C
2888 19-01-2014 06:10:00 4.1 C 93 % 3.07 C
2889 19-01-2014 06:15:00 4.1 C 93 % 3.07 C
2890 19-01-2014 06:20:00 4.1 C 93 % 3.07 C
2891 19-01-2014 06:25:00 4.1 C 93 % 3.07 C
2892 19-01-2014 06:30:00 4.1 C 93 % 3.07 C
2893 19-01-2014 06:35:00 4.1 C 93 % 3.07 C
2894 19-01-2014 06:40:00 4.2 C 93 % 3.17 C
2895 19-01-2014 06:45:00 4.2 C 93 % 3.17 C
2896 19-01-2014 06:50:00 4.1 C 93 % 3.07 C
2897 19-01-2014 06:55:00 4.2 C 93 % 3.17 C
2898 19-01-2014 07:00:00 4.1 C 93 % 3.07 C
2899 19-01-2014 07:05:00 4.1 C 93 % 3.07 C
2900 19-01-2014 07:10:00 4.1 C 93 % 3.07 C
Sensor: Nr:Datum:Temp:Feuchte:Taupunkt:
Aussen-T/F 2901 19-01-2014 07:15:00 4.1 C 92 % 2.92 C
2902 19-01-2014 07:20:00 4.1 C 93 % 3.07 C
2903 19-01-2014 07:25:00 4.1 C 93 % 3.07 C
2904 19-01-2014 07:30:00 4 C 93 % 2.97 C
2905 19-01-2014 07:35:00 3.9 C 93 % 2.87 C
2906 19-01-2014 07:40:00 3.9 C 93 % 2.87 C
2907 19-01-2014 07:45:00 3.9 C 93 % 2.87 C
2908 19-01-2014 07:50:00 3.8 C 93 % 2.77 C
2909 19-01-2014 07:55:00 3.8 C 93 % 2.77 C
2910 19-01-2014 08:00:00 3.8 C 93 % 2.77 C
2911 19-01-2014 08:05:00 3.8 C 93 % 2.77 C
2912 19-01-2014 08:10:00 3.7 C 93 % 2.68 C
2913 19-01-2014 08:15:00 3.7 C 93 % 2.68 C
2914 19-01-2014 08:20:00 3.7 C 93 % 2.68 C
2915 19-01-2014 08:25:00 3.6 C 93 % 2.58 C
2916 19-01-2014 08:30:00 3.6 C 94 % 2.73 C
2917 19-01-2014 08:35:00 3.6 C 94 % 2.73 C
2918 19-01-2014 08:40:00 3.6 C 94 % 2.73 C
2919 19-01-2014 08:45:00 3.7 C 94 % 2.83 C
2920 19-01-2014 08:50:00 3.7 C 94 % 2.83 C
2921 19-01-2014 08:55:00 3.7 C 94 % 2.83 C
2922 19-01-2014 09:00:00 3.7 C 94 % 2.83 C
2923 19-01-2014 09:05:00 3.8 C 94 % 2.93 C
2924 19-01-2014 09:10:00 3.8 C 95 % 3.07 C
2925 19-01-2014 09:15:00 3.9 C 94 % 3.02 C
Sensor: Nr:Datum:Temp:Feuchte:Taupunkt:
Aussen-T/F 2926 19-01-2014 09:20:00 4 C 94 % 3.12 C
2927 19-01-2014 09:25:00 4.1 C 94 % 3.22 C
2928 19-01-2014 09:30:00 4.1 C 94 % 3.22 C
2929 19-01-2014 09:35:00 4.2 C 94 % 3.32 C
2930 19-01-2014 09:40:00 4.2 C 94 % 3.32 C
2931 19-01-2014 09:45:00 4.2 C 94 % 3.32 C
2932 19-01-2014 09:50:00 4.4 C 93 % 3.37 C
2933 19-01-2014 09:55:00 4.4 C 93 % 3.37 C
2934 19-01-2014 10:00:00 4.6 C 92 % 3.42 C
2935 19-01-2014 10:05:00 4.7 C 92 % 3.51 C
2936 19-01-2014 10:10:00 4.8 C 92 % 3.61 C
2937 19-01-2014 10:15:00 4.9 C 91 % 3.56 C
2938 19-01-2014 10:20:00 4.9 C 91 % 3.56 C
2939 19-01-2014 10:25:00 5.1 C 91 % 3.76 C
2940 19-01-2014 10:30:00 5.1 C 91 % 3.76 C
2941 19-01-2014 10:35:00 5.2 C 90 % 3.7 C
2942 19-01-2014 10:40:00 5.2 C 90 % 3.7 C
2943 19-01-2014 10:45:00 5.2 C 90 % 3.7 C
2944 19-01-2014 10:50:00 5.3 C 90 % 3.8 C
2945 19-01-2014 10:55:00 5.3 C 90 % 3.8 C
2946 19-01-2014 11:00:00 5.4 C 90 % 3.89 C
2947 19-01-2014 11:05:00 5.4 C 90 % 3.89 C
2948 19-01-2014 11:10:00 5.4 C 89 % 3.74 C
2949 19-01-2014 11:15:00 5.5 C 89 % 3.84 C
2950 19-01-2014 11:20:00 5.6 C 89 % 3.93 C
Sensor: Nr:Datum:Temp:Feuchte:Taupunkt:
Aussen-T/F 2951 19-01-2014 11:25:00 5.6 C 89 % 3.93 C
2952 19-01-2014 11:30:00 5.6 C 89 % 3.93 C
2953 19-01-2014 11:35:00 5.7 C 89 % 4.03 C
2954 19-01-2014 11:40:00 5.7 C 89 % 4.03 C
2955 19-01-2014 11:45:00 5.8 C 89 % 4.13 C
2956 19-01-2014 11:50:00 5.9 C 89 % 4.23 C
2957 19-01-2014 11:55:00 5.9 C 88 % 4.07 C
2958 19-01-2014 12:00:00 6 C 88 % 4.17 C
2959 19-01-2014 12:05:00 6.1 C 88 % 4.27 C
2960 19-01-2014 12:10:00 6.1 C 87 % 4.1 C
2961 19-01-2014 12:15:00 6.1 C 87 % 4.1 C
2962 19-01-2014 12:20:00 6.1 C 87 % 4.1 C
2963 19-01-2014 12:25:00 6.2 C 87 % 4.2 C
2964 19-01-2014 12:30:00 6.2 C 87 % 4.2 C
2965 19-01-2014 12:35:00 6.2 C 87 % 4.2 C
2966 19-01-2014 12:40:00 6.3 C 87 % 4.3 C
2967 19-01-2014 12:45:00 6.3 C 86 % 4.14 C
2968 19-01-2014 12:50:00 6.4 C 87 % 4.4 C
2969 19-01-2014 12:55:00 6.4 C 87 % 4.4 C
2970 19-01-2014 13:00:00 6.6 C 86 % 4.43 C
2971 19-01-2014 13:05:00 6.7 C 88 % 4.86 C
2972 19-01-2014 13:10:00 6.7 C 86 % 4.53 C
2973 19-01-2014 13:15:00 6.8 C 87 % 4.79 C
2974 19-01-2014 13:20:00 6.8 C 86 % 4.63 C
2975 19-01-2014 13:25:00 6.8 C 86 % 4.63 C
Sensor: Nr:Datum:Temp:Feuchte:Taupunkt:
Aussen-T/F 2976 19-01-2014 13:30:00 6.8 C 85 % 4.46 C
2977 19-01-2014 13:35:00 6.8 C 87 % 4.79 C
2978 19-01-2014 13:40:00 6.8 C 86 % 4.63 C
2979 19-01-2014 13:45:00 6.8 C 86 % 4.63 C
2980 19-01-2014 13:50:00 6.8 C 86 % 4.63 C
2981 19-01-2014 13:55:00 6.9 C 86 % 4.72 C
2982 19-01-2014 14:00:00 6.9 C 86 % 4.72 C
2983 19-01-2014 14:05:00 6.8 C 86 % 4.63 C
2984 19-01-2014 14:10:00 6.9 C 86 % 4.72 C
2985 19-01-2014 14:15:00 6.9 C 86 % 4.72 C
2986 19-01-2014 14:20:00 7 C 85 % 4.66 C
2987 19-01-2014 14:25:00 7.1 C 85 % 4.75 C
2988 19-01-2014 14:30:00 7.2 C 85 % 4.85 C
2989 19-01-2014 14:35:00 7.2 C 85 % 4.85 C
2990 19-01-2014 14:40:00 7.2 C 84 % 4.68 C
2991 19-01-2014 14:45:00 7.3 C 85 % 4.95 C
2992 19-01-2014 14:50:00 7.3 C 85 % 4.95 C
2993 19-01-2014 14:55:00 7.4 C 85 % 5.05 C
2994 19-01-2014 15:00:00 7.4 C 84 % 4.88 C
2995 19-01-2014 15:05:00 7.4 C 84 % 4.88 C
2996 19-01-2014 15:10:00 7.3 C 84 % 4.78 C
2997 19-01-2014 15:15:00 7.3 C 84 % 4.78 C
2998 19-01-2014 15:20:00 7.3 C 85 % 4.95 C
2999 19-01-2014 15:25:00 7.3 C 84 % 4.78 C
3000 19-01-2014 15:30:00 7.3 C 84 % 4.78 C
Sensor: Nr:Datum:Temp:Feuchte:Taupunkt:
Aussen-T/F 3001 19-01-2014 15:35:00 7.2 C 84 % 4.68 C
3002 19-01-2014 15:40:00 7.1 C 85 % 4.75 C
3003 19-01-2014 15:45:00 7.1 C 85 % 4.75 C
3004 19-01-2014 15:50:00 7.1 C 85 % 4.75 C
3005 19-01-2014 15:55:00 7.1 C 85 % 4.75 C
3006 19-01-2014 16:00:00 7.1 C 85 % 4.75 C
3007 19-01-2014 16:40:00 5.4 C 100 % 5.4 C
3008 19-01-2014 16:45:00 5.4 C 100 % 5.4 C
3009 19-01-2014 16:50:00 5.4 C 100 % 5.4 C
3010 19-01-2014 16:55:00 5.4 C 100 % 5.4 C
3011 19-01-2014 17:00:00 4.8 C 92 % 3.61 C
3012 19-01-2014 17:05:00 4.6 C 92 % 3.42 C
3013 19-01-2014 17:10:00 4.5 C 92 % 3.32 C
3014 19-01-2014 17:15:00 4.3 C 92 % 3.12 C
3015 19-01-2014 17:20:00 4.2 C 93 % 3.17 C
3016 19-01-2014 17:25:00 4.1 C 93 % 3.07 C
3017 19-01-2014 17:30:00 4.1 C 93 % 3.07 C
3018 19-01-2014 17:35:00 4 C 93 % 2.97 C
3019 19-01-2014 17:40:00 4 C 94 % 3.12 C
3020 19-01-2014 17:45:00 4 C 94 % 3.12 C
3021 19-01-2014 17:50:00 4 C 94 % 3.12 C
3022 19-01-2014 17:55:00 3.9 C 94 % 3.02 C
3023 19-01-2014 18:00:00 3.9 C 94 % 3.02 C
3024 19-01-2014 18:05:00 3.9 C 94 % 3.02 C
3025 19-01-2014 18:10:00 3.9 C 94 % 3.02 C
Sensor: Nr:Datum:Temp:Feuchte:Taupunkt:
Aussen-T/F 3026 19-01-2014 18:15:00 3.8 C 94 % 2.93 C
3027 19-01-2014 18:20:00 3.8 C 95 % 3.07 C
3028 19-01-2014 18:25:00 3.8 C 95 % 3.07 C
3029 19-01-2014 18:30:00 3.8 C 94 % 2.93 C
3030 19-01-2014 18:35:00 3.8 C 94 % 2.93 C
3031 19-01-2014 18:40:00 3.8 C 95 % 3.07 C
3032 19-01-2014 18:45:00 3.8 C 95 % 3.07 C
3033 19-01-2014 18:50:00 3.8 C 95 % 3.07 C
3034 19-01-2014 18:55:00 3.7 C 94 % 2.83 C
3035 19-01-2014 19:00:00 3.7 C 95 % 2.98 C
3036 19-01-2014 19:05:00 3.7 C 95 % 2.98 C
3037 19-01-2014 19:10:00 3.7 C 95 % 2.98 C
3038 19-01-2014 19:15:00 3.6 C 95 % 2.88 C
3039 19-01-2014 19:20:00 3.6 C 95 % 2.88 C
3040 19-01-2014 19:25:00 3.6 C 95 % 2.88 C
3041 19-01-2014 19:30:00 3.7 C 95 % 2.98 C
3042 19-01-2014 19:35:00 3.7 C 95 % 2.98 C
3043 19-01-2014 19:40:00 3.8 C 95 % 3.07 C
3044 19-01-2014 19:45:00 3.7 C 95 % 2.98 C
3045 19-01-2014 19:50:00 3.7 C 95 % 2.98 C
3046 19-01-2014 19:55:00 3.7 C 95 % 2.98 C
3047 19-01-2014 20:00:00 3.6 C 95 % 2.88 C
3048 19-01-2014 20:05:00 3.5 C 95 % 2.78 C
3049 19-01-2014 20:10:00 3.4 C 95 % 2.68 C
3050 19-01-2014 20:15:00 3.4 C 95 % 2.68 C
Sensor: Nr:Datum:Temp:Feuchte:Taupunkt:
Aussen-T/F 3051 19-01-2014 20:20:00 3.3 C 95 % 2.58 C
3052 19-01-2014 20:25:00 3.3 C 95 % 2.58 C
3053 19-01-2014 20:30:00 3.5 C 95 % 2.78 C
3054 19-01-2014 20:35:00 3.5 C 95 % 2.78 C
3055 19-01-2014 20:40:00 3.4 C 95 % 2.68 C
3056 19-01-2014 20:45:00 3.4 C 95 % 2.68 C
3057 19-01-2014 20:50:00 3.4 C 95 % 2.68 C
3058 19-01-2014 20:55:00 3.3 C 95 % 2.58 C
3059 19-01-2014 21:00:00 3.3 C 95 % 2.58 C
3060 19-01-2014 21:05:00 3.4 C 95 % 2.68 C
3061 19-01-2014 21:10:00 3.4 C 95 % 2.68 C
3062 19-01-2014 21:15:00 3.4 C 95 % 2.68 C
3063 19-01-2014 21:20:00 3.4 C 95 % 2.68 C
3064 19-01-2014 21:25:00 3.4 C 95 % 2.68 C
3065 19-01-2014 21:30:00 3.3 C 95 % 2.58 C
3066 19-01-2014 21:35:00 3.3 C 95 % 2.58 C
3067 19-01-2014 21:40:00 3.4 C 95 % 2.68 C
3068 19-01-2014 21:45:00 3.4 C 95 % 2.68 C
3069 19-01-2014 21:50:00 3.4 C 95 % 2.68 C
3070 19-01-2014 21:55:00 3.5 C 95 % 2.78 C
3071 19-01-2014 22:00:00 3.6 C 95 % 2.88 C
3072 19-01-2014 22:05:00 3.6 C 95 % 2.88 C
3073 19-01-2014 22:10:00 3.6 C 95 % 2.88 C
3074 19-01-2014 22:15:00 3.7 C 95 % 2.98 C
3075 19-01-2014 22:20:00 3.7 C 95 % 2.98 C
Sensor: Nr:Datum:Temp:Feuchte:Taupunkt:
Aussen-T/F 3076 19-01-2014 22:25:00 3.6 C 95 % 2.88 C
3077 19-01-2014 22:30:00 3.6 C 95 % 2.88 C
3078 19-01-2014 22:35:00 3.6 C 95 % 2.88 C
3079 19-01-2014 22:40:00 3.6 C 95 % 2.88 C
3080 19-01-2014 22:45:00 3.6 C 95 % 2.88 C
3081 19-01-2014 22:50:00 3.5 C 95 % 2.78 C
3082 19-01-2014 22:55:00 3.6 C 95 % 2.88 C
3083 19-01-2014 23:00:00 3.6 C 95 % 2.88 C
3084 19-01-2014 23:05:00 3.7 C 95 % 2.98 C
3085 19-01-2014 23:10:00 3.7 C 95 % 2.98 C
3086 19-01-2014 23:15:00 3.7 C 95 % 2.98 C
3087 19-01-2014 23:20:00 3.8 C 95 % 3.07 C
3088 19-01-2014 23:25:00 3.8 C 95 % 3.07 C
3089 19-01-2014 23:30:00 3.8 C 95 % 3.07 C
3090 19-01-2014 23:35:00 3.8 C 95 % 3.07 C
3091 19-01-2014 23:40:00 3.9 C 95 % 3.17 C
3092 19-01-2014 23:45:00 3.9 C 95 % 3.17 C
3093 19-01-2014 23:50:00 3.9 C 95 % 3.17 C
3094 19-01-2014 23:55:00 3.9 C 95 % 3.17 C
3095 20-01-2014 00:00:00 3.9 C 95 % 3.17 C
3096 20-01-2014 00:05:00 3.9 C 95 % 3.17 C
3097 20-01-2014 00:10:00 4 C 95 % 3.27 C
3098 20-01-2014 00:15:00 4 C 95 % 3.27 C
3099 20-01-2014 00:20:00 4.1 C 95 % 3.37 C
3100 20-01-2014 00:25:00 4.1 C 95 % 3.37 C
Sensor: Nr:Datum:Temp:Feuchte:Taupunkt:
Aussen-T/F 3101 20-01-2014 00:30:00 4.1 C 95 % 3.37 C
3102 20-01-2014 00:35:00 4.1 C 95 % 3.37 C
3103 20-01-2014 00:40:00 4.1 C 95 % 3.37 C
3104 20-01-2014 00:45:00 4.2 C 95 % 3.47 C
3105 20-01-2014 00:50:00 4.1 C 95 % 3.37 C
3106 20-01-2014 00:55:00 4.2 C 95 % 3.47 C
3107 20-01-2014 01:00:00 4.2 C 95 % 3.47 C
3108 20-01-2014 01:05:00 4.2 C 95 % 3.47 C
3109 20-01-2014 01:10:00 4.2 C 95 % 3.47 C
3110 20-01-2014 01:15:00 4.2 C 95 % 3.47 C
3111 20-01-2014 01:20:00 4.2 C 95 % 3.47 C
3112 20-01-2014 01:25:00 4.2 C 95 % 3.47 C
3113 20-01-2014 01:30:00 4.2 C 95 % 3.47 C
3114 20-01-2014 01:35:00 4.2 C 95 % 3.47 C
3115 20-01-2014 01:40:00 4.2 C 95 % 3.47 C
3116 20-01-2014 01:45:00 4.2 C 94 % 3.32 C
3117 20-01-2014 01:50:00 4.2 C 95 % 3.47 C
3118 20-01-2014 01:55:00 4.2 C 95 % 3.47 C
3119 20-01-2014 02:00:00 4.2 C 94 % 3.32 C
3120 20-01-2014 02:05:00 4.2 C 94 % 3.32 C
3121 20-01-2014 02:10:00 4.2 C 94 % 3.32 C
3122 20-01-2014 02:15:00 4.2 C 94 % 3.32 C
3123 20-01-2014 02:20:00 4.2 C 94 % 3.32 C
3124 20-01-2014 02:25:00 4.2 C 94 % 3.32 C
3125 20-01-2014 02:30:00 4.2 C 94 % 3.32 C
Sensor: Nr:Datum:Temp:Feuchte:Taupunkt:
Aussen-T/F 3126 20-01-2014 02:35:00 4.2 C 94 % 3.32 C
3127 20-01-2014 02:40:00 4.2 C 94 % 3.32 C
3128 20-01-2014 02:45:00 4.2 C 94 % 3.32 C
3129 20-01-2014 02:50:00 4.2 C 94 % 3.32 C
3130 20-01-2014 02:55:00 4.2 C 94 % 3.32 C
3131 20-01-2014 03:00:00 4.2 C 94 % 3.32 C
3132 20-01-2014 03:05:00 4.2 C 94 % 3.32 C
3133 20-01-2014 03:10:00 4.2 C 94 % 3.32 C
3134 20-01-2014 03:15:00 4.2 C 94 % 3.32 C
3135 20-01-2014 03:20:00 4.2 C 94 % 3.32 C
3136 20-01-2014 03:25:00 4.2 C 94 % 3.32 C
3137 20-01-2014 03:30:00 4.2 C 94 % 3.32 C
3138 20-01-2014 03:35:00 4.2 C 94 % 3.32 C
3139 20-01-2014 03:40:00 4.2 C 94 % 3.32 C
3140 20-01-2014 03:45:00 4.2 C 94 % 3.32 C
3141 20-01-2014 03:50:00 4.2 C 94 % 3.32 C
3142 20-01-2014 03:55:00 4.2 C 94 % 3.32 C
3143 20-01-2014 04:00:00 4.2 C 94 % 3.32 C
3144 20-01-2014 04:05:00 4.2 C 95 % 3.47 C
3145 20-01-2014 04:10:00 4.2 C 95 % 3.47 C
3146 20-01-2014 04:15:00 4.3 C 95 % 3.57 C
3147 20-01-2014 04:20:00 4.3 C 95 % 3.57 C
3148 20-01-2014 04:25:00 4.3 C 95 % 3.57 C
3149 20-01-2014 04:30:00 4.3 C 95 % 3.57 C
3150 20-01-2014 04:35:00 4.3 C 95 % 3.57 C
Sensor: Nr:Datum:Temp:Feuchte:Taupunkt:
Aussen-T/F 3151 20-01-2014 04:40:00 4.3 C 95 % 3.57 C
3152 20-01-2014 04:45:00 4.3 C 95 % 3.57 C
3153 20-01-2014 04:50:00 4.3 C 95 % 3.57 C
3154 20-01-2014 04:55:00 4.3 C 94 % 3.42 C
3155 20-01-2014 05:00:00 4.3 C 94 % 3.42 C
3156 20-01-2014 05:05:00 4.3 C 94 % 3.42 C
3157 20-01-2014 05:10:00 4.3 C 94 % 3.42 C
3158 20-01-2014 05:15:00 4.3 C 94 % 3.42 C
3159 20-01-2014 05:20:00 4.3 C 94 % 3.42 C
3160 20-01-2014 05:25:00 4.3 C 94 % 3.42 C
3161 20-01-2014 05:30:00 4.3 C 94 % 3.42 C
3162 20-01-2014 05:35:00 4.3 C 94 % 3.42 C
3163 20-01-2014 05:40:00 4.3 C 94 % 3.42 C
3164 20-01-2014 05:45:00 4.3 C 94 % 3.42 C
3165 20-01-2014 05:50:00 4.3 C 94 % 3.42 C
3166 20-01-2014 05:55:00 4.3 C 94 % 3.42 C
3167 20-01-2014 06:00:00 4.3 C 94 % 3.42 C
3168 20-01-2014 06:05:00 4.3 C 94 % 3.42 C
3169 20-01-2014 06:10:00 4.3 C 94 % 3.42 C
3170 20-01-2014 06:15:00 4.3 C 94 % 3.42 C
3171 20-01-2014 06:20:00 4.3 C 94 % 3.42 C
3172 20-01-2014 06:25:00 4.3 C 94 % 3.42 C
3173 20-01-2014 06:30:00 4.3 C 94 % 3.42 C
3174 20-01-2014 06:35:00 4.3 C 94 % 3.42 C
3175 20-01-2014 06:40:00 4.3 C 94 % 3.42 C
Sensor: Nr:Datum:Temp:Feuchte:Taupunkt:
Aussen-T/F 3176 20-01-2014 06:45:00 4.3 C 94 % 3.42 C
3177 20-01-2014 06:50:00 4.3 C 94 % 3.42 C
3178 20-01-2014 06:55:00 4.3 C 94 % 3.42 C
3179 20-01-2014 07:00:00 4.3 C 94 % 3.42 C
3180 20-01-2014 07:05:00 4.3 C 95 % 3.57 C
3181 20-01-2014 07:10:00 4.3 C 95 % 3.57 C
3182 20-01-2014 07:15:00 4.3 C 95 % 3.57 C
3183 20-01-2014 07:20:00 4.3 C 95 % 3.57 C
3184 20-01-2014 07:25:00 4.3 C 95 % 3.57 C
3185 20-01-2014 07:30:00 4.3 C 95 % 3.57 C
3186 20-01-2014 07:35:00 4.3 C 95 % 3.57 C
3187 20-01-2014 07:40:00 4.3 C 95 % 3.57 C
3188 20-01-2014 07:45:00 4.3 C 95 % 3.57 C
3189 20-01-2014 07:50:00 4.3 C 95 % 3.57 C
3190 20-01-2014 07:55:00 4.2 C 95 % 3.47 C
3191 20-01-2014 08:00:00 4.2 C 95 % 3.47 C
3192 20-01-2014 08:05:00 4.2 C 95 % 3.47 C
3193 20-01-2014 08:10:00 4.2 C 95 % 3.47 C
3194 20-01-2014 09:20:00 4.2 C 96 % 3.62 C
3195 20-01-2014 09:25:00 4.2 C 96 % 3.62 C
3196 20-01-2014 09:30:00 4.2 C 96 % 3.62 C
3197 20-01-2014 09:35:00 4.3 C 96 % 3.72 C
3198 20-01-2014 09:40:00 4.3 C 96 % 3.72 C
3199 20-01-2014 09:45:00 4.3 C 96 % 3.72 C
3200 20-01-2014 09:50:00 4.3 C 96 % 3.72 C
Sensor: Nr:Datum:Temp:Feuchte:Taupunkt:
Aussen-T/F 3201 20-01-2014 09:55:00 4.3 C 96 % 3.72 C
3202 20-01-2014 10:00:00 4.3 C 96 % 3.72 C
3203 20-01-2014 10:05:00 4.3 C 97 % 3.87 C
3204 20-01-2014 10:10:00 4.3 C 97 % 3.87 C
3205 20-01-2014 10:15:00 4.3 C 96 % 3.72 C
3206 20-01-2014 10:20:00 4.4 C 96 % 3.82 C
3207 20-01-2014 10:25:00 4.4 C 97 % 3.97 C
3208 20-01-2014 10:30:00 4.4 C 97 % 3.97 C
3209 20-01-2014 10:35:00 4.4 C 97 % 3.97 C
3210 20-01-2014 10:40:00 4.4 C 97 % 3.97 C
3211 20-01-2014 10:45:00 4.4 C 97 % 3.97 C
3212 20-01-2014 10:50:00 4.4 C 97 % 3.97 C
3213 20-01-2014 10:55:00 4.4 C 97 % 3.97 C
3214 20-01-2014 11:00:00 4.4 C 97 % 3.97 C
3215 20-01-2014 11:05:00 4.4 C 97 % 3.97 C
3216 20-01-2014 11:10:00 4.5 C 97 % 4.07 C
3217 20-01-2014 11:15:00 4.6 C 97 % 4.17 C
3218 20-01-2014 11:20:00 4.7 C 97 % 4.27 C
3219 20-01-2014 11:25:00 4.7 C 97 % 4.27 C
3220 20-01-2014 11:30:00 4.7 C 97 % 4.27 C
3221 20-01-2014 11:35:00 4.7 C 97 % 4.27 C
3222 20-01-2014 11:40:00 4.7 C 97 % 4.27 C
3223 20-01-2014 11:45:00 4.7 C 97 % 4.27 C
3224 20-01-2014 12:25:00 4.8 C 96 % 4.22 C
3225 20-01-2014 12:30:00 4.8 C 96 % 4.22 C
Sensor: Nr:Datum:Temp:Feuchte:Taupunkt:
Aussen-T/F 3226 20-01-2014 12:35:00 4.8 C 96 % 4.22 C
3227 20-01-2014 12:40:00 4.8 C 96 % 4.22 C
3228 20-01-2014 12:45:00 4.8 C 96 % 4.22 C
3229 20-01-2014 12:50:00 4.8 C 96 % 4.22 C
3230 20-01-2014 12:55:00 4.8 C 96 % 4.22 C
3231 20-01-2014 13:00:00 4.8 C 96 % 4.22 C
3232 20-01-2014 13:05:00 4.8 C 96 % 4.22 C
3233 20-01-2014 13:10:00 4.8 C 96 % 4.22 C
3234 20-01-2014 13:15:00 4.8 C 96 % 4.22 C
3235 20-01-2014 13:20:00 4.8 C 96 % 4.22 C
3236 20-01-2014 13:25:00 4.8 C 96 % 4.22 C
3237 20-01-2014 13:30:00 4.8 C 96 % 4.22 C
3238 20-01-2014 13:35:00 4.8 C 96 % 4.22 C
3239 20-01-2014 13:40:00 4.8 C 96 % 4.22 C
3240 20-01-2014 13:45:00 4.8 C 96 % 4.22 C
3241 20-01-2014 13:50:00 4.8 C 96 % 4.22 C
3242 20-01-2014 13:55:00 4.7 C 96 % 4.12 C
3243 20-01-2014 14:00:00 4.7 C 96 % 4.12 C
3244 20-01-2014 14:05:00 4.7 C 95 % 3.97 C
3245 20-01-2014 14:10:00 4.7 C 95 % 3.97 C
3246 20-01-2014 14:15:00 4.7 C 95 % 3.97 C
3247 20-01-2014 14:20:00 4.7 C 95 % 3.97 C
3248 20-01-2014 14:25:00 4.7 C 95 % 3.97 C
3249 20-01-2014 14:30:00 4.7 C 95 % 3.97 C
3250 20-01-2014 14:35:00 4.7 C 95 % 3.97 C
Sensor: Nr:Datum:Temp:Feuchte:Taupunkt:
Aussen-T/F 3251 20-01-2014 14:40:00 4.7 C 95 % 3.97 C
3252 20-01-2014 14:45:00 4.7 C 94 % 3.82 C
3253 20-01-2014 14:50:00 4.7 C 94 % 3.82 C
3254 20-01-2014 14:55:00 4.7 C 94 % 3.82 C
3255 20-01-2014 15:00:00 4.7 C 94 % 3.82 C
3256 20-01-2014 15:05:00 4.7 C 94 % 3.82 C
3257 20-01-2014 15:10:00 4.6 C 94 % 3.72 C
3258 20-01-2014 15:15:00 4.6 C 94 % 3.72 C
3259 20-01-2014 15:20:00 4.6 C 94 % 3.72 C
3260 20-01-2014 15:25:00 4.6 C 94 % 3.72 C
3261 20-01-2014 15:30:00 4.6 C 94 % 3.72 C
3262 20-01-2014 15:35:00 4.6 C 94 % 3.72 C
3263 20-01-2014 15:40:00 4.6 C 94 % 3.72 C
3264 20-01-2014 15:45:00 4.6 C 94 % 3.72 C
3265 20-01-2014 15:50:00 4.6 C 94 % 3.72 C
3266 20-01-2014 15:55:00 4.6 C 94 % 3.72 C
3267 20-01-2014 16:00:00 4.6 C 94 % 3.72 C
3268 20-01-2014 16:05:00 4.6 C 94 % 3.72 C
3269 20-01-2014 16:10:00 4.6 C 94 % 3.72 C
3270 20-01-2014 16:15:00 4.6 C 94 % 3.72 C
3271 20-01-2014 16:20:00 4.6 C 94 % 3.72 C
3272 20-01-2014 16:25:00 4.6 C 94 % 3.72 C
3273 20-01-2014 16:30:00 4.6 C 94 % 3.72 C
3274 20-01-2014 16:35:00 4.6 C 94 % 3.72 C
3275 20-01-2014 16:40:00 4.6 C 94 % 3.72 C
Sensor: Nr:Datum:Temp:Feuchte:Taupunkt:
Aussen-T/F 3276 20-01-2014 16:45:00 4.6 C 94 % 3.72 C
3277 20-01-2014 16:50:00 4.5 C 94 % 3.62 C
3278 20-01-2014 16:55:00 4.5 C 94 % 3.62 C
3279 20-01-2014 17:00:00 4.5 C 94 % 3.62 C
3280 20-01-2014 17:05:00 4.5 C 94 % 3.62 C
3281 20-01-2014 17:10:00 4.5 C 95 % 3.77 C
3282 20-01-2014 17:15:00 4.5 C 94 % 3.62 C
3283 20-01-2014 17:20:00 4.5 C 94 % 3.62 C
3284 20-01-2014 17:25:00 4.5 C 93 % 3.47 C
3285 20-01-2014 17:30:00 4.6 C 93 % 3.57 C
3286 20-01-2014 17:35:00 4.6 C 93 % 3.57 C
3287 20-01-2014 17:40:00 4.6 C 93 % 3.57 C
3288 20-01-2014 17:45:00 4.6 C 93 % 3.57 C
3289 20-01-2014 17:50:00 4.6 C 92 % 3.42 C
3290 20-01-2014 17:55:00 4.6 C 93 % 3.57 C
3291 20-01-2014 18:00:00 4.7 C 93 % 3.67 C
3292 20-01-2014 18:05:00 4.6 C 93 % 3.57 C
3293 20-01-2014 18:10:00 4.7 C 93 % 3.67 C
3294 20-01-2014 18:15:00 4.6 C 93 % 3.57 C
3295 20-01-2014 18:20:00 4.6 C 93 % 3.57 C
3296 20-01-2014 18:25:00 4.6 C 93 % 3.57 C
3297 20-01-2014 18:30:00 4.6 C 93 % 3.57 C
3298 20-01-2014 18:35:00 4.6 C 92 % 3.42 C
3299 20-01-2014 18:40:00 4.6 C 92 % 3.42 C
3300 20-01-2014 18:45:00 4.6 C 92 % 3.42 C
Sensor: Nr:Datum:Temp:Feuchte:Taupunkt:
Aussen-T/F 3301 20-01-2014 18:50:00 4.6 C 92 % 3.42 C
3302 20-01-2014 18:55:00 4.6 C 92 % 3.42 C
3303 20-01-2014 19:00:00 4.6 C 92 % 3.42 C
3304 20-01-2014 19:05:00 4.6 C 92 % 3.42 C
3305 20-01-2014 19:10:00 4.6 C 92 % 3.42 C
3306 20-01-2014 19:15:00 4.5 C 92 % 3.32 C
3307 20-01-2014 19:20:00 4.5 C 92 % 3.32 C
3308 20-01-2014 19:25:00 4.4 C 92 % 3.22 C
3309 20-01-2014 19:30:00 4.4 C 92 % 3.22 C
3310 20-01-2014 19:35:00 4.4 C 92 % 3.22 C
3311 20-01-2014 19:40:00 4.3 C 93 % 3.27 C
3312 20-01-2014 19:45:00 4.3 C 93 % 3.27 C
3313 20-01-2014 19:50:00 4.3 C 93 % 3.27 C
3314 20-01-2014 19:55:00 4.2 C 93 % 3.17 C
3315 20-01-2014 20:00:00 4.2 C 93 % 3.17 C
3316 20-01-2014 20:05:00 4.2 C 93 % 3.17 C
3317 20-01-2014 20:10:00 4.2 C 93 % 3.17 C
3318 20-01-2014 20:15:00 4.2 C 93 % 3.17 C
3319 20-01-2014 20:20:00 4.1 C 93 % 3.07 C
3320 20-01-2014 20:25:00 4.1 C 93 % 3.07 C
3321 20-01-2014 20:30:00 4.1 C 94 % 3.22 C
3322 20-01-2014 20:35:00 4.1 C 94 % 3.22 C
3323 20-01-2014 20:40:00 4.1 C 94 % 3.22 C
3324 20-01-2014 20:45:00 4.1 C 94 % 3.22 C
3325 20-01-2014 20:50:00 4.1 C 94 % 3.22 C
Sensor: Nr:Datum:Temp:Feuchte:Taupunkt:
Aussen-T/F 3326 20-01-2014 20:55:00 4 C 94 % 3.12 C
3327 20-01-2014 21:00:00 4 C 94 % 3.12 C
3328 20-01-2014 21:05:00 4 C 94 % 3.12 C
3329 20-01-2014 21:10:00 4 C 94 % 3.12 C
3330 20-01-2014 21:15:00 4 C 94 % 3.12 C
3331 20-01-2014 21:20:00 4 C 94 % 3.12 C
3332 20-01-2014 21:25:00 4 C 94 % 3.12 C
3333 20-01-2014 21:30:00 3.9 C 95 % 3.17 C
3334 20-01-2014 21:35:00 3.9 C 95 % 3.17 C
3335 20-01-2014 21:40:00 3.9 C 95 % 3.17 C
3336 20-01-2014 21:45:00 3.9 C 95 % 3.17 C
3337 20-01-2014 21:50:00 3.9 C 95 % 3.17 C
3338 20-01-2014 21:55:00 3.9 C 95 % 3.17 C
3339 20-01-2014 22:00:00 3.8 C 95 % 3.07 C
3340 20-01-2014 22:05:00 3.8 C 95 % 3.07 C
3341 20-01-2014 22:10:00 3.8 C 96 % 3.22 C
3342 20-01-2014 22:15:00 3.8 C 96 % 3.22 C
3343 20-01-2014 22:20:00 3.8 C 96 % 3.22 C
3344 20-01-2014 22:25:00 3.8 C 96 % 3.22 C
3345 20-01-2014 22:30:00 3.8 C 96 % 3.22 C
3346 20-01-2014 22:35:00 3.8 C 96 % 3.22 C
3347 20-01-2014 22:40:00 3.9 C 96 % 3.32 C
3348 20-01-2014 22:45:00 3.8 C 96 % 3.22 C
3349 20-01-2014 22:50:00 3.8 C 96 % 3.22 C
3350 20-01-2014 22:55:00 3.8 C 96 % 3.22 C
Sensor: Nr:Datum:Temp:Feuchte:Taupunkt:
Aussen-T/F 3351 20-01-2014 23:00:00 3.8 C 96 % 3.22 C
3352 20-01-2014 23:05:00 3.8 C 96 % 3.22 C
3353 20-01-2014 23:10:00 3.8 C 96 % 3.22 C
3354 20-01-2014 23:15:00 3.8 C 96 % 3.22 C
3355 20-01-2014 23:20:00 3.8 C 96 % 3.22 C
3356 20-01-2014 23:25:00 3.8 C 96 % 3.22 C
3357 20-01-2014 23:30:00 3.8 C 96 % 3.22 C
3358 20-01-2014 23:35:00 3.8 C 96 % 3.22 C
3359 20-01-2014 23:40:00 3.7 C 96 % 3.12 C
3360 20-01-2014 23:45:00 3.7 C 96 % 3.12 C
3361 20-01-2014 23:50:00 3.7 C 96 % 3.12 C
3362 20-01-2014 23:55:00 3.7 C 96 % 3.12 C
3363 21-01-2014 00:00:00 3.7 C 96 % 3.12 C
3364 21-01-2014 00:05:00 3.7 C 96 % 3.12 C
3365 21-01-2014 00:10:00 3.6 C 96 % 3.02 C
3366 21-01-2014 00:15:00 3.6 C 96 % 3.02 C
3367 21-01-2014 00:20:00 3.6 C 96 % 3.02 C
3368 21-01-2014 00:25:00 3.6 C 96 % 3.02 C
3369 21-01-2014 00:30:00 3.6 C 96 % 3.02 C
3370 21-01-2014 00:35:00 3.6 C 96 % 3.02 C
3371 21-01-2014 00:40:00 3.6 C 96 % 3.02 C
3372 21-01-2014 00:45:00 3.6 C 96 % 3.02 C
3373 21-01-2014 00:50:00 3.6 C 96 % 3.02 C
3374 21-01-2014 00:55:00 3.6 C 96 % 3.02 C
3375 21-01-2014 01:00:00 3.5 C 96 % 2.92 C
Sensor: Nr:Datum:Temp:Feuchte:Taupunkt:
Aussen-T/F 3376 21-01-2014 01:05:00 3.6 C 96 % 3.02 C
3377 21-01-2014 01:10:00 3.5 C 96 % 2.92 C
3378 21-01-2014 01:15:00 3.5 C 96 % 2.92 C
3379 21-01-2014 01:20:00 3.5 C 96 % 2.92 C
3380 21-01-2014 01:25:00 3.4 C 96 % 2.82 C
3381 21-01-2014 01:30:00 3.4 C 96 % 2.82 C
3382 21-01-2014 01:35:00 3.5 C 96 % 2.92 C
3383 21-01-2014 01:40:00 3.5 C 95 % 2.78 C
3384 21-01-2014 01:45:00 3.5 C 95 % 2.78 C
3385 21-01-2014 01:50:00 3.5 C 95 % 2.78 C
3386 21-01-2014 01:55:00 3.5 C 95 % 2.78 C
3387 21-01-2014 02:00:00 3.5 C 95 % 2.78 C
3388 21-01-2014 02:05:00 3.5 C 95 % 2.78 C
3389 21-01-2014 02:10:00 3.4 C 94 % 2.53 C
3390 21-01-2014 02:15:00 3.4 C 93 % 2.38 C
3391 21-01-2014 02:20:00 3.5 C 93 % 2.48 C
3392 21-01-2014 02:25:00 3.5 C 93 % 2.48 C
3393 21-01-2014 02:30:00 3.4 C 92 % 2.23 C
3394 21-01-2014 02:35:00 3.4 C 92 % 2.23 C
3395 21-01-2014 02:40:00 3.3 C 92 % 2.13 C
3396 21-01-2014 02:45:00 3.3 C 92 % 2.13 C
3397 21-01-2014 02:50:00 3.3 C 92 % 2.13 C
3398 21-01-2014 02:55:00 3.3 C 92 % 2.13 C
3399 21-01-2014 03:00:00 3.3 C 92 % 2.13 C
3400 21-01-2014 03:05:00 3.3 C 92 % 2.13 C
Sensor: Nr:Datum:Temp:Feuchte:Taupunkt:
Aussen-T/F 3401 21-01-2014 03:10:00 3.2 C 92 % 2.03 C
3402 21-01-2014 03:15:00 3.2 C 93 % 2.18 C
3403 21-01-2014 03:20:00 3.2 C 93 % 2.18 C
3404 21-01-2014 03:25:00 3.2 C 93 % 2.18 C
3405 21-01-2014 03:30:00 3.2 C 93 % 2.18 C
3406 21-01-2014 03:35:00 3.1 C 93 % 2.08 C
3407 21-01-2014 03:40:00 3.1 C 93 % 2.08 C
3408 21-01-2014 03:45:00 3.1 C 93 % 2.08 C
3409 21-01-2014 03:50:00 3 C 93 % 1.98 C
3410 21-01-2014 03:55:00 3.1 C 93 % 2.08 C
3411 21-01-2014 04:00:00 3 C 93 % 1.98 C
3412 21-01-2014 04:05:00 3 C 93 % 1.98 C
3413 21-01-2014 04:10:00 3 C 93 % 1.98 C
3414 21-01-2014 04:15:00 3 C 93 % 1.98 C
3415 21-01-2014 04:20:00 3 C 93 % 1.98 C
3416 21-01-2014 04:25:00 2.9 C 93 % 1.88 C
3417 21-01-2014 04:30:00 2.9 C 93 % 1.88 C
3418 21-01-2014 04:35:00 2.9 C 93 % 1.88 C
3419 21-01-2014 04:40:00 2.9 C 93 % 1.88 C
3420 21-01-2014 04:45:00 2.9 C 93 % 1.88 C
3421 21-01-2014 04:50:00 2.9 C 93 % 1.88 C
3422 21-01-2014 04:55:00 2.9 C 93 % 1.88 C
3423 21-01-2014 05:00:00 2.9 C 93 % 1.88 C
3424 21-01-2014 05:05:00 2.9 C 93 % 1.88 C
3425 21-01-2014 05:10:00 2.9 C 93 % 1.88 C
Sensor: Nr:Datum:Temp:Feuchte:Taupunkt:
Aussen-T/F 3426 21-01-2014 05:15:00 2.9 C 93 % 1.88 C
3427 21-01-2014 05:20:00 2.9 C 93 % 1.88 C
3428 21-01-2014 05:25:00 2.9 C 93 % 1.88 C
3429 21-01-2014 05:30:00 2.9 C 92 % 1.73 C
3430 21-01-2014 05:35:00 2.9 C 93 % 1.88 C
3431 21-01-2014 05:40:00 2.8 C 92 % 1.63 C
3432 21-01-2014 05:45:00 2.8 C 92 % 1.63 C
3433 21-01-2014 05:50:00 2.9 C 92 % 1.73 C
3434 21-01-2014 05:55:00 2.9 C 92 % 1.73 C
3435 21-01-2014 06:00:00 2.8 C 92 % 1.63 C
3436 21-01-2014 06:05:00 2.9 C 92 % 1.73 C
3437 21-01-2014 06:10:00 2.9 C 92 % 1.73 C
3438 21-01-2014 06:15:00 2.8 C 92 % 1.63 C
3439 21-01-2014 06:20:00 2.9 C 92 % 1.73 C
3440 21-01-2014 06:25:00 2.9 C 92 % 1.73 C
3441 21-01-2014 06:30:00 2.9 C 91 % 1.58 C
3442 21-01-2014 06:35:00 2.9 C 91 % 1.58 C
3443 21-01-2014 06:40:00 2.9 C 91 % 1.58 C
3444 21-01-2014 06:45:00 2.9 C 91 % 1.58 C
3445 21-01-2014 06:50:00 2.9 C 91 % 1.58 C
3446 21-01-2014 06:55:00 2.9 C 91 % 1.58 C
3447 21-01-2014 07:00:00 2.9 C 91 % 1.58 C
3448 21-01-2014 07:05:00 2.9 C 91 % 1.58 C
3449 21-01-2014 07:10:00 2.9 C 91 % 1.58 C
3450 21-01-2014 07:15:00 2.9 C 91 % 1.58 C
Sensor: Nr:Datum:Temp:Feuchte:Taupunkt:
Aussen-T/F 3451 21-01-2014 07:20:00 2.9 C 91 % 1.58 C
3452 21-01-2014 07:25:00 2.9 C 91 % 1.58 C
3453 21-01-2014 07:30:00 2.8 C 92 % 1.63 C
3454 21-01-2014 07:35:00 2.8 C 92 % 1.63 C
3455 21-01-2014 07:40:00 2.8 C 92 % 1.63 C
3456 21-01-2014 07:45:00 2.8 C 92 % 1.63 C
3457 21-01-2014 07:50:00 2.7 C 93 % 1.68 C
3458 21-01-2014 07:55:00 2.7 C 93 % 1.68 C
3459 21-01-2014 08:00:00 2.7 C 93 % 1.68 C
3460 21-01-2014 08:05:00 2.7 C 93 % 1.68 C
3461 21-01-2014 08:10:00 2.7 C 93 % 1.68 C
3462 21-01-2014 08:15:00 2.7 C 93 % 1.68 C
3463 21-01-2014 08:20:00 2.7 C 93 % 1.68 C
3464 21-01-2014 08:25:00 2.7 C 93 % 1.68 C
3465 21-01-2014 08:30:00 2.7 C 93 % 1.68 C
3466 21-01-2014 08:35:00 2.7 C 93 % 1.68 C
3467 21-01-2014 08:40:00 2.7 C 93 % 1.68 C
3468 21-01-2014 08:45:00 2.7 C 93 % 1.68 C
3469 21-01-2014 08:50:00 2.7 C 93 % 1.68 C
3470 21-01-2014 08:55:00 2.7 C 93 % 1.68 C
3471 21-01-2014 09:00:00 2.7 C 94 % 1.83 C
3472 21-01-2014 09:05:00 2.7 C 94 % 1.83 C
3473 21-01-2014 09:10:00 2.8 C 94 % 1.93 C
3474 21-01-2014 09:15:00 2.8 C 94 % 1.93 C
3475 21-01-2014 09:20:00 2.8 C 94 % 1.93 C
Sensor: Nr:Datum:Temp:Feuchte:Taupunkt:
Aussen-T/F 3476 21-01-2014 09:25:00 2.8 C 94 % 1.93 C
3477 21-01-2014 09:30:00 2.8 C 94 % 1.93 C
3478 21-01-2014 09:35:00 2.8 C 94 % 1.93 C
3479 21-01-2014 09:40:00 2.8 C 94 % 1.93 C
3480 21-01-2014 09:45:00 2.9 C 94 % 2.03 C
3481 21-01-2014 09:50:00 2.9 C 94 % 2.03 C
3482 21-01-2014 09:55:00 2.9 C 94 % 2.03 C
3483 21-01-2014 10:00:00 2.9 C 93 % 1.88 C
3484 21-01-2014 10:05:00 3 C 93 % 1.98 C
3485 21-01-2014 10:10:00 3 C 93 % 1.98 C
3486 21-01-2014 10:15:00 3.1 C 93 % 2.08 C
3487 21-01-2014 10:20:00 3.1 C 93 % 2.08 C
3488 21-01-2014 10:25:00 3.1 C 93 % 2.08 C
3489 21-01-2014 10:30:00 3.2 C 93 % 2.18 C
3490 21-01-2014 10:35:00 3.2 C 93 % 2.18 C
3491 21-01-2014 10:40:00 3.2 C 92 % 2.03 C
3492 21-01-2014 10:45:00 3.2 C 92 % 2.03 C
3493 21-01-2014 10:50:00 3.2 C 92 % 2.03 C
3494 21-01-2014 10:55:00 3.2 C 92 % 2.03 C
3495 21-01-2014 11:00:00 3.3 C 92 % 2.13 C
3496 21-01-2014 11:05:00 3.3 C 93 % 2.28 C
3497 21-01-2014 11:10:00 3.3 C 92 % 2.13 C
3498 21-01-2014 11:15:00 3.3 C 92 % 2.13 C
3499 21-01-2014 11:20:00 3.3 C 93 % 2.28 C
3500 21-01-2014 11:25:00 3.3 C 93 % 2.28 C
Sensor: Nr:Datum:Temp:Feuchte:Taupunkt:
Aussen-T/F 3501 21-01-2014 11:30:00 3.3 C 93 % 2.28 C
3502 21-01-2014 11:35:00 3.3 C 93 % 2.28 C
3503 21-01-2014 11:40:00 3.3 C 93 % 2.28 C
3504 21-01-2014 11:45:00 3.3 C 93 % 2.28 C
3505 21-01-2014 11:50:00 3.3 C 93 % 2.28 C
3506 21-01-2014 11:55:00 3.3 C 93 % 2.28 C
3507 21-01-2014 12:00:00 3.3 C 94 % 2.43 C
3508 21-01-2014 12:05:00 3.3 C 94 % 2.43 C
3509 21-01-2014 12:10:00 3.3 C 93 % 2.28 C
3510 21-01-2014 12:15:00 3.3 C 93 % 2.28 C
3511 21-01-2014 12:20:00 3.3 C 93 % 2.28 C
3512 21-01-2014 12:25:00 3.3 C 93 % 2.28 C
3513 21-01-2014 12:30:00 3.4 C 93 % 2.38 C
3514 21-01-2014 12:35:00 3.4 C 93 % 2.38 C
3515 21-01-2014 12:40:00 3.4 C 93 % 2.38 C
3516 21-01-2014 12:45:00 3.5 C 93 % 2.48 C
3517 21-01-2014 12:50:00 3.5 C 93 % 2.48 C
3518 21-01-2014 12:55:00 3.6 C 93 % 2.58 C
3519 21-01-2014 13:00:00 3.6 C 92 % 2.42 C
3520 21-01-2014 13:05:00 3.7 C 92 % 2.52 C
3521 21-01-2014 13:10:00 3.7 C 92 % 2.52 C
3522 21-01-2014 13:15:00 3.8 C 91 % 2.47 C
3523 21-01-2014 13:20:00 3.8 C 91 % 2.47 C
3524 21-01-2014 13:25:00 3.9 C 91 % 2.57 C
3525 21-01-2014 13:30:00 3.9 C 91 % 2.57 C
Sensor: Nr:Datum:Temp:Feuchte:Taupunkt:
Aussen-T/F 3526 21-01-2014 13:35:00 3.9 C 91 % 2.57 C
3527 21-01-2014 13:40:00 4 C 92 % 2.82 C
3528 21-01-2014 13:45:00 4 C 91 % 2.67 C
3529 21-01-2014 13:50:00 4.1 C 91 % 2.77 C
3530 21-01-2014 13:55:00 4.1 C 91 % 2.77 C
3531 21-01-2014 14:00:00 4.1 C 91 % 2.77 C
3532 21-01-2014 14:05:00 4.1 C 91 % 2.77 C
3533 21-01-2014 14:10:00 4.1 C 91 % 2.77 C
3534 21-01-2014 14:15:00 4.2 C 91 % 2.87 C
3535 21-01-2014 14:20:00 4.2 C 91 % 2.87 C
3536 21-01-2014 14:25:00 4.2 C 91 % 2.87 C
3537 21-01-2014 14:30:00 4.2 C 91 % 2.87 C
3538 21-01-2014 14:35:00 4.2 C 91 % 2.87 C
3539 21-01-2014 14:40:00 4.2 C 91 % 2.87 C
3540 21-01-2014 14:45:00 4.2 C 91 % 2.87 C
3541 21-01-2014 14:50:00 4.2 C 91 % 2.87 C
3542 21-01-2014 14:55:00 4.2 C 91 % 2.87 C
3543 21-01-2014 15:00:00 4.2 C 91 % 2.87 C
3544 21-01-2014 15:05:00 4.3 C 91 % 2.96 C
3545 21-01-2014 15:10:00 4.3 C 91 % 2.96 C
3546 21-01-2014 15:15:00 4.3 C 91 % 2.96 C
3547 21-01-2014 15:20:00 4.3 C 91 % 2.96 C
3548 21-01-2014 15:25:00 4.3 C 91 % 2.96 C
3549 21-01-2014 15:30:00 4.3 C 91 % 2.96 C
3550 21-01-2014 15:35:00 4.2 C 90 % 2.71 C
Sensor: Nr:Datum:Temp:Feuchte:Taupunkt:
Aussen-T/F 3551 21-01-2014 15:40:00 4.2 C 91 % 2.87 C
3552 21-01-2014 15:45:00 4.2 C 91 % 2.87 C
3553 21-01-2014 15:50:00 4.1 C 91 % 2.77 C
3554 21-01-2014 15:55:00 4.1 C 91 % 2.77 C
3555 21-01-2014 16:00:00 4.1 C 91 % 2.77 C
3556 21-01-2014 16:05:00 4.1 C 92 % 2.92 C
3557 21-01-2014 16:10:00 4.1 C 92 % 2.92 C
3558 21-01-2014 16:15:00 4.1 C 92 % 2.92 C
3559 21-01-2014 16:20:00 4.1 C 93 % 3.07 C
3560 21-01-2014 16:25:00 4.1 C 93 % 3.07 C
3561 21-01-2014 16:30:00 4 C 93 % 2.97 C
3562 21-01-2014 16:35:00 4 C 93 % 2.97 C
3563 21-01-2014 16:40:00 3.9 C 93 % 2.87 C
3564 21-01-2014 16:45:00 3.9 C 93 % 2.87 C
3565 21-01-2014 16:50:00 3.9 C 94 % 3.02 C
3566 21-01-2014 16:55:00 3.9 C 94 % 3.02 C
3567 21-01-2014 17:00:00 3.9 C 94 % 3.02 C
3568 21-01-2014 17:05:00 3.9 C 94 % 3.02 C
3569 21-01-2014 17:10:00 3.9 C 94 % 3.02 C
3570 21-01-2014 17:15:00 3.9 C 94 % 3.02 C
3571 21-01-2014 17:20:00 3.8 C 94 % 2.93 C
3572 21-01-2014 17:25:00 3.8 C 94 % 2.93 C
3573 21-01-2014 17:30:00 3.8 C 95 % 3.07 C
3574 21-01-2014 17:35:00 3.8 C 95 % 3.07 C
3575 21-01-2014 17:40:00 3.8 C 95 % 3.07 C
Sensor: Nr:Datum:Temp:Feuchte:Taupunkt:
Aussen-T/F 3576 21-01-2014 17:45:00 3.8 C 95 % 3.07 C
3577 21-01-2014 17:50:00 3.8 C 95 % 3.07 C
3578 21-01-2014 17:55:00 3.8 C 95 % 3.07 C
3579 21-01-2014 18:00:00 3.8 C 95 % 3.07 C
3580 21-01-2014 18:05:00 3.8 C 95 % 3.07 C
3581 21-01-2014 18:10:00 3.8 C 95 % 3.07 C
3582 21-01-2014 18:15:00 3.8 C 96 % 3.22 C
3583 21-01-2014 18:20:00 3.8 C 96 % 3.22 C
3584 21-01-2014 18:25:00 3.8 C 96 % 3.22 C
3585 21-01-2014 18:30:00 3.8 C 96 % 3.22 C
3586 21-01-2014 18:35:00 3.8 C 96 % 3.22 C
3587 21-01-2014 18:40:00 3.8 C 96 % 3.22 C
3588 21-01-2014 18:45:00 3.8 C 96 % 3.22 C
3589 21-01-2014 18:50:00 3.8 C 96 % 3.22 C
3590 21-01-2014 18:55:00 3.8 C 96 % 3.22 C
3591 21-01-2014 19:00:00 3.8 C 96 % 3.22 C
3592 21-01-2014 19:05:00 3.8 C 96 % 3.22 C
3593 21-01-2014 19:10:00 3.9 C 96 % 3.32 C
3594 21-01-2014 19:15:00 3.9 C 96 % 3.32 C
3595 21-01-2014 19:20:00 3.9 C 96 % 3.32 C
3596 21-01-2014 19:25:00 3.9 C 96 % 3.32 C
3597 21-01-2014 19:30:00 3.9 C 96 % 3.32 C
3598 21-01-2014 19:35:00 3.9 C 96 % 3.32 C
3599 21-01-2014 19:40:00 4 C 96 % 3.42 C
3600 21-01-2014 19:45:00 3.9 C 96 % 3.32 C
Sensor: Nr:Datum:Temp:Feuchte:Taupunkt:
Aussen-T/F 3601 21-01-2014 19:50:00 3.9 C 96 % 3.32 C
3602 21-01-2014 19:55:00 4 C 96 % 3.42 C
3603 21-01-2014 20:00:00 4 C 96 % 3.42 C
3604 21-01-2014 20:05:00 4 C 96 % 3.42 C
3605 21-01-2014 20:10:00 4 C 96 % 3.42 C
3606 21-01-2014 20:15:00 4 C 96 % 3.42 C
3607 21-01-2014 20:20:00 4 C 96 % 3.42 C
3608 21-01-2014 20:25:00 4 C 96 % 3.42 C
3609 21-01-2014 20:30:00 3.9 C 96 % 3.32 C
3610 21-01-2014 20:35:00 4 C 96 % 3.42 C
3611 21-01-2014 20:40:00 4 C 96 % 3.42 C
3612 21-01-2014 20:45:00 4 C 96 % 3.42 C
3613 21-01-2014 20:50:00 3.9 C 96 % 3.32 C
3614 21-01-2014 20:55:00 3.9 C 96 % 3.32 C
3615 21-01-2014 21:00:00 3.9 C 96 % 3.32 C
3616 21-01-2014 21:05:00 3.9 C 96 % 3.32 C
3617 21-01-2014 21:10:00 3.9 C 96 % 3.32 C
3618 21-01-2014 21:15:00 3.9 C 96 % 3.32 C
3619 21-01-2014 21:20:00 3.9 C 96 % 3.32 C
3620 21-01-2014 21:25:00 3.9 C 96 % 3.32 C
3621 21-01-2014 21:30:00 3.9 C 96 % 3.32 C
3622 21-01-2014 21:35:00 3.9 C 96 % 3.32 C
3623 21-01-2014 21:40:00 3.9 C 96 % 3.32 C
3624 21-01-2014 21:45:00 3.9 C 96 % 3.32 C
3625 21-01-2014 21:50:00 3.9 C 96 % 3.32 C
Sensor: Nr:Datum:Temp:Feuchte:Taupunkt:
Aussen-T/F 3626 21-01-2014 21:55:00 3.9 C 96 % 3.32 C
3627 21-01-2014 22:00:00 3.9 C 96 % 3.32 C
3628 21-01-2014 22:05:00 3.9 C 96 % 3.32 C
3629 21-01-2014 22:10:00 3.9 C 96 % 3.32 C
3630 21-01-2014 22:15:00 3.9 C 96 % 3.32 C
3631 21-01-2014 22:20:00 3.9 C 96 % 3.32 C
3632 21-01-2014 22:25:00 3.9 C 96 % 3.32 C
3633 21-01-2014 22:30:00 3.9 C 96 % 3.32 C
3634 21-01-2014 22:35:00 3.9 C 96 % 3.32 C
3635 21-01-2014 22:40:00 3.9 C 96 % 3.32 C
3636 21-01-2014 22:45:00 3.9 C 96 % 3.32 C
3637 21-01-2014 22:50:00 3.9 C 96 % 3.32 C
3638 21-01-2014 22:55:00 3.9 C 96 % 3.32 C
3639 21-01-2014 23:00:00 3.9 C 96 % 3.32 C
3640 21-01-2014 23:05:00 3.9 C 96 % 3.32 C
3641 21-01-2014 23:10:00 3.8 C 96 % 3.22 C
3642 21-01-2014 23:15:00 3.8 C 96 % 3.22 C
3643 21-01-2014 23:20:00 3.8 C 96 % 3.22 C
3644 21-01-2014 23:25:00 3.8 C 96 % 3.22 C
3645 21-01-2014 23:30:00 3.8 C 96 % 3.22 C
3646 21-01-2014 23:35:00 3.8 C 96 % 3.22 C
3647 21-01-2014 23:40:00 3.8 C 96 % 3.22 C
3648 21-01-2014 23:45:00 3.8 C 96 % 3.22 C
3649 21-01-2014 23:50:00 3.8 C 96 % 3.22 C
3650 21-01-2014 23:55:00 3.8 C 96 % 3.22 C
Sensor: Nr:Datum:Temp:Feuchte:Taupunkt:
Aussen-T/F 3651 22-01-2014 00:00:00 3.8 C 96 % 3.22 C
3652 22-01-2014 00:05:00 3.8 C 96 % 3.22 C
3653 22-01-2014 00:10:00 3.8 C 96 % 3.22 C
3654 22-01-2014 00:15:00 3.8 C 96 % 3.22 C
3655 22-01-2014 00:20:00 3.8 C 96 % 3.22 C
3656 22-01-2014 00:25:00 3.8 C 96 % 3.22 C
3657 22-01-2014 00:30:00 3.8 C 96 % 3.22 C
3658 22-01-2014 00:35:00 3.8 C 97 % 3.37 C
3659 22-01-2014 00:40:00 3.8 C 97 % 3.37 C
3660 22-01-2014 00:45:00 3.9 C 96 % 3.32 C
3661 22-01-2014 00:50:00 3.9 C 96 % 3.32 C
3662 22-01-2014 00:55:00 3.9 C 96 % 3.32 C
3663 22-01-2014 01:00:00 3.9 C 96 % 3.32 C
3664 22-01-2014 01:05:00 3.9 C 96 % 3.32 C
3665 22-01-2014 01:10:00 3.9 C 96 % 3.32 C
3666 22-01-2014 01:15:00 3.9 C 96 % 3.32 C
3667 22-01-2014 01:20:00 3.9 C 96 % 3.32 C
3668 22-01-2014 01:25:00 3.9 C 96 % 3.32 C
3669 22-01-2014 01:30:00 3.9 C 96 % 3.32 C
3670 22-01-2014 01:35:00 3.9 C 96 % 3.32 C
3671 22-01-2014 01:40:00 3.9 C 96 % 3.32 C
3672 22-01-2014 01:45:00 3.9 C 96 % 3.32 C
3673 22-01-2014 01:50:00 4 C 96 % 3.42 C
3674 22-01-2014 01:55:00 4 C 96 % 3.42 C
3675 22-01-2014 02:00:00 4 C 97 % 3.57 C
Sensor: Nr:Datum:Temp:Feuchte:Taupunkt:
Aussen-T/F 3676 22-01-2014 02:05:00 4 C 97 % 3.57 C
3677 22-01-2014 02:10:00 4 C 97 % 3.57 C
3678 22-01-2014 02:15:00 4 C 97 % 3.57 C
3679 22-01-2014 02:20:00 4 C 97 % 3.57 C
3680 22-01-2014 02:25:00 4 C 97 % 3.57 C
3681 22-01-2014 02:30:00 4 C 97 % 3.57 C
3682 22-01-2014 02:35:00 4 C 97 % 3.57 C
3683 22-01-2014 02:40:00 4 C 97 % 3.57 C
3684 22-01-2014 02:45:00 4 C 97 % 3.57 C
3685 22-01-2014 02:50:00 4 C 97 % 3.57 C
3686 22-01-2014 02:55:00 4 C 97 % 3.57 C
3687 22-01-2014 03:00:00 4 C 97 % 3.57 C
3688 22-01-2014 03:05:00 4 C 97 % 3.57 C
3689 22-01-2014 03:10:00 4 C 97 % 3.57 C
3690 22-01-2014 03:15:00 4 C 97 % 3.57 C
3691 22-01-2014 03:20:00 4 C 97 % 3.57 C
3692 22-01-2014 03:25:00 4 C 97 % 3.57 C
3693 22-01-2014 03:30:00 4.1 C 97 % 3.67 C
3694 22-01-2014 03:35:00 4 C 97 % 3.57 C
3695 22-01-2014 03:40:00 4 C 97 % 3.57 C
3696 22-01-2014 03:45:00 4 C 97 % 3.57 C
3697 22-01-2014 03:50:00 4.1 C 97 % 3.67 C
3698 22-01-2014 03:55:00 4.1 C 97 % 3.67 C
3699 22-01-2014 04:00:00 4.1 C 97 % 3.67 C
3700 22-01-2014 04:05:00 4.1 C 97 % 3.67 C
Sensor: Nr:Datum:Temp:Feuchte:Taupunkt:
Aussen-T/F 3701 22-01-2014 04:10:00 4.1 C 97 % 3.67 C
3702 22-01-2014 04:15:00 4.1 C 97 % 3.67 C
3703 22-01-2014 04:20:00 4.1 C 97 % 3.67 C
3704 22-01-2014 04:25:00 4.1 C 97 % 3.67 C
3705 22-01-2014 04:30:00 4.1 C 97 % 3.67 C
3706 22-01-2014 04:35:00 4.1 C 97 % 3.67 C
3707 22-01-2014 04:40:00 4 C 97 % 3.57 C
3708 22-01-2014 04:45:00 4 C 96 % 3.42 C
3709 22-01-2014 04:50:00 4 C 96 % 3.42 C
3710 22-01-2014 04:55:00 3.9 C 96 % 3.32 C
3711 22-01-2014 05:00:00 3.9 C 96 % 3.32 C
3712 22-01-2014 05:05:00 3.9 C 96 % 3.32 C
3713 22-01-2014 05:10:00 3.9 C 96 % 3.32 C
3714 22-01-2014 05:15:00 3.8 C 96 % 3.22 C
3715 22-01-2014 05:20:00 3.8 C 96 % 3.22 C
3716 22-01-2014 05:25:00 3.8 C 96 % 3.22 C
3717 22-01-2014 05:30:00 3.8 C 96 % 3.22 C
3718 22-01-2014 05:35:00 3.8 C 96 % 3.22 C
3719 22-01-2014 05:40:00 3.8 C 96 % 3.22 C
3720 22-01-2014 05:45:00 3.8 C 95 % 3.07 C
3721 22-01-2014 05:50:00 3.8 C 95 % 3.07 C
3722 22-01-2014 05:55:00 3.8 C 95 % 3.07 C
3723 22-01-2014 06:00:00 3.8 C 94 % 2.93 C
3724 22-01-2014 06:05:00 3.7 C 94 % 2.83 C
3725 22-01-2014 06:10:00 3.7 C 94 % 2.83 C
Sensor: Nr:Datum:Temp:Feuchte:Taupunkt:
Aussen-T/F 3726 22-01-2014 06:15:00 3.7 C 93 % 2.68 C
3727 22-01-2014 06:20:00 3.6 C 93 % 2.58 C
3728 22-01-2014 06:25:00 3.6 C 93 % 2.58 C
3729 22-01-2014 06:30:00 3.5 C 93 % 2.48 C
3730 22-01-2014 06:35:00 3.5 C 93 % 2.48 C
3731 22-01-2014 06:40:00 3.5 C 93 % 2.48 C
3732 22-01-2014 06:45:00 3.5 C 93 % 2.48 C
3733 22-01-2014 06:50:00 3.5 C 93 % 2.48 C
3734 22-01-2014 06:55:00 3.4 C 93 % 2.38 C
3735 22-01-2014 07:00:00 3.4 C 93 % 2.38 C
3736 22-01-2014 07:05:00 3.5 C 92 % 2.33 C
3737 22-01-2014 07:10:00 3.5 C 93 % 2.48 C
3738 22-01-2014 07:15:00 3.4 C 92 % 2.23 C
3739 22-01-2014 07:20:00 3.4 C 92 % 2.23 C
3740 22-01-2014 07:25:00 3.4 C 92 % 2.23 C
3741 22-01-2014 07:30:00 3.4 C 92 % 2.23 C
3742 22-01-2014 07:35:00 3.4 C 92 % 2.23 C
3743 22-01-2014 07:40:00 3.4 C 92 % 2.23 C
3744 22-01-2014 07:45:00 3.4 C 92 % 2.23 C
3745 22-01-2014 07:50:00 3.4 C 92 % 2.23 C
3746 22-01-2014 07:55:00 3.4 C 92 % 2.23 C
3747 22-01-2014 08:00:00 3.4 C 92 % 2.23 C
3748 22-01-2014 08:05:00 3.4 C 92 % 2.23 C
3749 22-01-2014 08:10:00 3.4 C 92 % 2.23 C
3750 22-01-2014 08:15:00 3.3 C 92 % 2.13 C
Sensor: Nr:Datum:Temp:Feuchte:Taupunkt:
Aussen-T/F 3751 22-01-2014 08:20:00 3.3 C 93 % 2.28 C
3752 22-01-2014 08:25:00 3.3 C 93 % 2.28 C
3753 22-01-2014 08:30:00 3.3 C 93 % 2.28 C
3754 22-01-2014 08:35:00 3.3 C 93 % 2.28 C
3755 22-01-2014 08:40:00 3.3 C 93 % 2.28 C
3756 22-01-2014 08:45:00 3.4 C 93 % 2.38 C
3757 22-01-2014 08:50:00 3.4 C 93 % 2.38 C
3758 22-01-2014 08:55:00 3.4 C 93 % 2.38 C
3759 22-01-2014 12:20:00 4.8 C 88 % 2.99 C
3760 22-01-2014 12:25:00 4.8 C 88 % 2.99 C
3761 22-01-2014 12:30:00 4.8 C 88 % 2.99 C
3762 22-01-2014 16:50:00 3.4 C 95 % 2.68 C
3763 22-01-2014 16:55:00 3.4 C 95 % 2.68 C
3764 22-01-2014 17:00:00 3.3 C 95 % 2.58 C
3765 22-01-2014 17:05:00 3.2 C 95 % 2.48 C
3766 22-01-2014 17:10:00 3.2 C 95 % 2.48 C
3767 22-01-2014 17:15:00 3.1 C 94 % 2.23 C
3768 22-01-2014 17:20:00 3.1 C 95 % 2.38 C
3769 22-01-2014 17:25:00 3 C 95 % 2.28 C
3770 22-01-2014 17:30:00 2.9 C 94 % 2.03 C
3771 22-01-2014 17:35:00 2.8 C 95 % 2.08 C
3772 22-01-2014 17:40:00 2.8 C 95 % 2.08 C
3773 22-01-2014 17:45:00 2.8 C 95 % 2.08 C
3774 22-01-2014 17:50:00 2.8 C 95 % 2.08 C
3775 22-01-2014 17:55:00 2.7 C 95 % 1.98 C
Sensor: Nr:Datum:Temp:Feuchte:Taupunkt:
Aussen-T/F 3776 22-01-2014 18:00:00 2.8 C 95 % 2.08 C
3777 22-01-2014 18:05:00 2.8 C 95 % 2.08 C
3778 22-01-2014 18:10:00 2.8 C 95 % 2.08 C
3779 22-01-2014 18:15:00 2.8 C 95 % 2.08 C
3780 22-01-2014 18:20:00 2.8 C 95 % 2.08 C
3781 22-01-2014 18:25:00 2.7 C 95 % 1.98 C
3782 22-01-2014 18:30:00 2.7 C 95 % 1.98 C
3783 22-01-2014 18:35:00 2.7 C 95 % 1.98 C
3784 22-01-2014 18:40:00 2.6 C 95 % 1.88 C
3785 22-01-2014 18:45:00 2.5 C 95 % 1.78 C
3786 22-01-2014 18:50:00 2.4 C 95 % 1.68 C
3787 22-01-2014 18:55:00 2.4 C 95 % 1.68 C
3788 22-01-2014 19:00:00 2.4 C 95 % 1.68 C
3789 22-01-2014 19:05:00 2.4 C 95 % 1.68 C
3790 22-01-2014 19:10:00 2.3 C 95 % 1.58 C
3791 22-01-2014 19:15:00 2.3 C 95 % 1.58 C
3792 22-01-2014 19:20:00 2.3 C 96 % 1.73 C
3793 22-01-2014 19:25:00 2.3 C 96 % 1.73 C
3794 22-01-2014 19:30:00 2.3 C 96 % 1.73 C
3795 22-01-2014 19:35:00 2.2 C 96 % 1.63 C
3796 22-01-2014 19:40:00 2.2 C 96 % 1.63 C
3797 22-01-2014 19:45:00 2.2 C 96 % 1.63 C
3798 22-01-2014 19:50:00 2.1 C 96 % 1.53 C
3799 22-01-2014 19:55:00 2 C 96 % 1.43 C
3800 22-01-2014 20:00:00 1.9 C 96 % 1.33 C
Sensor: Nr:Datum:Temp:Feuchte:Taupunkt:
Aussen-T/F 3801 22-01-2014 20:05:00 1.9 C 96 % 1.33 C
3802 22-01-2014 20:10:00 1.8 C 96 % 1.23 C
3803 22-01-2014 20:15:00 1.8 C 96 % 1.23 C
3804 22-01-2014 20:20:00 1.8 C 96 % 1.23 C
3805 22-01-2014 20:25:00 1.7 C 96 % 1.13 C
3806 22-01-2014 20:30:00 1.7 C 96 % 1.13 C
3807 22-01-2014 20:35:00 1.7 C 96 % 1.13 C
3808 22-01-2014 20:40:00 1.7 C 96 % 1.13 C
3809 22-01-2014 20:45:00 1.6 C 96 % 1.03 C
3810 22-01-2014 20:50:00 1.6 C 96 % 1.03 C
3811 22-01-2014 20:55:00 1.6 C 96 % 1.03 C
3812 22-01-2014 21:00:00 1.6 C 96 % 1.03 C
3813 22-01-2014 21:05:00 1.5 C 96 % 0.93 C
3814 22-01-2014 21:10:00 1.5 C 96 % 0.93 C
3815 22-01-2014 21:15:00 1.5 C 96 % 0.93 C
3816 22-01-2014 21:20:00 1.5 C 97 % 1.08 C
3817 22-01-2014 21:25:00 1.6 C 97 % 1.18 C
3818 22-01-2014 21:30:00 1.6 C 97 % 1.18 C
3819 22-01-2014 21:35:00 1.5 C 97 % 1.08 C
3820 22-01-2014 21:40:00 1.6 C 96 % 1.03 C
3821 22-01-2014 21:45:00 1.6 C 97 % 1.18 C
3822 22-01-2014 21:50:00 1.6 C 97 % 1.18 C
3823 22-01-2014 21:55:00 1.6 C 97 % 1.18 C
3824 22-01-2014 22:00:00 1.7 C 97 % 1.28 C
3825 22-01-2014 22:05:00 1.7 C 97 % 1.28 C
Sensor: Nr:Datum:Temp:Feuchte:Taupunkt:
Aussen-T/F 3826 22-01-2014 22:10:00 1.8 C 97 % 1.38 C
3827 22-01-2014 22:15:00 1.8 C 97 % 1.38 C
3828 22-01-2014 22:20:00 1.8 C 97 % 1.38 C
3829 22-01-2014 22:25:00 1.9 C 97 % 1.48 C
3830 22-01-2014 22:30:00 1.9 C 97 % 1.48 C
3831 22-01-2014 22:35:00 1.9 C 97 % 1.48 C
3832 22-01-2014 22:40:00 1.9 C 97 % 1.48 C
3833 23-01-2014 09:35:00 3.4 C 93 % 2.38 C
3834 23-01-2014 09:40:00 3.5 C 93 % 2.48 C
3835 23-01-2014 09:45:00 3.5 C 93 % 2.48 C
3836 23-01-2014 09:50:00 3.5 C 93 % 2.48 C
3837 23-01-2014 09:55:00 3.5 C 93 % 2.48 C
3838 23-01-2014 10:00:00 3.6 C 93 % 2.58 C
3839 23-01-2014 10:05:00 3.6 C 93 % 2.58 C
3840 23-01-2014 10:10:00 3.6 C 93 % 2.58 C
3841 23-01-2014 10:40:00 3.7 C 92 % 2.52 C
3842 23-01-2014 10:45:00 3.7 C 91 % 2.37 C
3843 23-01-2014 10:50:00 3.7 C 91 % 2.37 C
3844 23-01-2014 10:55:00 3.7 C 91 % 2.37 C
3845 23-01-2014 11:00:00 3.7 C 91 % 2.37 C
3846 23-01-2014 11:05:00 3.7 C 91 % 2.37 C
3847 23-01-2014 11:10:00 3.8 C 90 % 2.31 C
3848 23-01-2014 11:15:00 3.7 C 90 % 2.22 C
3849 23-01-2014 11:20:00 3.8 C 90 % 2.31 C
3850 23-01-2014 11:25:00 3.8 C 90 % 2.31 C
Sensor: Nr:Datum:Temp:Feuchte:Taupunkt:
Aussen-T/F 3851 23-01-2014 11:30:00 3.8 C 90 % 2.31 C
3852 23-01-2014 11:55:00 4.1 C 88 % 2.3 C
3853 23-01-2014 12:00:00 4.2 C 88 % 2.39 C
3854 23-01-2014 12:05:00 4.2 C 88 % 2.39 C
3855 23-01-2014 12:10:00 4.3 C 87 % 2.33 C
3856 23-01-2014 12:15:00 4.3 C 87 % 2.33 C
3857 23-01-2014 12:20:00 4.3 C 87 % 2.33 C
3858 23-01-2014 12:25:00 4.3 C 87 % 2.33 C
3859 23-01-2014 12:30:00 4.3 C 87 % 2.33 C
3860 23-01-2014 12:35:00 4.3 C 87 % 2.33 C
3861 23-01-2014 12:40:00 4.3 C 87 % 2.33 C
3862 23-01-2014 12:45:00 4.2 C 87 % 2.23 C
3863 23-01-2014 12:50:00 4.2 C 88 % 2.39 C
3864 23-01-2014 12:55:00 4.3 C 87 % 2.33 C
3865 23-01-2014 13:00:00 4.3 C 87 % 2.33 C
3866 23-01-2014 13:05:00 4.2 C 87 % 2.23 C
3867 23-01-2014 13:10:00 4.3 C 86 % 2.17 C
3868 23-01-2014 13:15:00 4.3 C 86 % 2.17 C
3869 23-01-2014 13:20:00 4.3 C 87 % 2.33 C
3870 23-01-2014 13:25:00 4.4 C 86 % 2.27 C
3871 23-01-2014 13:30:00 4.4 C 86 % 2.27 C
3872 23-01-2014 13:35:00 4.5 C 86 % 2.37 C
3873 23-01-2014 13:40:00 4.5 C 86 % 2.37 C
3874 23-01-2014 13:45:00 4.5 C 86 % 2.37 C
3875 23-01-2014 13:50:00 4.5 C 86 % 2.37 C
Sensor: Nr:Datum:Temp:Feuchte:Taupunkt:
Aussen-T/F 3876 23-01-2014 13:55:00 4.4 C 85 % 2.11 C
3877 23-01-2014 14:00:00 4.4 C 86 % 2.27 C
3878 23-01-2014 14:05:00 4.3 C 86 % 2.17 C
3879 23-01-2014 14:10:00 4.3 C 86 % 2.17 C
3880 23-01-2014 14:15:00 4.3 C 85 % 2.01 C
3881 23-01-2014 14:20:00 4.3 C 85 % 2.01 C
3882 23-01-2014 14:25:00 4.3 C 86 % 2.17 C
3883 23-01-2014 14:30:00 4.3 C 85 % 2.01 C
3884 23-01-2014 14:35:00 4.3 C 86 % 2.17 C
3885 23-01-2014 14:40:00 4.3 C 85 % 2.01 C
3886 23-01-2014 14:45:00 4.3 C 85 % 2.01 C
3887 23-01-2014 14:50:00 4.4 C 85 % 2.11 C
3888 23-01-2014 14:55:00 4.4 C 85 % 2.11 C
3889 23-01-2014 15:00:00 4.4 C 86 % 2.27 C
3890 23-01-2014 15:05:00 4.4 C 86 % 2.27 C
3891 23-01-2014 15:10:00 4.5 C 85 % 2.2 C
3892 23-01-2014 15:15:00 4.5 C 86 % 2.37 C
3893 23-01-2014 15:20:00 4.6 C 86 % 2.47 C
3894 23-01-2014 15:25:00 4.6 C 86 % 2.47 C
3895 23-01-2014 15:30:00 4.6 C 86 % 2.47 C
3896 23-01-2014 15:35:00 4.7 C 86 % 2.56 C
3897 23-01-2014 15:40:00 4.7 C 86 % 2.56 C
3898 23-01-2014 15:45:00 4.7 C 86 % 2.56 C
3899 23-01-2014 15:50:00 4.7 C 86 % 2.56 C
3900 23-01-2014 15:55:00 4.7 C 87 % 2.73 C
Sensor: Nr:Datum:Temp:Feuchte:Taupunkt:
Aussen-T/F 3901 23-01-2014 16:00:00 4.7 C 87 %